<?xml version='1.0' encoding='UTF-8'?><gpx version="1.1" creator="JPX - https://github.com/jenetics/jpx" xmlns="http://www.topografix.com/GPX/1/1"><trk><trkseg><trkpt lat="45.6660404" lon="12.2259912"><ele>16.0</ele><time>2026-04-12T08:21:25.521Z</time></trkpt><trkpt lat="45.6660261" lon="12.2260819"><ele>15.999999999999998</ele><time>2026-04-12T08:21:28.518Z</time></trkpt><trkpt lat="45.6659998" lon="12.2261853"><ele>16.0</ele><time>2026-04-12T08:21:32.503Z</time></trkpt><trkpt lat="45.6660388" lon="12.2262909"><ele>16.0</ele><time>2026-04-12T08:21:36.548Z</time></trkpt><trkpt lat="45.6660728" lon="12.226388"><ele>15.999999999999998</ele><time>2026-04-12T08:21:40.503Z</time></trkpt><trkpt lat="45.6661016" lon="12.2264691"><ele>16.0</ele><time>2026-04-12T08:21:43.503Z</time></trkpt><trkpt lat="45.6661037" lon="12.226566"><ele>16.0</ele><time>2026-04-12T08:21:47.503Z</time></trkpt><trkpt lat="45.666104" lon="12.2266764"><ele>16.0</ele><time>2026-04-12T08:21:52.503Z</time></trkpt><trkpt lat="45.6660678" lon="12.2267638"><ele>15.999999999999998</ele><time>2026-04-12T08:21:57.525Z</time></trkpt><trkpt lat="45.6660051" lon="12.2268303"><ele>16.0</ele><time>2026-04-12T08:22:02.559Z</time></trkpt><trkpt lat="45.6659309" lon="12.2268779"><ele>16.0</ele><time>2026-04-12T08:22:06.515Z</time></trkpt><trkpt lat="45.6659036" lon="12.2269808"><ele>15.999999999999998</ele><time>2026-04-12T08:22:10.547Z</time></trkpt><trkpt lat="45.6659512" lon="12.2270491"><ele>16.0</ele><time>2026-04-12T08:22:13.394Z</time></trkpt><trkpt lat="45.6660127" lon="12.2270881"><ele>16.0</ele><time>2026-04-12T08:22:16.371Z</time></trkpt><trkpt lat="45.666078" lon="12.2271408"><ele>16.0</ele><time>2026-04-12T08:22:20.327Z</time></trkpt><trkpt lat="45.666127" lon="12.2272086"><ele>15.999999999999998</ele><time>2026-04-12T08:22:26.51Z</time></trkpt><trkpt lat="45.6661376" lon="12.2273179"><ele>16.0</ele><time>2026-04-12T08:22:30.503Z</time></trkpt><trkpt lat="45.6661306" lon="12.2274196"><ele>16.0</ele><time>2026-04-12T08:22:33.473Z</time></trkpt><trkpt lat="45.6661336" lon="12.227523"><ele>15.999999999999998</ele><time>2026-04-12T08:22:36.331Z</time></trkpt><trkpt lat="45.6661573" lon="12.2276093"><ele>16.0</ele><time>2026-04-12T08:22:38.747Z</time></trkpt><trkpt lat="45.6661639" lon="12.2277041"><ele>16.0</ele><time>2026-04-12T08:22:42.503Z</time></trkpt><trkpt lat="45.6661784" lon="12.2277929"><ele>16.142857142857142</ele><time>2026-04-12T08:22:47.586Z</time></trkpt><trkpt lat="45.6661895" lon="12.2278977"><ele>16.285714285714285</ele><time>2026-04-12T08:22:52.571Z</time></trkpt><trkpt lat="45.6661929" lon="12.2280111"><ele>16.428571428571427</ele><time>2026-04-12T08:22:57.503Z</time></trkpt><trkpt lat="45.6661918" lon="12.2281107"><ele>16.57142857142857</ele><time>2026-04-12T08:23:01.571Z</time></trkpt><trkpt lat="45.6662094" lon="12.2282224"><ele>16.714285714285715</ele><time>2026-04-12T08:23:06.587Z</time></trkpt><trkpt lat="45.666232" lon="12.2283252"><ele>16.857142857142854</ele><time>2026-04-12T08:23:10.525Z</time></trkpt><trkpt lat="45.6662352" lon="12.2284239"><ele>17.0</ele><time>2026-04-12T08:23:14.503Z</time></trkpt><trkpt lat="45.6662338" lon="12.2285359"><ele>17.142857142857142</ele><time>2026-04-12T08:23:19.514Z</time></trkpt><trkpt lat="45.6662444" lon="12.2286418"><ele>17.285714285714285</ele><time>2026-04-12T08:23:23.503Z</time></trkpt><trkpt lat="45.6662532" lon="12.2287407"><ele>17.42857142857143</ele><time>2026-04-12T08:23:27.545Z</time></trkpt><trkpt lat="45.6661928" lon="12.2287938"><ele>17.57142857142857</ele><time>2026-04-12T08:23:32.581Z</time></trkpt><trkpt lat="45.6661152" lon="12.2287931"><ele>17.714285714285715</ele><time>2026-04-12T08:23:36.572Z</time></trkpt><trkpt lat="45.6660475" lon="12.2288006"><ele>17.857142857142858</ele><time>2026-04-12T08:23:40.504Z</time></trkpt><trkpt lat="45.6659663" lon="12.228803"><ele>18.0</ele><time>2026-04-12T08:23:44.568Z</time></trkpt><trkpt lat="45.6658981" lon="12.2287682"><ele>18.000000000000004</ele><time>2026-04-12T08:23:48.522Z</time></trkpt><trkpt lat="45.6658298" lon="12.2287656"><ele>18.0</ele><time>2026-04-12T08:23:52.503Z</time></trkpt><trkpt lat="45.6657532" lon="12.2287635"><ele>18.0</ele><time>2026-04-12T08:23:57.512Z</time></trkpt><trkpt lat="45.6656791" lon="12.2287555"><ele>18.0</ele><time>2026-04-12T08:24:02.547Z</time></trkpt><trkpt lat="45.6656168" lon="12.2287767"><ele>18.0</ele><time>2026-04-12T08:24:06.503Z</time></trkpt><trkpt lat="45.6655434" lon="12.2288004"><ele>18.000000000000004</ele><time>2026-04-12T08:24:10.534Z</time></trkpt><trkpt lat="45.6654765" lon="12.2287978"><ele>18.0</ele><time>2026-04-12T08:24:14.41Z</time></trkpt><trkpt lat="45.6654055" lon="12.2287931"><ele>18.000000000000004</ele><time>2026-04-12T08:24:19.503Z</time></trkpt><trkpt lat="45.6653345" lon="12.2288061"><ele>18.0</ele><time>2026-04-12T08:24:23.524Z</time></trkpt><trkpt lat="45.6652643" lon="12.2288035"><ele>18.0</ele><time>2026-04-12T08:24:27.503Z</time></trkpt><trkpt lat="45.6651887" lon="12.2288012"><ele>18.0</ele><time>2026-04-12T08:24:31.555Z</time></trkpt><trkpt lat="45.6651132" lon="12.2288199"><ele>18.0</ele><time>2026-04-12T08:24:35.528Z</time></trkpt><trkpt lat="45.6650443" lon="12.2288187"><ele>18.000000000000004</ele><time>2026-04-12T08:24:39.587Z</time></trkpt><trkpt lat="45.6649611" lon="12.228808"><ele>18.0</ele><time>2026-04-12T08:24:44.509Z</time></trkpt><trkpt lat="45.6648911" lon="12.2288218"><ele>17.714285714285715</ele><time>2026-04-12T08:24:47.503Z</time></trkpt><trkpt lat="45.6648156" lon="12.2288569"><ele>17.42857142857143</ele><time>2026-04-12T08:24:52.611Z</time></trkpt><trkpt lat="45.6647407" lon="12.2288629"><ele>17.142857142857142</ele><time>2026-04-12T08:24:57.835Z</time></trkpt><trkpt lat="45.6646564" lon="12.2288656"><ele>16.857142857142858</ele><time>2026-04-12T08:25:01.671Z</time></trkpt><trkpt lat="45.6645871" lon="12.2288668"><ele>16.57142857142857</ele><time>2026-04-12T08:25:04.588Z</time></trkpt><trkpt lat="45.6645214" lon="12.2288726"><ele>16.285714285714285</ele><time>2026-04-12T08:25:06.535Z</time></trkpt><trkpt lat="45.664453" lon="12.2288636"><ele>16.0</ele><time>2026-04-12T08:25:08.433Z</time></trkpt><trkpt lat="45.6643821" lon="12.2288533"><ele>15.714285714285714</ele><time>2026-04-12T08:25:10.412Z</time></trkpt><trkpt lat="45.6643099" lon="12.2288485"><ele>15.428571428571427</ele><time>2026-04-12T08:25:13.51Z</time></trkpt><trkpt lat="45.6642422" lon="12.2288243"><ele>15.142857142857142</ele><time>2026-04-12T08:25:18.546Z</time></trkpt><trkpt lat="45.6641461" lon="12.2288074"><ele>14.857142857142858</ele><time>2026-04-12T08:25:27.535Z</time></trkpt><trkpt lat="45.6640828" lon="12.2288149"><ele>14.571428571428571</ele><time>2026-04-12T08:25:30.531Z</time></trkpt><trkpt lat="45.6640174" lon="12.2288084"><ele>14.285714285714285</ele><time>2026-04-12T08:25:32.609Z</time></trkpt><trkpt lat="45.6639437" lon="12.2287797"><ele>14.0</ele><time>2026-04-12T08:25:34.614Z</time></trkpt><trkpt lat="45.6638696" lon="12.2287731"><ele>14.000000000000002</ele><time>2026-04-12T08:25:36.538Z</time></trkpt><trkpt lat="45.6637972" lon="12.228773"><ele>14.0</ele><time>2026-04-12T08:25:38.49Z</time></trkpt><trkpt lat="45.6637192" lon="12.2288265"><ele>14.0</ele><time>2026-04-12T08:25:42.518Z</time></trkpt><trkpt lat="45.6636549" lon="12.228878"><ele>14.0</ele><time>2026-04-12T08:25:53.545Z</time></trkpt><trkpt lat="45.663579" lon="12.2288824"><ele>14.000000000000002</ele><time>2026-04-12T08:25:57.503Z</time></trkpt><trkpt lat="45.663505" lon="12.2289064"><ele>14.0</ele><time>2026-04-12T08:26:01.504Z</time></trkpt><trkpt lat="45.6634297" lon="12.2289298"><ele>13.714285714285714</ele><time>2026-04-12T08:26:05.532Z</time></trkpt><trkpt lat="45.6633655" lon="12.2289933"><ele>13.428571428571429</ele><time>2026-04-12T08:26:09.554Z</time></trkpt><trkpt lat="45.6632915" lon="12.2290495"><ele>13.142857142857142</ele><time>2026-04-12T08:26:13.49Z</time></trkpt><trkpt lat="45.6632633" lon="12.2291533"><ele>12.857142857142858</ele><time>2026-04-12T08:26:17.335Z</time></trkpt><trkpt lat="45.6632129" lon="12.2292204"><ele>12.571428571428571</ele><time>2026-04-12T08:26:21.593Z</time></trkpt><trkpt lat="45.6631538" lon="12.2292553"><ele>12.285714285714285</ele><time>2026-04-12T08:26:24.588Z</time></trkpt><trkpt lat="45.6630865" lon="12.2292629"><ele>12.0</ele><time>2026-04-12T08:26:27.587Z</time></trkpt><trkpt lat="45.6630133" lon="12.2292743"><ele>11.999999999999998</ele><time>2026-04-12T08:26:30.47Z</time></trkpt><trkpt lat="45.6629471" lon="12.2293185"><ele>12.0</ele><time>2026-04-12T08:26:34.538Z</time></trkpt><trkpt lat="45.6628948" lon="12.2294036"><ele>12.0</ele><time>2026-04-12T08:26:38.694Z</time></trkpt><trkpt lat="45.6628328" lon="12.2294506"><ele>12.0</ele><time>2026-04-12T08:26:41.668Z</time></trkpt><trkpt lat="45.6627674" lon="12.2295207"><ele>12.0</ele><time>2026-04-12T08:26:45.432Z</time></trkpt><trkpt lat="45.662721" lon="12.2296064"><ele>11.999999999999998</ele><time>2026-04-12T08:26:49.52Z</time></trkpt><trkpt lat="45.6626771" lon="12.2296721"><ele>12.0</ele><time>2026-04-12T08:26:53.595Z</time></trkpt><trkpt lat="45.6626181" lon="12.2297295"><ele>11.857142857142856</ele><time>2026-04-12T08:26:57.551Z</time></trkpt><trkpt lat="45.6625613" lon="12.22977"><ele>11.714285714285714</ele><time>2026-04-12T08:27:00.547Z</time></trkpt><trkpt lat="45.6625142" lon="12.2298309"><ele>11.571428571428571</ele><time>2026-04-12T08:27:03.544Z</time></trkpt><trkpt lat="45.6624757" lon="12.2299199"><ele>11.428571428571427</ele><time>2026-04-12T08:27:07.503Z</time></trkpt><trkpt lat="45.6624255" lon="12.2300124"><ele>11.285714285714285</ele><time>2026-04-12T08:27:11.574Z</time></trkpt><trkpt lat="45.6623744" lon="12.2300911"><ele>11.142857142857142</ele><time>2026-04-12T08:27:15.529Z</time></trkpt><trkpt lat="45.6623242" lon="12.2301458"><ele>11.0</ele><time>2026-04-12T08:27:19.504Z</time></trkpt><trkpt lat="45.6622667" lon="12.2302023"><ele>11.285714285714286</ele><time>2026-04-12T08:27:23.56Z</time></trkpt><trkpt lat="45.6622192" lon="12.2302862"><ele>11.571428571428571</ele><time>2026-04-12T08:27:27.515Z</time></trkpt><trkpt lat="45.6621623" lon="12.2303517"><ele>11.857142857142858</ele><time>2026-04-12T08:27:31.59Z</time></trkpt><trkpt lat="45.6621255" lon="12.2304379"><ele>12.142857142857142</ele><time>2026-04-12T08:27:35.546Z</time></trkpt><trkpt lat="45.6620698" lon="12.2304997"><ele>12.428571428571429</ele><time>2026-04-12T08:27:39.503Z</time></trkpt><trkpt lat="45.662011" lon="12.2305715"><ele>12.714285714285714</ele><time>2026-04-12T08:27:43.453Z</time></trkpt><trkpt lat="45.6619773" lon="12.2306483"><ele>13.0</ele><time>2026-04-12T08:27:47.609Z</time></trkpt><trkpt lat="45.6619126" lon="12.2306735"><ele>12.999999999999998</ele><time>2026-04-12T08:27:50.006Z</time></trkpt><trkpt lat="45.6618545" lon="12.2307465"><ele>13.0</ele><time>2026-04-12T08:27:53.525Z</time></trkpt><trkpt lat="45.66181" lon="12.2308301"><ele>13.0</ele><time>2026-04-12T08:27:56.521Z</time></trkpt><trkpt lat="45.6617673" lon="12.2309123"><ele>13.0</ele><time>2026-04-12T08:27:59.517Z</time></trkpt><trkpt lat="45.6617135" lon="12.2309937"><ele>12.999999999999998</ele><time>2026-04-12T08:28:04.551Z</time></trkpt><trkpt lat="45.6616715" lon="12.2310821"><ele>13.0</ele><time>2026-04-12T08:28:08.494Z</time></trkpt><trkpt lat="45.6616271" lon="12.2311702"><ele>13.0</ele><time>2026-04-12T08:28:12.449Z</time></trkpt><trkpt lat="45.6615744" lon="12.2312335"><ele>13.0</ele><time>2026-04-12T08:28:16.537Z</time></trkpt><trkpt lat="45.6615167" lon="12.2313016"><ele>13.0</ele><time>2026-04-12T08:28:20.613Z</time></trkpt><trkpt lat="45.6614609" lon="12.2313544"><ele>13.0</ele><time>2026-04-12T08:28:24.134Z</time></trkpt><trkpt lat="45.6614155" lon="12.2314194"><ele>13.0</ele><time>2026-04-12T08:28:27.564Z</time></trkpt><trkpt lat="45.6613575" lon="12.2314833"><ele>13.0</ele><time>2026-04-12T08:28:32.599Z</time></trkpt><trkpt lat="45.6613176" lon="12.2315923"><ele>13.0</ele><time>2026-04-12T08:28:36.529Z</time></trkpt><trkpt lat="45.6612636" lon="12.2316635"><ele>12.857142857142856</ele><time>2026-04-12T08:28:39.549Z</time></trkpt><trkpt lat="45.6612207" lon="12.2317599"><ele>12.714285714285715</ele><time>2026-04-12T08:28:43.504Z</time></trkpt><trkpt lat="45.6611737" lon="12.2318646"><ele>12.571428571428571</ele><time>2026-04-12T08:28:47.558Z</time></trkpt><trkpt lat="45.6611363" lon="12.2319378"><ele>12.428571428571427</ele><time>2026-04-12T08:28:50.576Z</time></trkpt><trkpt lat="45.6610778" lon="12.232008"><ele>12.285714285714285</ele><time>2026-04-12T08:28:54.528Z</time></trkpt><trkpt lat="45.6610313" lon="12.2320712"><ele>12.142857142857142</ele><time>2026-04-12T08:28:59.565Z</time></trkpt><trkpt lat="45.6609705" lon="12.2321185"><ele>12.0</ele><time>2026-04-12T08:29:03.52Z</time></trkpt><trkpt lat="45.6609271" lon="12.232198"><ele>12.0</ele><time>2026-04-12T08:29:07.595Z</time></trkpt><trkpt lat="45.660869" lon="12.2322795"><ele>12.0</ele><time>2026-04-12T08:29:11.55Z</time></trkpt><trkpt lat="45.6608075" lon="12.2323607"><ele>12.0</ele><time>2026-04-12T08:29:15.506Z</time></trkpt><trkpt lat="45.6607677" lon="12.2324306"><ele>12.0</ele><time>2026-04-12T08:29:18.504Z</time></trkpt><trkpt lat="45.6607147" lon="12.2325099"><ele>12.0</ele><time>2026-04-12T08:29:22.577Z</time></trkpt><trkpt lat="45.6606768" lon="12.2326058"><ele>12.0</ele><time>2026-04-12T08:29:26.533Z</time></trkpt><trkpt lat="45.6606341" lon="12.2327014"><ele>11.857142857142856</ele><time>2026-04-12T08:29:30.503Z</time></trkpt><trkpt lat="45.6606005" lon="12.2328004"><ele>11.714285714285714</ele><time>2026-04-12T08:29:34.557Z</time></trkpt><trkpt lat="45.6605602" lon="12.2328703"><ele>11.571428571428571</ele><time>2026-04-12T08:29:37.466Z</time></trkpt><trkpt lat="45.6605016" lon="12.2329484"><ele>11.428571428571427</ele><time>2026-04-12T08:29:41.371Z</time></trkpt><trkpt lat="45.6604834" lon="12.2330522"><ele>11.285714285714285</ele><time>2026-04-12T08:29:46.548Z</time></trkpt><trkpt lat="45.6604706" lon="12.2331408"><ele>11.142857142857142</ele><time>2026-04-12T08:29:50.503Z</time></trkpt><trkpt lat="45.6604646" lon="12.2332474"><ele>11.0</ele><time>2026-04-12T08:29:54.578Z</time></trkpt><trkpt lat="45.6604127" lon="12.2333174"><ele>11.428571428571429</ele><time>2026-04-12T08:29:58.533Z</time></trkpt><trkpt lat="45.6603851" lon="12.2334095"><ele>11.857142857142858</ele><time>2026-04-12T08:30:02.608Z</time></trkpt><trkpt lat="45.6603681" lon="12.2335122"><ele>12.285714285714285</ele><time>2026-04-12T08:30:06.563Z</time></trkpt><trkpt lat="45.6603529" lon="12.2336134"><ele>12.714285714285715</ele><time>2026-04-12T08:30:10.518Z</time></trkpt><trkpt lat="45.6603447" lon="12.2337094"><ele>13.142857142857142</ele><time>2026-04-12T08:30:14.593Z</time></trkpt><trkpt lat="45.6603357" lon="12.2338082"><ele>13.571428571428571</ele><time>2026-04-12T08:30:18.549Z</time></trkpt><trkpt lat="45.6603157" lon="12.2338989"><ele>14.0</ele><time>2026-04-12T08:30:21.546Z</time></trkpt><trkpt lat="45.6602991" lon="12.2339874"><ele>13.571428571428571</ele><time>2026-04-12T08:30:24.629Z</time></trkpt><trkpt lat="45.6602797" lon="12.2340901"><ele>13.142857142857142</ele><time>2026-04-12T08:30:28.503Z</time></trkpt><trkpt lat="45.6602679" lon="12.2342"><ele>12.714285714285715</ele><time>2026-04-12T08:30:32.572Z</time></trkpt><trkpt lat="45.6602699" lon="12.2342907"><ele>12.285714285714285</ele><time>2026-04-12T08:30:35.569Z</time></trkpt><trkpt lat="45.6602455" lon="12.2344021"><ele>11.857142857142858</ele><time>2026-04-12T08:30:39.523Z</time></trkpt><trkpt lat="45.6602203" lon="12.2345017"><ele>11.428571428571429</ele><time>2026-04-12T08:30:43.503Z</time></trkpt><trkpt lat="45.6602103" lon="12.2346007"><ele>11.0</ele><time>2026-04-12T08:30:47.553Z</time></trkpt><trkpt lat="45.6602029" lon="12.2347024"><ele>11.0</ele><time>2026-04-12T08:30:51.504Z</time></trkpt><trkpt lat="45.660196" lon="12.2347931"><ele>11.0</ele><time>2026-04-12T08:30:55.45Z</time></trkpt><trkpt lat="45.6601934" lon="12.2348896"><ele>11.0</ele><time>2026-04-12T08:30:59.326Z</time></trkpt><trkpt lat="45.6601651" lon="12.2349798"><ele>11.0</ele><time>2026-04-12T08:31:03.503Z</time></trkpt><trkpt lat="45.6601458" lon="12.2350762"><ele>11.0</ele><time>2026-04-12T08:31:07.569Z</time></trkpt><trkpt lat="45.6601325" lon="12.2351793"><ele>11.0</ele><time>2026-04-12T08:31:10.565Z</time></trkpt><trkpt lat="45.6601238" lon="12.2352835"><ele>11.0</ele><time>2026-04-12T08:31:13.561Z</time></trkpt><trkpt lat="45.6601207" lon="12.2353739"><ele>11.166666666666666</ele><time>2026-04-12T08:31:16.558Z</time></trkpt><trkpt lat="45.6601202" lon="12.2354836"><ele>11.333333333333332</ele><time>2026-04-12T08:31:20.633Z</time></trkpt><trkpt lat="45.66011" lon="12.2356007"><ele>11.5</ele><time>2026-04-12T08:31:24.588Z</time></trkpt><trkpt lat="45.6601027" lon="12.2357146"><ele>11.666666666666666</ele><time>2026-04-12T08:31:28.543Z</time></trkpt><trkpt lat="45.6600979" lon="12.2358193"><ele>11.833333333333334</ele><time>2026-04-12T08:31:32.503Z</time></trkpt><trkpt lat="45.6600935" lon="12.2359243"><ele>12.0</ele><time>2026-04-12T08:31:36.574Z</time></trkpt><trkpt lat="45.6600887" lon="12.2360187"><ele>12.142857142857142</ele><time>2026-04-12T08:31:40.53Z</time></trkpt><trkpt lat="45.660092" lon="12.2361394"><ele>12.285714285714285</ele><time>2026-04-12T08:31:44.604Z</time></trkpt><trkpt lat="45.6600892" lon="12.2362392"><ele>12.428571428571427</ele><time>2026-04-12T08:31:48.526Z</time></trkpt><trkpt lat="45.6600699" lon="12.2363415"><ele>12.571428571428571</ele><time>2026-04-12T08:31:53.51Z</time></trkpt><trkpt lat="45.6600553" lon="12.2364423"><ele>12.714285714285715</ele><time>2026-04-12T08:31:57.549Z</time></trkpt><trkpt lat="45.6600378" lon="12.2365433"><ele>12.857142857142856</ele><time>2026-04-12T08:32:01.504Z</time></trkpt><trkpt lat="45.6600104" lon="12.2366307"><ele>13.0</ele><time>2026-04-12T08:32:04.626Z</time></trkpt><trkpt lat="45.6599738" lon="12.2367146"><ele>13.0</ele><time>2026-04-12T08:32:08.552Z</time></trkpt><trkpt lat="45.6599319" lon="12.2368025"><ele>13.0</ele><time>2026-04-12T08:32:11.571Z</time></trkpt><trkpt lat="45.6598649" lon="12.2368781"><ele>13.0</ele><time>2026-04-12T08:32:15.512Z</time></trkpt><trkpt lat="45.6598326" lon="12.2369689"><ele>13.0</ele><time>2026-04-12T08:32:19.601Z</time></trkpt><trkpt lat="45.6598423" lon="12.2370592"><ele>13.0</ele><time>2026-04-12T08:32:23.556Z</time></trkpt><trkpt lat="45.6598806" lon="12.2371559"><ele>13.0</ele><time>2026-04-12T08:32:27.511Z</time></trkpt><trkpt lat="45.6598948" lon="12.2372593"><ele>13.0</ele><time>2026-04-12T08:32:31.587Z</time></trkpt><trkpt lat="45.6598874" lon="12.2373508"><ele>13.0</ele><time>2026-04-12T08:32:34.582Z</time></trkpt><trkpt lat="45.6598936" lon="12.2374705"><ele>13.0</ele><time>2026-04-12T08:32:38.539Z</time></trkpt><trkpt lat="45.659896" lon="12.2375863"><ele>13.0</ele><time>2026-04-12T08:32:42.613Z</time></trkpt><trkpt lat="45.6598994" lon="12.2376796"><ele>13.0</ele><time>2026-04-12T08:32:45.506Z</time></trkpt><trkpt lat="45.6599115" lon="12.2377781"><ele>13.0</ele><time>2026-04-12T08:32:50.523Z</time></trkpt><trkpt lat="45.6598911" lon="12.2378699"><ele>13.0</ele><time>2026-04-12T08:32:53.519Z</time></trkpt><trkpt lat="45.659888" lon="12.237979"><ele>13.0</ele><time>2026-04-12T08:32:57.594Z</time></trkpt><trkpt lat="45.659897" lon="12.2381008"><ele>13.142857142857142</ele><time>2026-04-12T08:33:01.586Z</time></trkpt><trkpt lat="45.6598919" lon="12.2382002"><ele>13.285714285714286</ele><time>2026-04-12T08:33:05.504Z</time></trkpt><trkpt lat="45.6598836" lon="12.2382926"><ele>13.428571428571429</ele><time>2026-04-12T08:33:09.579Z</time></trkpt><trkpt lat="45.6599028" lon="12.2383982"><ele>13.571428571428571</ele><time>2026-04-12T08:33:14.503Z</time></trkpt><trkpt lat="45.6599091" lon="12.2384929"><ele>13.714285714285715</ele><time>2026-04-12T08:33:18.569Z</time></trkpt><trkpt lat="45.6599078" lon="12.2385934"><ele>13.857142857142858</ele><time>2026-04-12T08:33:22.524Z</time></trkpt><trkpt lat="45.6599155" lon="12.2387057"><ele>14.0</ele><time>2026-04-12T08:33:26.599Z</time></trkpt><trkpt lat="45.6599252" lon="12.2388127"><ele>14.0</ele><time>2026-04-12T08:33:30.554Z</time></trkpt><trkpt lat="45.6599393" lon="12.2389256"><ele>14.0</ele><time>2026-04-12T08:33:34.508Z</time></trkpt><trkpt lat="45.6599585" lon="12.2390331"><ele>14.0</ele><time>2026-04-12T08:33:38.584Z</time></trkpt><trkpt lat="45.6599719" lon="12.2391249"><ele>14.0</ele><time>2026-04-12T08:33:42.539Z</time></trkpt><trkpt lat="45.6599883" lon="12.2392296"><ele>14.0</ele><time>2026-04-12T08:33:46.503Z</time></trkpt><trkpt lat="45.6599887" lon="12.2393202"><ele>14.0</ele><time>2026-04-12T08:33:49.503Z</time></trkpt><trkpt lat="45.6599767" lon="12.2394117"><ele>14.0</ele><time>2026-04-12T08:33:52.503Z</time></trkpt><trkpt lat="45.6599603" lon="12.2395184"><ele>14.0</ele><time>2026-04-12T08:33:56.56Z</time></trkpt><trkpt lat="45.6599721" lon="12.2396269"><ele>14.0</ele><time>2026-04-12T08:34:00.516Z</time></trkpt><trkpt lat="45.6600086" lon="12.2397135"><ele>14.0</ele><time>2026-04-12T08:34:04.503Z</time></trkpt><trkpt lat="45.6600432" lon="12.2398023"><ele>14.0</ele><time>2026-04-12T08:34:08.545Z</time></trkpt><trkpt lat="45.6600628" lon="12.2399036"><ele>14.0</ele><time>2026-04-12T08:34:12.503Z</time></trkpt><trkpt lat="45.6600585" lon="12.2400244"><ele>14.0</ele><time>2026-04-12T08:34:16.575Z</time></trkpt><trkpt lat="45.6600526" lon="12.2401264"><ele>14.0</ele><time>2026-04-12T08:34:20.53Z</time></trkpt><trkpt lat="45.6600722" lon="12.2402357"><ele>14.000000000000002</ele><time>2026-04-12T08:34:24.605Z</time></trkpt><trkpt lat="45.6600771" lon="12.2403407"><ele>14.0</ele><time>2026-04-12T08:34:28.56Z</time></trkpt><trkpt lat="45.6600664" lon="12.2404575"><ele>14.0</ele><time>2026-04-12T08:34:32.515Z</time></trkpt><trkpt lat="45.6600609" lon="12.2405512"><ele>14.0</ele><time>2026-04-12T08:34:35.512Z</time></trkpt><trkpt lat="45.6600677" lon="12.2406714"><ele>14.000000000000002</ele><time>2026-04-12T08:34:39.515Z</time></trkpt><trkpt lat="45.6600639" lon="12.2407658"><ele>14.0</ele><time>2026-04-12T08:34:43.541Z</time></trkpt><trkpt lat="45.6600533" lon="12.2408779"><ele>13.857142857142858</ele><time>2026-04-12T08:34:48.576Z</time></trkpt><trkpt lat="45.6600562" lon="12.2409768"><ele>13.714285714285715</ele><time>2026-04-12T08:34:52.53Z</time></trkpt><trkpt lat="45.6600595" lon="12.2410816"><ele>13.571428571428571</ele><time>2026-04-12T08:34:56.504Z</time></trkpt><trkpt lat="45.660067" lon="12.2411815"><ele>13.428571428571429</ele><time>2026-04-12T08:35:00.56Z</time></trkpt><trkpt lat="45.6600807" lon="12.2412999"><ele>13.285714285714286</ele><time>2026-04-12T08:35:04.515Z</time></trkpt><trkpt lat="45.6600845" lon="12.2413924"><ele>13.142857142857142</ele><time>2026-04-12T08:35:07.511Z</time></trkpt><trkpt lat="45.6600837" lon="12.2415006"><ele>13.0</ele><time>2026-04-12T08:35:11.586Z</time></trkpt><trkpt lat="45.6600906" lon="12.2416062"><ele>13.0</ele><time>2026-04-12T08:35:15.541Z</time></trkpt><trkpt lat="45.6600869" lon="12.2417128"><ele>13.0</ele><time>2026-04-12T08:35:19.503Z</time></trkpt><trkpt lat="45.6600765" lon="12.2418221"><ele>13.0</ele><time>2026-04-12T08:35:23.571Z</time></trkpt><trkpt lat="45.6600468" lon="12.2419169"><ele>13.0</ele><time>2026-04-12T08:35:27.527Z</time></trkpt><trkpt lat="45.6600582" lon="12.2420279"><ele>13.0</ele><time>2026-04-12T08:35:32.56Z</time></trkpt><trkpt lat="45.6600581" lon="12.2421299"><ele>13.0</ele><time>2026-04-12T08:35:36.515Z</time></trkpt><trkpt lat="45.6600745" lon="12.2422215"><ele>13.0</ele><time>2026-04-12T08:35:41.548Z</time></trkpt><trkpt lat="45.6600782" lon="12.2423265"><ele>13.285714285714285</ele><time>2026-04-12T08:35:46.583Z</time></trkpt><trkpt lat="45.6600847" lon="12.242419"><ele>13.571428571428573</ele><time>2026-04-12T08:35:50.554Z</time></trkpt><trkpt lat="45.660095" lon="12.2425081"><ele>13.857142857142858</ele><time>2026-04-12T08:35:55.49Z</time></trkpt><trkpt lat="45.6600978" lon="12.2426043"><ele>14.142857142857142</ele><time>2026-04-12T08:36:00.503Z</time></trkpt><trkpt lat="45.6601007" lon="12.2427093"><ele>14.428571428571427</ele><time>2026-04-12T08:36:05.048Z</time></trkpt><trkpt lat="45.6601139" lon="12.2428024"><ele>14.714285714285715</ele><time>2026-04-12T08:36:10.03Z</time></trkpt><trkpt lat="45.6601429" lon="12.2429049"><ele>15.0</ele><time>2026-04-12T08:36:16.093Z</time></trkpt><trkpt lat="45.6601714" lon="12.2430134"><ele>15.0</ele><time>2026-04-12T08:36:21.286Z</time></trkpt><trkpt lat="45.6601747" lon="12.2431177"><ele>15.0</ele><time>2026-04-12T08:36:26.503Z</time></trkpt><trkpt lat="45.6601574" lon="12.2432203"><ele>15.0</ele><time>2026-04-12T08:36:31.526Z</time></trkpt><trkpt lat="45.6601477" lon="12.2433151"><ele>15.0</ele><time>2026-04-12T08:36:35.369Z</time></trkpt><trkpt lat="45.6601493" lon="12.2434141"><ele>15.0</ele><time>2026-04-12T08:36:38.496Z</time></trkpt><trkpt lat="45.6601726" lon="12.2435242"><ele>15.0</ele><time>2026-04-12T08:36:42.553Z</time></trkpt><trkpt lat="45.6601804" lon="12.243639"><ele>15.0</ele><time>2026-04-12T08:36:46.546Z</time></trkpt><trkpt lat="45.6601808" lon="12.2437452"><ele>15.0</ele><time>2026-04-12T08:36:49.591Z</time></trkpt><trkpt lat="45.6601796" lon="12.2438397"><ele>15.0</ele><time>2026-04-12T08:36:52.504Z</time></trkpt><trkpt lat="45.6601612" lon="12.2439339"><ele>15.0</ele><time>2026-04-12T08:36:55.503Z</time></trkpt><trkpt lat="45.6601056" lon="12.2440206"><ele>15.0</ele><time>2026-04-12T08:36:59.611Z</time></trkpt><trkpt lat="45.6600784" lon="12.2441266"><ele>15.0</ele><time>2026-04-12T08:37:03.528Z</time></trkpt><trkpt lat="45.6600745" lon="12.2442366"><ele>15.0</ele><time>2026-04-12T08:37:06.523Z</time></trkpt><trkpt lat="45.6600677" lon="12.2443476"><ele>14.666666666666666</ele><time>2026-04-12T08:37:10.503Z</time></trkpt><trkpt lat="45.6600635" lon="12.2444626"><ele>14.333333333333332</ele><time>2026-04-12T08:37:14.554Z</time></trkpt><trkpt lat="45.660068" lon="12.2445698"><ele>14.0</ele><time>2026-04-12T08:37:17.551Z</time></trkpt><trkpt lat="45.6600913" lon="12.2446775"><ele>13.666666666666666</ele><time>2026-04-12T08:37:20.546Z</time></trkpt><trkpt lat="45.6601368" lon="12.244765"><ele>13.333333333333332</ele><time>2026-04-12T08:37:24.504Z</time></trkpt><trkpt lat="45.6601686" lon="12.2448595"><ele>13.0</ele><time>2026-04-12T08:37:28.577Z</time></trkpt><trkpt lat="45.6601845" lon="12.2449603"><ele>12.999999999999998</ele><time>2026-04-12T08:37:32.533Z</time></trkpt><trkpt lat="45.6602054" lon="12.2450643"><ele>13.0</ele><time>2026-04-12T08:37:36.503Z</time></trkpt><trkpt lat="45.6601986" lon="12.2451788"><ele>13.0</ele><time>2026-04-12T08:37:40.562Z</time></trkpt><trkpt lat="45.6601821" lon="12.2452826"><ele>13.0</ele><time>2026-04-12T08:37:44.517Z</time></trkpt><trkpt lat="45.6601974" lon="12.2453919"><ele>12.999999999999998</ele><time>2026-04-12T08:37:48.592Z</time></trkpt><trkpt lat="45.6601671" lon="12.2454931"><ele>13.0</ele><time>2026-04-12T08:37:53.394Z</time></trkpt><trkpt lat="45.6601463" lon="12.245599"><ele>12.857142857142856</ele><time>2026-04-12T08:37:58.408Z</time></trkpt><trkpt lat="45.6601247" lon="12.2457039"><ele>12.714285714285715</ele><time>2026-04-12T08:38:03.574Z</time></trkpt><trkpt lat="45.6601269" lon="12.2458065"><ele>12.571428571428571</ele><time>2026-04-12T08:38:07.407Z</time></trkpt><trkpt lat="45.6601268" lon="12.2459166"><ele>12.428571428571427</ele><time>2026-04-12T08:38:11.452Z</time></trkpt><trkpt lat="45.6601271" lon="12.2460076"><ele>12.285714285714285</ele><time>2026-04-12T08:38:14.469Z</time></trkpt><trkpt lat="45.6601157" lon="12.2461214"><ele>12.142857142857142</ele><time>2026-04-12T08:38:18.454Z</time></trkpt><trkpt lat="45.6601209" lon="12.2462312"><ele>12.0</ele><time>2026-04-12T08:38:22.429Z</time></trkpt><trkpt lat="45.6601318" lon="12.2463401"><ele>11.999999999999998</ele><time>2026-04-12T08:38:26.455Z</time></trkpt><trkpt lat="45.6601429" lon="12.2464553"><ele>12.0</ele><time>2026-04-12T08:38:30.49Z</time></trkpt><trkpt lat="45.6601686" lon="12.2465474"><ele>12.0</ele><time>2026-04-12T08:38:34.555Z</time></trkpt><trkpt lat="45.6601797" lon="12.2466461"><ele>12.0</ele><time>2026-04-12T08:38:38.609Z</time></trkpt><trkpt lat="45.6601613" lon="12.2467528"><ele>12.0</ele><time>2026-04-12T08:38:42.527Z</time></trkpt><trkpt lat="45.6601142" lon="12.2468442"><ele>11.999999999999998</ele><time>2026-04-12T08:38:46.503Z</time></trkpt><trkpt lat="45.6600779" lon="12.246929"><ele>12.0</ele><time>2026-04-12T08:38:50.536Z</time></trkpt><trkpt lat="45.6600159" lon="12.2470024"><ele>12.285714285714285</ele><time>2026-04-12T08:38:54.531Z</time></trkpt><trkpt lat="45.6599614" lon="12.2470777"><ele>12.571428571428571</ele><time>2026-04-12T08:38:58.596Z</time></trkpt><trkpt lat="45.6598975" lon="12.2470687"><ele>12.857142857142858</ele><time>2026-04-12T08:39:03.503Z</time></trkpt><trkpt lat="45.6598316" lon="12.2470276"><ele>13.142857142857142</ele><time>2026-04-12T08:39:08.614Z</time></trkpt><trkpt lat="45.6598929" lon="12.2470802"><ele>13.428571428571429</ele><time>2026-04-12T08:39:14.529Z</time></trkpt><trkpt lat="45.6599664" lon="12.2471135"><ele>13.714285714285714</ele><time>2026-04-12T08:39:18.504Z</time></trkpt><trkpt lat="45.66004" lon="12.2471532"><ele>14.0</ele><time>2026-04-12T08:39:22.559Z</time></trkpt><trkpt lat="45.6601101" lon="12.2472116"><ele>14.0</ele><time>2026-04-12T08:39:26.515Z</time></trkpt><trkpt lat="45.6601728" lon="12.2472581"><ele>14.0</ele><time>2026-04-12T08:39:29.511Z</time></trkpt><trkpt lat="45.6602311" lon="12.2473023"><ele>14.0</ele><time>2026-04-12T08:39:32.507Z</time></trkpt><trkpt lat="45.6603" lon="12.2473523"><ele>14.0</ele><time>2026-04-12T08:39:36.451Z</time></trkpt><trkpt lat="45.6603711" lon="12.2473788"><ele>14.0</ele><time>2026-04-12T08:39:40.516Z</time></trkpt><trkpt lat="45.6604388" lon="12.2473405"><ele>14.0</ele><time>2026-04-12T08:39:44.503Z</time></trkpt><trkpt lat="45.6604884" lon="12.2472599"><ele>14.0</ele><time>2026-04-12T08:39:48.568Z</time></trkpt><trkpt lat="45.6605321" lon="12.2471809"><ele>14.285714285714285</ele><time>2026-04-12T08:39:52.452Z</time></trkpt><trkpt lat="45.6605767" lon="12.2472502"><ele>14.571428571428571</ele><time>2026-04-12T08:39:59.593Z</time></trkpt><trkpt lat="45.6605389" lon="12.2473349"><ele>14.857142857142858</ele><time>2026-04-12T08:40:04.509Z</time></trkpt><trkpt lat="45.6605307" lon="12.2474292"><ele>15.142857142857142</ele><time>2026-04-12T08:40:08.513Z</time></trkpt><trkpt lat="45.660581" lon="12.2475149"><ele>15.428571428571427</ele><time>2026-04-12T08:40:12.588Z</time></trkpt><trkpt lat="45.660649" lon="12.2475778"><ele>15.714285714285714</ele><time>2026-04-12T08:40:16.503Z</time></trkpt><trkpt lat="45.6607154" lon="12.2476345"><ele>16.0</ele><time>2026-04-12T08:40:20.571Z</time></trkpt><trkpt lat="45.6607782" lon="12.2476896"><ele>16.0</ele><time>2026-04-12T08:40:24.526Z</time></trkpt><trkpt lat="45.6608424" lon="12.2477368"><ele>15.999999999999998</ele><time>2026-04-12T08:40:28.429Z</time></trkpt><trkpt lat="45.6609114" lon="12.2477904"><ele>16.0</ele><time>2026-04-12T08:40:32.614Z</time></trkpt><trkpt lat="45.6609706" lon="12.2478341"><ele>16.0</ele><time>2026-04-12T08:40:36.511Z</time></trkpt><trkpt lat="45.6610337" lon="12.2478671"><ele>15.999999999999998</ele><time>2026-04-12T08:40:40.503Z</time></trkpt><trkpt lat="45.6610972" lon="12.2479093"><ele>16.0</ele><time>2026-04-12T08:40:44.542Z</time></trkpt><trkpt lat="45.6611656" lon="12.2479567"><ele>16.0</ele><time>2026-04-12T08:40:48.454Z</time></trkpt><trkpt lat="45.6612393" lon="12.2480082"><ele>16.0</ele><time>2026-04-12T08:40:52.531Z</time></trkpt><trkpt lat="45.6613098" lon="12.2480467"><ele>15.999999999999998</ele><time>2026-04-12T08:40:56.528Z</time></trkpt><trkpt lat="45.6613723" lon="12.2480915"><ele>16.0</ele><time>2026-04-12T08:41:00.504Z</time></trkpt><trkpt lat="45.6614421" lon="12.2481489"><ele>16.0</ele><time>2026-04-12T08:41:04.558Z</time></trkpt><trkpt lat="45.6615071" lon="12.2482136"><ele>15.999999999999998</ele><time>2026-04-12T08:41:08.514Z</time></trkpt><trkpt lat="45.6615593" lon="12.2482835"><ele>16.0</ele><time>2026-04-12T08:41:12.589Z</time></trkpt><trkpt lat="45.6616123" lon="12.2483475"><ele>16.0</ele><time>2026-04-12T08:41:16.544Z</time></trkpt><trkpt lat="45.6616666" lon="12.2484195"><ele>16.0</ele><time>2026-04-12T08:41:20.504Z</time></trkpt><trkpt lat="45.6617179" lon="12.2485119"><ele>15.999999999999998</ele><time>2026-04-12T08:41:24.575Z</time></trkpt><trkpt lat="45.6617537" lon="12.248586"><ele>16.0</ele><time>2026-04-12T08:41:27.571Z</time></trkpt><trkpt lat="45.6617821" lon="12.2486835"><ele>16.0</ele><time>2026-04-12T08:41:31.527Z</time></trkpt><trkpt lat="45.6618255" lon="12.2487801"><ele>15.999999999999998</ele><time>2026-04-12T08:41:35.602Z</time></trkpt><trkpt lat="45.6618636" lon="12.2488666"><ele>16.0</ele><time>2026-04-12T08:41:39.557Z</time></trkpt><trkpt lat="45.6618931" lon="12.248961"><ele>16.0</ele><time>2026-04-12T08:41:43.513Z</time></trkpt><trkpt lat="45.6619048" lon="12.2490647"><ele>15.857142857142856</ele><time>2026-04-12T08:41:47.588Z</time></trkpt><trkpt lat="45.6619037" lon="12.2491701"><ele>15.714285714285712</ele><time>2026-04-12T08:41:51.543Z</time></trkpt><trkpt lat="45.6619203" lon="12.2492764"><ele>15.571428571428571</ele><time>2026-04-12T08:41:55.503Z</time></trkpt><trkpt lat="45.6619677" lon="12.2493476"><ele>15.428571428571427</ele><time>2026-04-12T08:42:05.594Z</time></trkpt><trkpt lat="45.662027" lon="12.2493974"><ele>15.285714285714285</ele><time>2026-04-12T08:42:11.56Z</time></trkpt><trkpt lat="45.6620092" lon="12.2494879"><ele>15.142857142857142</ele><time>2026-04-12T08:42:16.503Z</time></trkpt><trkpt lat="45.6620038" lon="12.2495843"><ele>15.0</ele><time>2026-04-12T08:42:20.55Z</time></trkpt><trkpt lat="45.6620317" lon="12.249685"><ele>15.0</ele><time>2026-04-12T08:42:24.504Z</time></trkpt><trkpt lat="45.662046" lon="12.2497935"><ele>15.0</ele><time>2026-04-12T08:42:28.58Z</time></trkpt><trkpt lat="45.6620381" lon="12.2498833"><ele>15.0</ele><time>2026-04-12T08:42:31.576Z</time></trkpt><trkpt lat="45.6620405" lon="12.249977"><ele>15.0</ele><time>2026-04-12T08:42:34.571Z</time></trkpt><trkpt lat="45.6620519" lon="12.250094"><ele>15.0</ele><time>2026-04-12T08:42:38.596Z</time></trkpt><trkpt lat="45.6620633" lon="12.2502074"><ele>15.0</ele><time>2026-04-12T08:42:42.611Z</time></trkpt><trkpt lat="45.6620612" lon="12.2503082"><ele>15.0</ele><time>2026-04-12T08:42:46.559Z</time></trkpt><trkpt lat="45.6620678" lon="12.2504076"><ele>15.0</ele><time>2026-04-12T08:42:50.572Z</time></trkpt><trkpt lat="45.6620929" lon="12.2505051"><ele>15.0</ele><time>2026-04-12T08:42:54.526Z</time></trkpt><trkpt lat="45.6621117" lon="12.2506196"><ele>15.0</ele><time>2026-04-12T08:42:58.493Z</time></trkpt><trkpt lat="45.6621231" lon="12.2507356"><ele>15.0</ele><time>2026-04-12T08:43:02.448Z</time></trkpt><trkpt lat="45.6621335" lon="12.2508353"><ele>15.0</ele><time>2026-04-12T08:43:06.492Z</time></trkpt><trkpt lat="45.6621457" lon="12.2509247"><ele>15.0</ele><time>2026-04-12T08:43:10.508Z</time></trkpt><trkpt lat="45.6621586" lon="12.2510326"><ele>15.0</ele><time>2026-04-12T08:43:14.543Z</time></trkpt><trkpt lat="45.662171" lon="12.2511392"><ele>15.0</ele><time>2026-04-12T08:43:18.561Z</time></trkpt><trkpt lat="45.6621664" lon="12.2512482"><ele>15.0</ele><time>2026-04-12T08:43:23.513Z</time></trkpt><trkpt lat="45.6621713" lon="12.2513646"><ele>15.0</ele><time>2026-04-12T08:43:27.448Z</time></trkpt><trkpt lat="45.6621839" lon="12.2514565"><ele>15.0</ele><time>2026-04-12T08:43:30.435Z</time></trkpt><trkpt lat="45.6621951" lon="12.2515549"><ele>15.0</ele><time>2026-04-12T08:43:33.413Z</time></trkpt><trkpt lat="45.6622128" lon="12.2516456"><ele>15.0</ele><time>2026-04-12T08:43:36.308Z</time></trkpt><trkpt lat="45.6622233" lon="12.2517523"><ele>15.0</ele><time>2026-04-12T08:43:40.213Z</time></trkpt><trkpt lat="45.6622328" lon="12.2518592"><ele>14.857142857142858</ele><time>2026-04-12T08:43:44.13Z</time></trkpt><trkpt lat="45.6622397" lon="12.2519692"><ele>14.714285714285714</ele><time>2026-04-12T08:43:48.094Z</time></trkpt><trkpt lat="45.6622408" lon="12.2520771"><ele>14.571428571428571</ele><time>2026-04-12T08:43:52.05Z</time></trkpt><trkpt lat="45.6622571" lon="12.2521846"><ele>14.428571428571429</ele><time>2026-04-12T08:43:56.056Z</time></trkpt><trkpt lat="45.6622901" lon="12.2522912"><ele>14.285714285714285</ele><time>2026-04-12T08:44:00.191Z</time></trkpt><trkpt lat="45.6623319" lon="12.2523685"><ele>14.142857142857142</ele><time>2026-04-12T08:44:03.565Z</time></trkpt><trkpt lat="45.6623815" lon="12.2524294"><ele>14.0</ele><time>2026-04-12T08:44:06.573Z</time></trkpt><trkpt lat="45.6624362" lon="12.2524835"><ele>13.571428571428571</ele><time>2026-04-12T08:44:09.57Z</time></trkpt><trkpt lat="45.6624969" lon="12.2525135"><ele>13.142857142857142</ele><time>2026-04-12T08:44:12.566Z</time></trkpt><trkpt lat="45.662563" lon="12.2525109"><ele>12.714285714285715</ele><time>2026-04-12T08:44:16.575Z</time></trkpt><trkpt lat="45.6626428" lon="12.2524857"><ele>12.285714285714285</ele><time>2026-04-12T08:44:20.529Z</time></trkpt><trkpt lat="45.6627063" lon="12.2524766"><ele>11.857142857142858</ele><time>2026-04-12T08:44:23.526Z</time></trkpt><trkpt lat="45.6627686" lon="12.2524625"><ele>11.428571428571429</ele><time>2026-04-12T08:44:26.523Z</time></trkpt><trkpt lat="45.6628412" lon="12.2524292"><ele>11.0</ele><time>2026-04-12T08:44:30.615Z</time></trkpt><trkpt lat="45.6629155" lon="12.2523991"><ele>11.0</ele><time>2026-04-12T08:44:34.553Z</time></trkpt><trkpt lat="45.6629949" lon="12.2523876"><ele>11.0</ele><time>2026-04-12T08:44:38.505Z</time></trkpt><trkpt lat="45.6630696" lon="12.2523641"><ele>11.0</ele><time>2026-04-12T08:44:42.473Z</time></trkpt><trkpt lat="45.6631475" lon="12.2523412"><ele>11.0</ele><time>2026-04-12T08:44:46.539Z</time></trkpt><trkpt lat="45.6632242" lon="12.2523165"><ele>11.0</ele><time>2026-04-12T08:44:50.492Z</time></trkpt><trkpt lat="45.6632966" lon="12.2522889"><ele>11.0</ele><time>2026-04-12T08:44:54.571Z</time></trkpt><trkpt lat="45.6633629" lon="12.2522285"><ele>10.714285714285715</ele><time>2026-04-12T08:44:58.512Z</time></trkpt><trkpt lat="45.663422" lon="12.2522983"><ele>10.428571428571429</ele><time>2026-04-12T08:45:03.559Z</time></trkpt><trkpt lat="45.6634822" lon="12.25235"><ele>10.142857142857142</ele><time>2026-04-12T08:45:07.516Z</time></trkpt><trkpt lat="45.6635321" lon="12.2524173"><ele>9.857142857142858</ele><time>2026-04-12T08:45:10.511Z</time></trkpt><trkpt lat="45.6635658" lon="12.2524981"><ele>9.571428571428571</ele><time>2026-04-12T08:45:13.508Z</time></trkpt><trkpt lat="45.6636015" lon="12.2525893"><ele>9.285714285714286</ele><time>2026-04-12T08:45:17.432Z</time></trkpt><trkpt lat="45.6635938" lon="12.2527023"><ele>9.0</ele><time>2026-04-12T08:45:21.54Z</time></trkpt><trkpt lat="45.6635951" lon="12.2528003"><ele>9.000000000000002</ele><time>2026-04-12T08:45:25.614Z</time></trkpt><trkpt lat="45.6636028" lon="12.2529107"><ele>9.0</ele><time>2026-04-12T08:45:30.345Z</time></trkpt><trkpt lat="45.6636195" lon="12.2530124"><ele>9.0</ele><time>2026-04-12T08:45:34.451Z</time></trkpt><trkpt lat="45.6636372" lon="12.2531034"><ele>9.0</ele><time>2026-04-12T08:45:38.428Z</time></trkpt><trkpt lat="45.6636636" lon="12.253202"><ele>9.0</ele><time>2026-04-12T08:45:43.572Z</time></trkpt><trkpt lat="45.6636847" lon="12.2532958"><ele>9.000000000000002</ele><time>2026-04-12T08:45:47.648Z</time></trkpt><trkpt lat="45.6636925" lon="12.2534018"><ele>9.0</ele><time>2026-04-12T08:45:51.504Z</time></trkpt><trkpt lat="45.6637043" lon="12.2535123"><ele>9.714285714285715</ele><time>2026-04-12T08:45:55.58Z</time></trkpt><trkpt lat="45.6637138" lon="12.2536254"><ele>10.428571428571429</ele><time>2026-04-12T08:45:59.536Z</time></trkpt><trkpt lat="45.6637245" lon="12.2537388"><ele>11.142857142857142</ele><time>2026-04-12T08:46:03.61Z</time></trkpt><trkpt lat="45.663735" lon="12.2538475"><ele>11.857142857142858</ele><time>2026-04-12T08:46:07.567Z</time></trkpt><trkpt lat="45.6637489" lon="12.2539606"><ele>12.571428571428571</ele><time>2026-04-12T08:46:11.522Z</time></trkpt><trkpt lat="45.6637587" lon="12.2540524"><ele>13.285714285714286</ele><time>2026-04-12T08:46:14.518Z</time></trkpt><trkpt lat="45.6637718" lon="12.2541443"><ele>14.0</ele><time>2026-04-12T08:46:17.516Z</time></trkpt><trkpt lat="45.6637881" lon="12.2542556"><ele>14.0</ele><time>2026-04-12T08:46:21.591Z</time></trkpt><trkpt lat="45.6638063" lon="12.2543488"><ele>14.0</ele><time>2026-04-12T08:46:24.794Z</time></trkpt><trkpt lat="45.6638214" lon="12.2544518"><ele>14.0</ele><time>2026-04-12T08:46:28.81Z</time></trkpt><trkpt lat="45.6638331" lon="12.2545575"><ele>14.0</ele><time>2026-04-12T08:46:32.814Z</time></trkpt><trkpt lat="45.6638411" lon="12.2546689"><ele>14.0</ele><time>2026-04-12T08:46:36.891Z</time></trkpt><trkpt lat="45.6638537" lon="12.2547707"><ele>14.0</ele><time>2026-04-12T08:46:41.056Z</time></trkpt><trkpt lat="45.6638433" lon="12.2548675"><ele>14.0</ele><time>2026-04-12T08:46:45.43Z</time></trkpt><trkpt lat="45.6637932" lon="12.2549422"><ele>13.500000000000002</ele><time>2026-04-12T08:47:04.503Z</time></trkpt><trkpt lat="45.6637587" lon="12.2550232"><ele>13.0</ele><time>2026-04-12T08:47:08.576Z</time></trkpt><trkpt lat="45.6637587" lon="12.2551221"><ele>12.5</ele><time>2026-04-12T08:47:12.532Z</time></trkpt><trkpt lat="45.6637648" lon="12.2552426"><ele>12.0</ele><time>2026-04-12T08:47:16.608Z</time></trkpt><trkpt lat="45.663789" lon="12.2553473"><ele>11.5</ele><time>2026-04-12T08:47:20.563Z</time></trkpt><trkpt lat="45.6638361" lon="12.2554489"><ele>11.0</ele><time>2026-04-12T08:47:24.518Z</time></trkpt><trkpt lat="45.663876" lon="12.2555498"><ele>10.714285714285715</ele><time>2026-04-12T08:47:28.593Z</time></trkpt><trkpt lat="45.6639158" lon="12.2556332"><ele>10.428571428571429</ele><time>2026-04-12T08:47:32.55Z</time></trkpt><trkpt lat="45.6639633" lon="12.2557181"><ele>10.142857142857142</ele><time>2026-04-12T08:47:36.473Z</time></trkpt><trkpt lat="45.6639997" lon="12.2558091"><ele>9.857142857142858</ele><time>2026-04-12T08:47:40.528Z</time></trkpt><trkpt lat="45.6640309" lon="12.2558968"><ele>9.571428571428571</ele><time>2026-04-12T08:47:44.532Z</time></trkpt><trkpt lat="45.6640709" lon="12.2559893"><ele>9.285714285714286</ele><time>2026-04-12T08:47:48.568Z</time></trkpt><trkpt lat="45.6641126" lon="12.256081"><ele>9.0</ele><time>2026-04-12T08:47:52.554Z</time></trkpt><trkpt lat="45.6641522" lon="12.25617"><ele>9.000000000000002</ele><time>2026-04-12T08:47:56.489Z</time></trkpt><trkpt lat="45.6641995" lon="12.2562442"><ele>9.0</ele><time>2026-04-12T08:48:00.597Z</time></trkpt><trkpt lat="45.6642623" lon="12.2562967"><ele>9.0</ele><time>2026-04-12T08:48:04.552Z</time></trkpt><trkpt lat="45.6643035" lon="12.2563881"><ele>9.0</ele><time>2026-04-12T08:48:08.508Z</time></trkpt><trkpt lat="45.6643382" lon="12.2564747"><ele>9.0</ele><time>2026-04-12T08:48:12.583Z</time></trkpt><trkpt lat="45.6643844" lon="12.2565408"><ele>9.000000000000002</ele><time>2026-04-12T08:48:16.539Z</time></trkpt><trkpt lat="45.6644206" lon="12.2566229"><ele>9.0</ele><time>2026-04-12T08:48:20.503Z</time></trkpt><trkpt lat="45.6644527" lon="12.2567181"><ele>9.285714285714286</ele><time>2026-04-12T08:48:25.528Z</time></trkpt><trkpt lat="45.6644945" lon="12.2567912"><ele>9.571428571428571</ele><time>2026-04-12T08:48:29.605Z</time></trkpt><trkpt lat="45.6645231" lon="12.2568807"><ele>9.857142857142858</ele><time>2026-04-12T08:48:33.559Z</time></trkpt><trkpt lat="45.6645591" lon="12.2569803"><ele>10.142857142857142</ele><time>2026-04-12T08:48:37.515Z</time></trkpt><trkpt lat="45.664593" lon="12.2570781"><ele>10.428571428571429</ele><time>2026-04-12T08:48:41.59Z</time></trkpt><trkpt lat="45.664611" lon="12.2571792"><ele>10.714285714285715</ele><time>2026-04-12T08:48:45.547Z</time></trkpt><trkpt lat="45.6646246" lon="12.2572749"><ele>11.0</ele><time>2026-04-12T08:48:48.542Z</time></trkpt><trkpt lat="45.664612" lon="12.2573717"><ele>11.0</ele><time>2026-04-12T08:48:52.617Z</time></trkpt><trkpt lat="45.6645755" lon="12.2574578"><ele>11.0</ele><time>2026-04-12T08:48:59.428Z</time></trkpt><trkpt lat="45.6645488" lon="12.2575483"><ele>11.0</ele><time>2026-04-12T08:49:02.544Z</time></trkpt><trkpt lat="45.6645116" lon="12.2576383"><ele>11.0</ele><time>2026-04-12T08:49:05.472Z</time></trkpt><trkpt lat="45.6644813" lon="12.2577434"><ele>11.0</ele><time>2026-04-12T08:49:08.487Z</time></trkpt><trkpt lat="45.6644585" lon="12.2578319"><ele>11.0</ele><time>2026-04-12T08:49:11.533Z</time></trkpt><trkpt lat="45.6644249" lon="12.2579375"><ele>11.0</ele><time>2026-04-12T08:49:15.453Z</time></trkpt><trkpt lat="45.664382" lon="12.2580169"><ele>10.857142857142858</ele><time>2026-04-12T08:49:18.447Z</time></trkpt><trkpt lat="45.6643312" lon="12.2580723"><ele>10.714285714285714</ele><time>2026-04-12T08:49:21.494Z</time></trkpt><trkpt lat="45.6642756" lon="12.2581427"><ele>10.571428571428571</ele><time>2026-04-12T08:49:25.508Z</time></trkpt><trkpt lat="45.6642282" lon="12.2582105"><ele>10.428571428571429</ele><time>2026-04-12T08:49:29.473Z</time></trkpt><trkpt lat="45.6641783" lon="12.2582813"><ele>10.285714285714286</ele><time>2026-04-12T08:49:33.01Z</time></trkpt><trkpt lat="45.6641247" lon="12.258359"><ele>10.142857142857142</ele><time>2026-04-12T08:49:37.394Z</time></trkpt><trkpt lat="45.6640756" lon="12.2584288"><ele>10.0</ele><time>2026-04-12T08:49:41.43Z</time></trkpt><trkpt lat="45.6640213" lon="12.2584913"><ele>10.0</ele><time>2026-04-12T08:49:45.534Z</time></trkpt><trkpt lat="45.6639704" lon="12.2585811"><ele>10.0</ele><time>2026-04-12T08:49:50.43Z</time></trkpt><trkpt lat="45.6639214" lon="12.2586632"><ele>10.0</ele><time>2026-04-12T08:49:54.475Z</time></trkpt><trkpt lat="45.6638821" lon="12.2587351"><ele>10.0</ele><time>2026-04-12T08:49:57.374Z</time></trkpt><trkpt lat="45.6638316" lon="12.2588004"><ele>10.0</ele><time>2026-04-12T08:50:00.349Z</time></trkpt><trkpt lat="45.6637785" lon="12.2588792"><ele>10.0</ele><time>2026-04-12T08:50:04.354Z</time></trkpt><trkpt lat="45.6637308" lon="12.2589594"><ele>10.0</ele><time>2026-04-12T08:50:08.349Z</time></trkpt><trkpt lat="45.663679" lon="12.2590226"><ele>10.0</ele><time>2026-04-12T08:50:12.354Z</time></trkpt><trkpt lat="45.6636273" lon="12.2590967"><ele>10.0</ele><time>2026-04-12T08:50:16.35Z</time></trkpt><trkpt lat="45.6635864" lon="12.2591697"><ele>10.0</ele><time>2026-04-12T08:50:19.307Z</time></trkpt><trkpt lat="45.6635421" lon="12.2592425"><ele>10.0</ele><time>2026-04-12T08:50:22.295Z</time></trkpt><trkpt lat="45.6634848" lon="12.2593283"><ele>10.0</ele><time>2026-04-12T08:50:26.31Z</time></trkpt><trkpt lat="45.6634372" lon="12.259404"><ele>10.0</ele><time>2026-04-12T08:50:30.274Z</time></trkpt><trkpt lat="45.6633898" lon="12.2594705"><ele>10.0</ele><time>2026-04-12T08:50:34.23Z</time></trkpt><trkpt lat="45.6633345" lon="12.2595322"><ele>9.833333333333334</ele><time>2026-04-12T08:50:38.216Z</time></trkpt><trkpt lat="45.6632776" lon="12.2596024"><ele>9.666666666666668</ele><time>2026-04-12T08:50:42.191Z</time></trkpt><trkpt lat="45.663212" lon="12.259666"><ele>9.5</ele><time>2026-04-12T08:50:46.503Z</time></trkpt><trkpt lat="45.6631468" lon="12.2597336"><ele>9.333333333333334</ele><time>2026-04-12T08:50:50.592Z</time></trkpt><trkpt lat="45.663084" lon="12.2598111"><ele>9.166666666666666</ele><time>2026-04-12T08:50:54.626Z</time></trkpt><trkpt lat="45.6630217" lon="12.2598759"><ele>9.0</ele><time>2026-04-12T08:50:58.595Z</time></trkpt><trkpt lat="45.6629616" lon="12.2599331"><ele>9.0</ele><time>2026-04-12T08:51:02.551Z</time></trkpt><trkpt lat="45.662889" lon="12.2599911"><ele>9.0</ele><time>2026-04-12T08:51:06.593Z</time></trkpt><trkpt lat="45.6628199" lon="12.2600343"><ele>9.0</ele><time>2026-04-12T08:51:10.581Z</time></trkpt><trkpt lat="45.6627704" lon="12.260117"><ele>9.0</ele><time>2026-04-12T08:51:14.314Z</time></trkpt><trkpt lat="45.6627073" lon="12.2601855"><ele>9.0</ele><time>2026-04-12T08:51:18.19Z</time></trkpt><trkpt lat="45.6626519" lon="12.2602433"><ele>9.0</ele><time>2026-04-12T08:51:22.105Z</time></trkpt><trkpt lat="45.6625883" lon="12.260297"><ele>9.000000000000002</ele><time>2026-04-12T08:51:26.012Z</time></trkpt><trkpt lat="45.6625332" lon="12.2603714"><ele>9.0</ele><time>2026-04-12T08:51:30.007Z</time></trkpt><trkpt lat="45.6625046" lon="12.260469"><ele>9.0</ele><time>2026-04-12T08:51:33.993Z</time></trkpt><trkpt lat="45.6625228" lon="12.2605579"><ele>9.0</ele><time>2026-04-12T08:51:37.969Z</time></trkpt><trkpt lat="45.6625566" lon="12.2606397"><ele>9.0</ele><time>2026-04-12T08:51:41.953Z</time></trkpt><trkpt lat="45.6625945" lon="12.2607122"><ele>9.000000000000002</ele><time>2026-04-12T08:51:45.049Z</time></trkpt><trkpt lat="45.6626519" lon="12.2607604"><ele>9.0</ele><time>2026-04-12T08:51:48.446Z</time></trkpt><trkpt lat="45.6627247" lon="12.260817"><ele>9.000000000000002</ele><time>2026-04-12T08:51:52.352Z</time></trkpt><trkpt lat="45.6627804" lon="12.2608645"><ele>9.0</ele><time>2026-04-12T08:51:55.53Z</time></trkpt><trkpt lat="45.6628376" lon="12.260917"><ele>9.0</ele><time>2026-04-12T08:51:59.606Z</time></trkpt><trkpt lat="45.6629058" lon="12.2609754"><ele>9.0</ele><time>2026-04-12T08:52:03.561Z</time></trkpt><trkpt lat="45.662965" lon="12.2610406"><ele>9.0</ele><time>2026-04-12T08:52:06.558Z</time></trkpt><trkpt lat="45.6630242" lon="12.2610981"><ele>9.000000000000002</ele><time>2026-04-12T08:52:09.556Z</time></trkpt><trkpt lat="45.6630782" lon="12.2611446"><ele>9.0</ele><time>2026-04-12T08:52:12.551Z</time></trkpt><trkpt lat="45.6631457" lon="12.2612084"><ele>9.142857142857144</ele><time>2026-04-12T08:52:16.633Z</time></trkpt><trkpt lat="45.6632043" lon="12.2612829"><ele>9.285714285714286</ele><time>2026-04-12T08:52:20.531Z</time></trkpt><trkpt lat="45.6632648" lon="12.2613548"><ele>9.428571428571429</ele><time>2026-04-12T08:52:24.475Z</time></trkpt><trkpt lat="45.6633142" lon="12.2614136"><ele>9.571428571428573</ele><time>2026-04-12T08:52:27.412Z</time></trkpt><trkpt lat="45.6633693" lon="12.2614876"><ele>9.714285714285715</ele><time>2026-04-12T08:52:31.288Z</time></trkpt><trkpt lat="45.6634002" lon="12.2615737"><ele>9.857142857142858</ele><time>2026-04-12T08:52:35.193Z</time></trkpt><trkpt lat="45.6634" lon="12.2616706"><ele>10.0</ele><time>2026-04-12T08:52:39.129Z</time></trkpt><trkpt lat="45.663388" lon="12.2617695"><ele>10.142857142857142</ele><time>2026-04-12T08:52:43.054Z</time></trkpt><trkpt lat="45.6633893" lon="12.2618643"><ele>10.285714285714286</ele><time>2026-04-12T08:52:45.992Z</time></trkpt><trkpt lat="45.6633926" lon="12.2619597"><ele>10.428571428571429</ele><time>2026-04-12T08:52:48.948Z</time></trkpt><trkpt lat="45.6633806" lon="12.2620695"><ele>10.571428571428571</ele><time>2026-04-12T08:52:52.834Z</time></trkpt><trkpt lat="45.6633599" lon="12.2621722"><ele>10.714285714285714</ele><time>2026-04-12T08:52:56.77Z</time></trkpt><trkpt lat="45.6633391" lon="12.262262"><ele>10.857142857142858</ele><time>2026-04-12T08:53:00.295Z</time></trkpt><trkpt lat="45.6633195" lon="12.2623628"><ele>11.0</ele><time>2026-04-12T08:53:04.631Z</time></trkpt><trkpt lat="45.6632954" lon="12.2624514"><ele>10.666666666666666</ele><time>2026-04-12T08:53:08.566Z</time></trkpt><trkpt lat="45.6632641" lon="12.2625391"><ele>10.333333333333332</ele><time>2026-04-12T08:53:12.472Z</time></trkpt><trkpt lat="45.663222" lon="12.2626395"><ele>10.0</ele><time>2026-04-12T08:53:16.347Z</time></trkpt><trkpt lat="45.6631848" lon="12.2627348"><ele>9.666666666666666</ele><time>2026-04-12T08:53:20.232Z</time></trkpt><trkpt lat="45.6631408" lon="12.2628276"><ele>9.333333333333334</ele><time>2026-04-12T08:53:24.108Z</time></trkpt><trkpt lat="45.6630931" lon="12.2629189"><ele>9.0</ele><time>2026-04-12T08:53:28.016Z</time></trkpt><trkpt lat="45.663039" lon="12.2630084"><ele>9.000000000000002</ele><time>2026-04-12T08:53:31.929Z</time></trkpt><trkpt lat="45.6629936" lon="12.2630908"><ele>9.0</ele><time>2026-04-12T08:53:35.856Z</time></trkpt><trkpt lat="45.6629526" lon="12.2631622"><ele>9.0</ele><time>2026-04-12T08:53:38.792Z</time></trkpt><trkpt lat="45.6629099" lon="12.2632325"><ele>9.0</ele><time>2026-04-12T08:53:41.768Z</time></trkpt><trkpt lat="45.6628648" lon="12.2633173"><ele>9.0</ele><time>2026-04-12T08:53:45.715Z</time></trkpt><trkpt lat="45.6628147" lon="12.2633909"><ele>9.000000000000002</ele><time>2026-04-12T08:53:49.651Z</time></trkpt><trkpt lat="45.6627609" lon="12.2634656"><ele>9.0</ele><time>2026-04-12T08:53:53.596Z</time></trkpt><trkpt lat="45.6627067" lon="12.2635185"><ele>9.428571428571429</ele><time>2026-04-12T08:53:57.511Z</time></trkpt><trkpt lat="45.662649" lon="12.263591"><ele>9.857142857142858</ele><time>2026-04-12T08:54:01.447Z</time></trkpt><trkpt lat="45.662597" lon="12.2636565"><ele>10.285714285714285</ele><time>2026-04-12T08:54:04.413Z</time></trkpt><trkpt lat="45.6625287" lon="12.2637153"><ele>10.714285714285715</ele><time>2026-04-12T08:54:08.368Z</time></trkpt><trkpt lat="45.6624633" lon="12.263763"><ele>11.142857142857142</ele><time>2026-04-12T08:54:12.538Z</time></trkpt><trkpt lat="45.6624097" lon="12.263814"><ele>11.571428571428571</ele><time>2026-04-12T08:54:16.612Z</time></trkpt><trkpt lat="45.6623435" lon="12.2638662"><ele>12.0</ele><time>2026-04-12T08:54:21.526Z</time></trkpt><trkpt lat="45.662283" lon="12.2638953"><ele>11.999999999999998</ele><time>2026-04-12T08:54:24.633Z</time></trkpt><trkpt lat="45.6622116" lon="12.263939"><ele>12.0</ele><time>2026-04-12T08:54:28.627Z</time></trkpt><trkpt lat="45.6621546" lon="12.2639774"><ele>12.0</ele><time>2026-04-12T08:54:31.595Z</time></trkpt><trkpt lat="45.6620815" lon="12.2640101"><ele>12.0</ele><time>2026-04-12T08:54:35.388Z</time></trkpt><trkpt lat="45.6620128" lon="12.2640465"><ele>12.0</ele><time>2026-04-12T08:54:39.336Z</time></trkpt><trkpt lat="45.6619403" lon="12.2640827"><ele>11.999999999999998</ele><time>2026-04-12T08:54:43.582Z</time></trkpt><trkpt lat="45.6618686" lon="12.2641028"><ele>12.0</ele><time>2026-04-12T08:54:47.537Z</time></trkpt><trkpt lat="45.6617959" lon="12.2641349"><ele>11.857142857142856</ele><time>2026-04-12T08:54:51.63Z</time></trkpt><trkpt lat="45.6617204" lon="12.2641826"><ele>11.714285714285714</ele><time>2026-04-12T08:54:55.626Z</time></trkpt><trkpt lat="45.6616497" lon="12.2642303"><ele>11.571428571428571</ele><time>2026-04-12T08:54:59.552Z</time></trkpt><trkpt lat="45.6615905" lon="12.2642616"><ele>11.428571428571427</ele><time>2026-04-12T08:55:02.49Z</time></trkpt><trkpt lat="45.6615259" lon="12.2642899"><ele>11.285714285714285</ele><time>2026-04-12T08:55:05.637Z</time></trkpt><trkpt lat="45.6614506" lon="12.2643229"><ele>11.142857142857142</ele><time>2026-04-12T08:55:09.593Z</time></trkpt><trkpt lat="45.6613882" lon="12.2643412"><ele>11.0</ele><time>2026-04-12T08:55:13.549Z</time></trkpt><trkpt lat="45.6613152" lon="12.264348"><ele>11.0</ele><time>2026-04-12T08:55:17.624Z</time></trkpt><trkpt lat="45.6612406" lon="12.2643675"><ele>11.0</ele><time>2026-04-12T08:55:21.608Z</time></trkpt><trkpt lat="45.6611721" lon="12.2643853"><ele>11.0</ele><time>2026-04-12T08:55:25.612Z</time></trkpt><trkpt lat="45.6610939" lon="12.2644039"><ele>11.0</ele><time>2026-04-12T08:55:29.567Z</time></trkpt><trkpt lat="45.6610147" lon="12.2644173"><ele>11.0</ele><time>2026-04-12T08:55:33.493Z</time></trkpt><trkpt lat="45.660939" lon="12.2644329"><ele>11.0</ele><time>2026-04-12T08:55:37.522Z</time></trkpt><trkpt lat="45.6608584" lon="12.2644391"><ele>10.857142857142858</ele><time>2026-04-12T08:55:41.597Z</time></trkpt><trkpt lat="45.6607864" lon="12.2644487"><ele>10.714285714285714</ele><time>2026-04-12T08:55:45.553Z</time></trkpt><trkpt lat="45.6607222" lon="12.2644753"><ele>10.571428571428571</ele><time>2026-04-12T08:55:49.508Z</time></trkpt><trkpt lat="45.6606439" lon="12.2645036"><ele>10.428571428571429</ele><time>2026-04-12T08:55:53.651Z</time></trkpt><trkpt lat="45.6605712" lon="12.2645016"><ele>10.285714285714286</ele><time>2026-04-12T08:55:58.595Z</time></trkpt><trkpt lat="45.6605012" lon="12.2645155"><ele>10.142857142857142</ele><time>2026-04-12T08:56:02.491Z</time></trkpt><trkpt lat="45.6604239" lon="12.2645316"><ele>10.0</ele><time>2026-04-12T08:56:06.407Z</time></trkpt><trkpt lat="45.6603594" lon="12.2645286"><ele>10.0</ele><time>2026-04-12T08:56:09.354Z</time></trkpt><trkpt lat="45.6602945" lon="12.2645342"><ele>10.0</ele><time>2026-04-12T08:56:12.331Z</time></trkpt><trkpt lat="45.6602109" lon="12.2645444"><ele>10.0</ele><time>2026-04-12T08:56:16.306Z</time></trkpt><trkpt lat="45.6601396" lon="12.2645537"><ele>10.0</ele><time>2026-04-12T08:56:21.39Z</time></trkpt><trkpt lat="45.6600767" lon="12.2645728"><ele>10.0</ele><time>2026-04-12T08:56:26.375Z</time></trkpt><trkpt lat="45.6600063" lon="12.264593"><ele>10.0</ele><time>2026-04-12T08:56:30.31Z</time></trkpt><trkpt lat="45.65993" lon="12.2646219"><ele>10.0</ele><time>2026-04-12T08:56:34.306Z</time></trkpt><trkpt lat="45.6598514" lon="12.2646416"><ele>10.0</ele><time>2026-04-12T08:56:38.311Z</time></trkpt><trkpt lat="45.6597855" lon="12.2646603"><ele>10.0</ele><time>2026-04-12T08:56:41.53Z</time></trkpt><trkpt lat="45.6597208" lon="12.2646808"><ele>10.0</ele><time>2026-04-12T08:56:44.654Z</time></trkpt><trkpt lat="45.6596531" lon="12.2647016"><ele>10.0</ele><time>2026-04-12T08:56:47.63Z</time></trkpt><trkpt lat="45.6595888" lon="12.2647225"><ele>10.0</ele><time>2026-04-12T08:56:50.629Z</time></trkpt><trkpt lat="45.659513" lon="12.2647522"><ele>10.0</ele><time>2026-04-12T08:56:54.552Z</time></trkpt><trkpt lat="45.6594322" lon="12.2647867"><ele>10.0</ele><time>2026-04-12T08:56:58.468Z</time></trkpt><trkpt lat="45.6593676" lon="12.2648154"><ele>9.714285714285714</ele><time>2026-04-12T08:57:01.427Z</time></trkpt><trkpt lat="45.6593025" lon="12.2648367"><ele>9.428571428571429</ele><time>2026-04-12T08:57:04.472Z</time></trkpt><trkpt lat="45.6592341" lon="12.2648574"><ele>9.142857142857142</ele><time>2026-04-12T08:57:08.372Z</time></trkpt><trkpt lat="45.6591671" lon="12.2648861"><ele>8.857142857142858</ele><time>2026-04-12T08:57:12.334Z</time></trkpt><trkpt lat="45.6590984" lon="12.2649183"><ele>8.571428571428571</ele><time>2026-04-12T08:57:16.31Z</time></trkpt><trkpt lat="45.6590197" lon="12.2649433"><ele>8.285714285714285</ele><time>2026-04-12T08:57:20.256Z</time></trkpt><trkpt lat="45.6589518" lon="12.2649685"><ele>8.0</ele><time>2026-04-12T08:57:24.173Z</time></trkpt><trkpt lat="45.6588886" lon="12.2649928"><ele>7.999999999999999</ele><time>2026-04-12T08:57:27.168Z</time></trkpt><trkpt lat="45.6588158" lon="12.2650288"><ele>8.0</ele><time>2026-04-12T08:57:31.172Z</time></trkpt><trkpt lat="45.6587556" lon="12.2650671"><ele>8.0</ele><time>2026-04-12T08:57:35.028Z</time></trkpt><trkpt lat="45.6586914" lon="12.2651185"><ele>8.0</ele><time>2026-04-12T08:57:39.034Z</time></trkpt><trkpt lat="45.6586275" lon="12.2651782"><ele>7.999999999999999</ele><time>2026-04-12T08:57:43.149Z</time></trkpt><trkpt lat="45.658566" lon="12.2652475"><ele>8.0</ele><time>2026-04-12T08:57:46.977Z</time></trkpt><trkpt lat="45.6584988" lon="12.2653144"><ele>8.0</ele><time>2026-04-12T08:57:50.992Z</time></trkpt><trkpt lat="45.658436" lon="12.2653738"><ele>7.999999999999999</ele><time>2026-04-12T08:57:54.53Z</time></trkpt><trkpt lat="45.658379" lon="12.2654235"><ele>8.0</ele><time>2026-04-12T08:57:57.527Z</time></trkpt><trkpt lat="45.6583099" lon="12.2654842"><ele>8.0</ele><time>2026-04-12T08:58:01.601Z</time></trkpt><trkpt lat="45.6582429" lon="12.2655339"><ele>7.999999999999999</ele><time>2026-04-12T08:58:05.635Z</time></trkpt><trkpt lat="45.658182" lon="12.2655884"><ele>8.0</ele><time>2026-04-12T08:58:09.59Z</time></trkpt><trkpt lat="45.6581162" lon="12.2656506"><ele>8.0</ele><time>2026-04-12T08:58:13.487Z</time></trkpt><trkpt lat="45.6580514" lon="12.2657098"><ele>7.833333333333333</ele><time>2026-04-12T08:58:17.431Z</time></trkpt><trkpt lat="45.6579917" lon="12.2657712"><ele>7.666666666666666</ele><time>2026-04-12T08:58:21.347Z</time></trkpt><trkpt lat="45.6579195" lon="12.2658214"><ele>7.5</ele><time>2026-04-12T08:58:25.273Z</time></trkpt><trkpt lat="45.6578479" lon="12.265881"><ele>7.333333333333334</ele><time>2026-04-12T08:58:29.229Z</time></trkpt><trkpt lat="45.6577847" lon="12.265946"><ele>7.166666666666667</ele><time>2026-04-12T08:58:33.135Z</time></trkpt><trkpt lat="45.6577282" lon="12.2660006"><ele>7.0</ele><time>2026-04-12T08:58:37.07Z</time></trkpt><trkpt lat="45.6576664" lon="12.2660647"><ele>7.0</ele><time>2026-04-12T08:58:40.995Z</time></trkpt><trkpt lat="45.6576212" lon="12.266131"><ele>7.0</ele><time>2026-04-12T08:58:43.953Z</time></trkpt><trkpt lat="45.657579" lon="12.2662327"><ele>7.0</ele><time>2026-04-12T08:58:47.891Z</time></trkpt><trkpt lat="45.657565" lon="12.2663206"><ele>7.0</ele><time>2026-04-12T08:58:50.835Z</time></trkpt><trkpt lat="45.6575585" lon="12.2664113"><ele>7.0</ele><time>2026-04-12T08:58:53.831Z</time></trkpt><trkpt lat="45.6575828" lon="12.2665079"><ele>7.0</ele><time>2026-04-12T08:58:57.58Z</time></trkpt><trkpt lat="45.6576216" lon="12.2666005"><ele>7.0</ele><time>2026-04-12T08:59:01.632Z</time></trkpt><trkpt lat="45.6576624" lon="12.2666956"><ele>7.000000000000001</ele><time>2026-04-12T08:59:05.53Z</time></trkpt><trkpt lat="45.6577085" lon="12.2667908"><ele>7.0</ele><time>2026-04-12T08:59:09.455Z</time></trkpt><trkpt lat="45.6577489" lon="12.2668734"><ele>7.0</ele><time>2026-04-12T08:59:12.563Z</time></trkpt><trkpt lat="45.6577965" lon="12.2669726"><ele>7.0</ele><time>2026-04-12T08:59:16.639Z</time></trkpt><trkpt lat="45.657837" lon="12.2670425"><ele>7.000000000000001</ele><time>2026-04-12T08:59:19.572Z</time></trkpt><trkpt lat="45.6578914" lon="12.2671292"><ele>7.0</ele><time>2026-04-12T08:59:23.549Z</time></trkpt><trkpt lat="45.6579395" lon="12.2672092"><ele>6.857142857142857</ele><time>2026-04-12T08:59:27.454Z</time></trkpt><trkpt lat="45.6579875" lon="12.2672979"><ele>6.714285714285714</ele><time>2026-04-12T08:59:31.369Z</time></trkpt><trkpt lat="45.6580279" lon="12.2673684"><ele>6.571428571428571</ele><time>2026-04-12T08:59:34.618Z</time></trkpt><trkpt lat="45.658085" lon="12.2674366"><ele>6.428571428571429</ele><time>2026-04-12T08:59:38.575Z</time></trkpt><trkpt lat="45.6581328" lon="12.2675111"><ele>6.285714285714286</ele><time>2026-04-12T08:59:42.607Z</time></trkpt><trkpt lat="45.6581782" lon="12.2675968"><ele>6.142857142857142</ele><time>2026-04-12T08:59:46.594Z</time></trkpt><trkpt lat="45.6582219" lon="12.2676977"><ele>6.0</ele><time>2026-04-12T08:59:50.559Z</time></trkpt><trkpt lat="45.6582668" lon="12.2677939"><ele>5.999999999999999</ele><time>2026-04-12T08:59:54.636Z</time></trkpt><trkpt lat="45.6583139" lon="12.2678799"><ele>6.0</ele><time>2026-04-12T08:59:58.491Z</time></trkpt><trkpt lat="45.6583579" lon="12.2679586"><ele>6.0</ele><time>2026-04-12T09:00:02.455Z</time></trkpt><trkpt lat="45.6583933" lon="12.2680451"><ele>6.0</ele><time>2026-04-12T09:00:06.39Z</time></trkpt><trkpt lat="45.658428" lon="12.2681425"><ele>6.0</ele><time>2026-04-12T09:00:10.555Z</time></trkpt><trkpt lat="45.6584358" lon="12.2682455"><ele>5.999999999999999</ele><time>2026-04-12T09:00:14.535Z</time></trkpt><trkpt lat="45.6584483" lon="12.2683383"><ele>6.0</ele><time>2026-04-12T09:00:33.306Z</time></trkpt><trkpt lat="45.65849" lon="12.26844"><ele>6.166666666666667</ele><time>2026-04-12T09:00:37.306Z</time></trkpt><trkpt lat="45.6585317" lon="12.2685383"><ele>6.333333333333334</ele><time>2026-04-12T09:00:41.307Z</time></trkpt><trkpt lat="45.6585767" lon="12.26864"><ele>6.5</ele><time>2026-04-12T09:00:45.307Z</time></trkpt><trkpt lat="45.6586217" lon="12.2687283"><ele>6.666666666666667</ele><time>2026-04-12T09:00:49.306Z</time></trkpt><trkpt lat="45.6586683" lon="12.2688067"><ele>6.833333333333334</ele><time>2026-04-12T09:00:53.306Z</time></trkpt><trkpt lat="45.65873" lon="12.2688733"><ele>7.0</ele><time>2026-04-12T09:00:57.306Z</time></trkpt><trkpt lat="45.658795" lon="12.2689283"><ele>6.857142857142857</ele><time>2026-04-12T09:01:01.306Z</time></trkpt><trkpt lat="45.65887" lon="12.26895"><ele>6.714285714285714</ele><time>2026-04-12T09:01:05.306Z</time></trkpt><trkpt lat="45.6589517" lon="12.2689483"><ele>6.571428571428571</ele><time>2026-04-12T09:01:09.306Z</time></trkpt><trkpt lat="45.659025" lon="12.2689617"><ele>6.428571428571429</ele><time>2026-04-12T09:01:13.307Z</time></trkpt><trkpt lat="45.65909" lon="12.26896"><ele>6.285714285714286</ele><time>2026-04-12T09:01:16.307Z</time></trkpt><trkpt lat="45.6591567" lon="12.2689533"><ele>6.142857142857142</ele><time>2026-04-12T09:01:19.306Z</time></trkpt><trkpt lat="45.659235" lon="12.2689483"><ele>6.0</ele><time>2026-04-12T09:01:23.306Z</time></trkpt><trkpt lat="45.6593167" lon="12.2689467"><ele>6.0</ele><time>2026-04-12T09:01:27.306Z</time></trkpt><trkpt lat="45.659395" lon="12.2689467"><ele>6.0</ele><time>2026-04-12T09:01:31.306Z</time></trkpt><trkpt lat="45.6594683" lon="12.2689633"><ele>6.0</ele><time>2026-04-12T09:01:35.307Z</time></trkpt><trkpt lat="45.65954" lon="12.2689883"><ele>6.0</ele><time>2026-04-12T09:01:39.305Z</time></trkpt><trkpt lat="45.6596167" lon="12.2690217"><ele>6.0</ele><time>2026-04-12T09:01:43.305Z</time></trkpt><trkpt lat="45.6596883" lon="12.2690683"><ele>6.0</ele><time>2026-04-12T09:01:47.305Z</time></trkpt><trkpt lat="45.6597633" lon="12.269115"><ele>6.428571428571428</ele><time>2026-04-12T09:01:51.305Z</time></trkpt><trkpt lat="45.659825" lon="12.2691767"><ele>6.857142857142858</ele><time>2026-04-12T09:01:55.305Z</time></trkpt><trkpt lat="45.6598883" lon="12.26923"><ele>7.2857142857142865</ele><time>2026-04-12T09:01:59.305Z</time></trkpt><trkpt lat="45.6599433" lon="12.2692767"><ele>7.714285714285714</ele><time>2026-04-12T09:02:03.305Z</time></trkpt><trkpt lat="45.6600083" lon="12.2693267"><ele>8.142857142857142</ele><time>2026-04-12T09:02:07.305Z</time></trkpt><trkpt lat="45.6600733" lon="12.269375"><ele>8.571428571428573</ele><time>2026-04-12T09:02:11.306Z</time></trkpt><trkpt lat="45.6601417" lon="12.2694267"><ele>9.0</ele><time>2026-04-12T09:02:15.306Z</time></trkpt><trkpt lat="45.6602083" lon="12.2694667"><ele>9.000000000000002</ele><time>2026-04-12T09:02:19.305Z</time></trkpt><trkpt lat="45.660275" lon="12.2695367"><ele>9.0</ele><time>2026-04-12T09:02:23.305Z</time></trkpt><trkpt lat="45.6603417" lon="12.2695933"><ele>9.0</ele><time>2026-04-12T09:02:27.306Z</time></trkpt><trkpt lat="45.6604033" lon="12.269665"><ele>9.0</ele><time>2026-04-12T09:02:31.306Z</time></trkpt><trkpt lat="45.6604567" lon="12.2697167"><ele>9.0</ele><time>2026-04-12T09:02:34.306Z</time></trkpt><trkpt lat="45.6605133" lon="12.269785"><ele>9.000000000000002</ele><time>2026-04-12T09:02:38.305Z</time></trkpt><trkpt lat="45.660575" lon="12.2698333"><ele>9.0</ele><time>2026-04-12T09:02:42.305Z</time></trkpt><trkpt lat="45.6606317" lon="12.2698983"><ele>8.857142857142858</ele><time>2026-04-12T09:02:46.306Z</time></trkpt><trkpt lat="45.66069" lon="12.2699633"><ele>8.714285714285715</ele><time>2026-04-12T09:02:50.305Z</time></trkpt><trkpt lat="45.6607517" lon="12.2700233"><ele>8.571428571428571</ele><time>2026-04-12T09:02:54.305Z</time></trkpt><trkpt lat="45.6608083" lon="12.27009"><ele>8.428571428571429</ele><time>2026-04-12T09:02:58.305Z</time></trkpt><trkpt lat="45.6608533" lon="12.2701533"><ele>8.285714285714285</ele><time>2026-04-12T09:03:01.305Z</time></trkpt><trkpt lat="45.6609167" lon="12.2702383"><ele>8.142857142857142</ele><time>2026-04-12T09:03:05.305Z</time></trkpt><trkpt lat="45.6609683" lon="12.2702983"><ele>8.0</ele><time>2026-04-12T09:03:08.305Z</time></trkpt><trkpt lat="45.66103" lon="12.2703683"><ele>7.999999999999999</ele><time>2026-04-12T09:03:12.305Z</time></trkpt><trkpt lat="45.66108" lon="12.270455"><ele>8.0</ele><time>2026-04-12T09:03:16.306Z</time></trkpt><trkpt lat="45.66111" lon="12.27056"><ele>8.0</ele><time>2026-04-12T09:03:20.306Z</time></trkpt><trkpt lat="45.6611433" lon="12.2706467"><ele>8.0</ele><time>2026-04-12T09:03:23.305Z</time></trkpt><trkpt lat="45.6611833" lon="12.2707417"><ele>7.999999999999999</ele><time>2026-04-12T09:03:27.305Z</time></trkpt><trkpt lat="45.6612083" lon="12.27083"><ele>8.0</ele><time>2026-04-12T09:03:31.305Z</time></trkpt><trkpt lat="45.661245" lon="12.27093"><ele>8.0</ele><time>2026-04-12T09:03:35.306Z</time></trkpt><trkpt lat="45.66126" lon="12.2710267"><ele>7.999999999999999</ele><time>2026-04-12T09:03:38.305Z</time></trkpt><trkpt lat="45.66126" lon="12.2711383"><ele>8.0</ele><time>2026-04-12T09:03:42.305Z</time></trkpt><trkpt lat="45.6612583" lon="12.271245"><ele>8.0</ele><time>2026-04-12T09:03:46.306Z</time></trkpt><trkpt lat="45.6612567" lon="12.2713483"><ele>7.999999999999999</ele><time>2026-04-12T09:03:49.305Z</time></trkpt><trkpt lat="45.6612567" lon="12.2714683"><ele>8.0</ele><time>2026-04-12T09:03:53.305Z</time></trkpt><trkpt lat="45.6612467" lon="12.271565"><ele>8.0</ele><time>2026-04-12T09:03:56.306Z</time></trkpt><trkpt lat="45.66123" lon="12.27167"><ele>8.0</ele><time>2026-04-12T09:04:00.305Z</time></trkpt><trkpt lat="45.6612083" lon="12.271765"><ele>7.999999999999999</ele><time>2026-04-12T09:04:04.305Z</time></trkpt><trkpt lat="45.6611817" lon="12.2718533"><ele>8.0</ele><time>2026-04-12T09:04:08.305Z</time></trkpt><trkpt lat="45.6611567" lon="12.271965"><ele>8.0</ele><time>2026-04-12T09:04:12.305Z</time></trkpt><trkpt lat="45.6611383" lon="12.27207"><ele>7.999999999999999</ele><time>2026-04-12T09:04:16.305Z</time></trkpt><trkpt lat="45.6611167" lon="12.2721567"><ele>8.0</ele><time>2026-04-12T09:04:19.305Z</time></trkpt><trkpt lat="45.6610933" lon="12.272255"><ele>8.0</ele><time>2026-04-12T09:04:23.305Z</time></trkpt><trkpt lat="45.6610633" lon="12.2723517"><ele>7.7142857142857135</ele><time>2026-04-12T09:04:27.305Z</time></trkpt><trkpt lat="45.6610333" lon="12.27244"><ele>7.428571428571428</ele><time>2026-04-12T09:04:31.306Z</time></trkpt><trkpt lat="45.661005" lon="12.2725233"><ele>7.142857142857142</ele><time>2026-04-12T09:04:34.306Z</time></trkpt><trkpt lat="45.660975" lon="12.2726183"><ele>6.857142857142857</ele><time>2026-04-12T09:04:38.306Z</time></trkpt><trkpt lat="45.660945" lon="12.2727233"><ele>6.571428571428571</ele><time>2026-04-12T09:04:43.306Z</time></trkpt><trkpt lat="45.6609183" lon="12.272805"><ele>6.285714285714285</ele><time>2026-04-12T09:04:46.307Z</time></trkpt><trkpt lat="45.66089" lon="12.2728867"><ele>6.0</ele><time>2026-04-12T09:04:49.306Z</time></trkpt><trkpt lat="45.6608583" lon="12.2729833"><ele>6.0</ele><time>2026-04-12T09:04:53.307Z</time></trkpt><trkpt lat="45.6608317" lon="12.27309"><ele>6.0</ele><time>2026-04-12T09:04:57.306Z</time></trkpt><trkpt lat="45.6608083" lon="12.2731867"><ele>6.0</ele><time>2026-04-12T09:05:00.307Z</time></trkpt><trkpt lat="45.6607833" lon="12.2732883"><ele>6.0</ele><time>2026-04-12T09:05:03.306Z</time></trkpt><trkpt lat="45.6607541" lon="12.2733878"><ele>6.0</ele><time>2026-04-12T09:05:07.193Z</time></trkpt><trkpt lat="45.6607173" lon="12.273488"><ele>6.0</ele><time>2026-04-12T09:05:11.088Z</time></trkpt><trkpt lat="45.660679" lon="12.2735919"><ele>5.999999999999999</ele><time>2026-04-12T09:05:14.973Z</time></trkpt><trkpt lat="45.6606412" lon="12.2736874"><ele>6.0</ele><time>2026-04-12T09:05:18.87Z</time></trkpt><trkpt lat="45.6605971" lon="12.2737664"><ele>6.0</ele><time>2026-04-12T09:05:22.774Z</time></trkpt><trkpt lat="45.6605521" lon="12.2738499"><ele>6.0</ele><time>2026-04-12T09:05:26.629Z</time></trkpt><trkpt lat="45.6605052" lon="12.2739315"><ele>6.0</ele><time>2026-04-12T09:05:30.547Z</time></trkpt><trkpt lat="45.6604521" lon="12.2740141"><ele>5.999999999999999</ele><time>2026-04-12T09:05:34.493Z</time></trkpt><trkpt lat="45.6604029" lon="12.2740877"><ele>6.0</ele><time>2026-04-12T09:05:38.367Z</time></trkpt><trkpt lat="45.660341" lon="12.2741678"><ele>6.5</ele><time>2026-04-12T09:05:42.294Z</time></trkpt><trkpt lat="45.6602782" lon="12.2742379"><ele>7.0</ele><time>2026-04-12T09:05:46.248Z</time></trkpt><trkpt lat="45.6602229" lon="12.2743023"><ele>7.5</ele><time>2026-04-12T09:05:50.154Z</time></trkpt><trkpt lat="45.6601687" lon="12.2743688"><ele>8.0</ele><time>2026-04-12T09:05:54.07Z</time></trkpt><trkpt lat="45.6601063" lon="12.2744468"><ele>8.5</ele><time>2026-04-12T09:05:58.026Z</time></trkpt><trkpt lat="45.660056" lon="12.274528"><ele>9.0</ele><time>2026-04-12T09:06:01.911Z</time></trkpt><trkpt lat="45.6600094" lon="12.2746073"><ele>9.000000000000002</ele><time>2026-04-12T09:06:05.846Z</time></trkpt><trkpt lat="45.6599958" lon="12.2747031"><ele>9.0</ele><time>2026-04-12T09:06:10.273Z</time></trkpt><trkpt lat="45.660067" lon="12.2747759"><ele>9.0</ele><time>2026-04-12T09:06:15.628Z</time></trkpt><trkpt lat="45.6601291" lon="12.2748063"><ele>9.0</ele><time>2026-04-12T09:06:18.575Z</time></trkpt><trkpt lat="45.6601923" lon="12.2748354"><ele>9.0</ele><time>2026-04-12T09:06:21.531Z</time></trkpt><trkpt lat="45.6602623" lon="12.2748803"><ele>9.000000000000002</ele><time>2026-04-12T09:06:25.466Z</time></trkpt><trkpt lat="45.6603272" lon="12.274941"><ele>9.0</ele><time>2026-04-12T09:06:29.392Z</time></trkpt><trkpt lat="45.660392" lon="12.2749979"><ele>9.142857142857144</ele><time>2026-04-12T09:06:33.367Z</time></trkpt><trkpt lat="45.6604563" lon="12.2750522"><ele>9.285714285714286</ele><time>2026-04-12T09:06:37.313Z</time></trkpt><trkpt lat="45.6605324" lon="12.2750997"><ele>9.428571428571429</ele><time>2026-04-12T09:06:41.503Z</time></trkpt><trkpt lat="45.6605919" lon="12.2751369"><ele>9.571428571428573</ele><time>2026-04-12T09:06:44.504Z</time></trkpt><trkpt lat="45.6606641" lon="12.2751947"><ele>9.714285714285715</ele><time>2026-04-12T09:06:48.543Z</time></trkpt><trkpt lat="45.6607267" lon="12.2752534"><ele>9.857142857142858</ele><time>2026-04-12T09:06:52.551Z</time></trkpt><trkpt lat="45.6607327" lon="12.2753463"><ele>10.0</ele><time>2026-04-12T09:06:58.503Z</time></trkpt><trkpt lat="45.6607967" lon="12.2754102"><ele>10.0</ele><time>2026-04-12T09:07:04.513Z</time></trkpt><trkpt lat="45.6608699" lon="12.2754266"><ele>10.0</ele><time>2026-04-12T09:07:08.369Z</time></trkpt><trkpt lat="45.660945" lon="12.2754507"><ele>10.0</ele><time>2026-04-12T09:07:12.518Z</time></trkpt><trkpt lat="45.6610167" lon="12.2754697"><ele>10.0</ele><time>2026-04-12T09:07:16.503Z</time></trkpt><trkpt lat="45.6610869" lon="12.2754997"><ele>10.0</ele><time>2026-04-12T09:07:20.605Z</time></trkpt><trkpt lat="45.6611564" lon="12.2755499"><ele>10.0</ele><time>2026-04-12T09:07:24.552Z</time></trkpt><trkpt lat="45.6612129" lon="12.2755914"><ele>10.0</ele><time>2026-04-12T09:07:27.53Z</time></trkpt><trkpt lat="45.6612752" lon="12.2756227"><ele>9.857142857142858</ele><time>2026-04-12T09:07:30.515Z</time></trkpt><trkpt lat="45.6613352" lon="12.2756531"><ele>9.714285714285715</ele><time>2026-04-12T09:07:33.472Z</time></trkpt><trkpt lat="45.6614099" lon="12.2756903"><ele>9.571428571428573</ele><time>2026-04-12T09:07:37.388Z</time></trkpt><trkpt lat="45.6614841" lon="12.2757308"><ele>9.428571428571429</ele><time>2026-04-12T09:07:41.338Z</time></trkpt><trkpt lat="45.6615534" lon="12.27577"><ele>9.285714285714286</ele><time>2026-04-12T09:07:45.504Z</time></trkpt><trkpt lat="45.6616248" lon="12.2757972"><ele>9.142857142857144</ele><time>2026-04-12T09:07:49.557Z</time></trkpt><trkpt lat="45.6616893" lon="12.2758309"><ele>9.0</ele><time>2026-04-12T09:07:53.513Z</time></trkpt><trkpt lat="45.6617612" lon="12.2758586"><ele>9.0</ele><time>2026-04-12T09:07:57.504Z</time></trkpt><trkpt lat="45.6618346" lon="12.275894"><ele>9.0</ele><time>2026-04-12T09:08:02.503Z</time></trkpt><trkpt lat="45.6618766" lon="12.2758052"><ele>9.0</ele><time>2026-04-12T09:08:06.503Z</time></trkpt><trkpt lat="45.6618736" lon="12.2756862"><ele>9.0</ele><time>2026-04-12T09:08:10.591Z</time></trkpt><trkpt lat="45.6618845" lon="12.2755712"><ele>10.0</ele><time>2026-04-12T09:08:14.503Z</time></trkpt></trkseg><trkseg><trkpt lat="45.661742" lon="12.2757125"><ele>9.000000000000002</ele><time>2026-04-12T09:29:08.306Z</time></trkpt><trkpt lat="45.6617455" lon="12.2758041"><ele>9.0</ele><time>2026-04-12T09:29:14.572Z</time></trkpt><trkpt lat="45.6616718" lon="12.2757919"><ele>9.0</ele><time>2026-04-12T09:29:33.512Z</time></trkpt><trkpt lat="45.6616049" lon="12.2757731"><ele>9.0</ele><time>2026-04-12T09:29:36.475Z</time></trkpt><trkpt lat="45.6615316" lon="12.2757393"><ele>9.0</ele><time>2026-04-12T09:29:40.584Z</time></trkpt><trkpt lat="45.6614511" lon="12.2757245"><ele>9.000000000000002</ele><time>2026-04-12T09:29:43.581Z</time></trkpt><trkpt lat="45.6613818" lon="12.2756816"><ele>9.0</ele><time>2026-04-12T09:29:46.578Z</time></trkpt><trkpt lat="45.6613199" lon="12.2756471"><ele>9.0</ele><time>2026-04-12T09:29:50.535Z</time></trkpt><trkpt lat="45.6612497" lon="12.275612"><ele>9.0</ele><time>2026-04-12T09:29:55.57Z</time></trkpt><trkpt lat="45.661189" lon="12.2755866"><ele>9.0</ele><time>2026-04-12T09:29:59.525Z</time></trkpt><trkpt lat="45.6611074" lon="12.2755537"><ele>9.0</ele><time>2026-04-12T09:30:04.559Z</time></trkpt><trkpt lat="45.6610338" lon="12.2755211"><ele>9.0</ele><time>2026-04-12T09:30:09.474Z</time></trkpt><trkpt lat="45.6609657" lon="12.2754723"><ele>9.0</ele><time>2026-04-12T09:30:14.51Z</time></trkpt><trkpt lat="45.6608984" lon="12.2754259"><ele>9.142857142857144</ele><time>2026-04-12T09:30:19.544Z</time></trkpt><trkpt lat="45.6608332" lon="12.2754413"><ele>9.285714285714286</ele><time>2026-04-12T09:30:24.58Z</time></trkpt><trkpt lat="45.6607812" lon="12.2753893"><ele>9.428571428571429</ele><time>2026-04-12T09:30:28.535Z</time></trkpt><trkpt lat="45.6607258" lon="12.275345"><ele>9.571428571428573</ele><time>2026-04-12T09:30:32.612Z</time></trkpt><trkpt lat="45.6607232" lon="12.2752402"><ele>9.714285714285715</ele><time>2026-04-12T09:30:38.604Z</time></trkpt><trkpt lat="45.6606792" lon="12.2751525"><ele>9.857142857142858</ele><time>2026-04-12T09:30:44.478Z</time></trkpt><trkpt lat="45.66062" lon="12.2751131"><ele>10.0</ele><time>2026-04-12T09:30:48.554Z</time></trkpt><trkpt lat="45.6605566" lon="12.2750982"><ele>10.0</ele><time>2026-04-12T09:30:52.511Z</time></trkpt><trkpt lat="45.660485" lon="12.2750834"><ele>10.0</ele><time>2026-04-12T09:30:57.545Z</time></trkpt><trkpt lat="45.660423" lon="12.2750242"><ele>10.0</ele><time>2026-04-12T09:31:02.091Z</time></trkpt><trkpt lat="45.6603523" lon="12.2750187"><ele>10.0</ele><time>2026-04-12T09:31:06.174Z</time></trkpt><trkpt lat="45.660293" lon="12.2749827"><ele>10.0</ele><time>2026-04-12T09:31:10.493Z</time></trkpt><trkpt lat="45.6602298" lon="12.2749236"><ele>10.0</ele><time>2026-04-12T09:31:14.568Z</time></trkpt><trkpt lat="45.660172" lon="12.2748703"><ele>10.0</ele><time>2026-04-12T09:31:17.608Z</time></trkpt><trkpt lat="45.6600998" lon="12.2748476"><ele>10.0</ele><time>2026-04-12T09:31:20.562Z</time></trkpt><trkpt lat="45.6600418" lon="12.2747988"><ele>10.0</ele><time>2026-04-12T09:31:23.559Z</time></trkpt><trkpt lat="45.6600022" lon="12.2747205"><ele>10.0</ele><time>2026-04-12T09:31:26.556Z</time></trkpt><trkpt lat="45.6599753" lon="12.2746367"><ele>10.0</ele><time>2026-04-12T09:31:29.553Z</time></trkpt><trkpt lat="45.6599847" lon="12.2745366"><ele>10.0</ele><time>2026-04-12T09:31:35.547Z</time></trkpt><trkpt lat="45.6600458" lon="12.2745066"><ele>10.0</ele><time>2026-04-12T09:31:39.502Z</time></trkpt><trkpt lat="45.6601036" lon="12.2744392"><ele>10.0</ele><time>2026-04-12T09:31:43.578Z</time></trkpt><trkpt lat="45.6601659" lon="12.2743853"><ele>9.857142857142858</ele><time>2026-04-12T09:31:46.576Z</time></trkpt><trkpt lat="45.6602197" lon="12.274311"><ele>9.714285714285715</ele><time>2026-04-12T09:31:49.572Z</time></trkpt><trkpt lat="45.6602735" lon="12.2742594"><ele>9.571428571428573</ele><time>2026-04-12T09:31:53.528Z</time></trkpt><trkpt lat="45.6603251" lon="12.2742004"><ele>9.428571428571429</ele><time>2026-04-12T09:31:58.396Z</time></trkpt><trkpt lat="45.6603771" lon="12.2741256"><ele>9.285714285714286</ele><time>2026-04-12T09:32:03.477Z</time></trkpt><trkpt lat="45.6604319" lon="12.2740715"><ele>9.142857142857144</ele><time>2026-04-12T09:32:06.594Z</time></trkpt><trkpt lat="45.6604816" lon="12.2740084"><ele>9.0</ele><time>2026-04-12T09:32:10.55Z</time></trkpt><trkpt lat="45.6605319" lon="12.2739276"><ele>9.0</ele><time>2026-04-12T09:32:14.505Z</time></trkpt><trkpt lat="45.6605802" lon="12.2738488"><ele>9.0</ele><time>2026-04-12T09:32:17.503Z</time></trkpt><trkpt lat="45.6602197" lon="12.274311"><ele>9.000000000000002</ele><time>2026-04-12T09:31:49.572Z</time></trkpt><trkpt lat="45.6602735" lon="12.2742594"><ele>9.0</ele><time>2026-04-12T09:31:53.528Z</time></trkpt><trkpt lat="45.6603251" lon="12.2742004"><ele>9.0</ele><time>2026-04-12T09:31:58.396Z</time></trkpt><trkpt lat="45.6603771" lon="12.2741256"><ele>9.0</ele><time>2026-04-12T09:32:03.477Z</time></trkpt><trkpt lat="45.6604319" lon="12.2740715"><ele>9.0</ele><time>2026-04-12T09:32:06.594Z</time></trkpt><trkpt lat="45.6604816" lon="12.2740084"><ele>9.000000000000002</ele><time>2026-04-12T09:32:10.55Z</time></trkpt><trkpt lat="45.6605319" lon="12.2739276"><ele>9.0</ele><time>2026-04-12T09:32:14.505Z</time></trkpt><trkpt lat="45.6605802" lon="12.2738488"><ele>8.571428571428573</ele><time>2026-04-12T09:32:17.503Z</time></trkpt><trkpt lat="45.6606364" lon="12.2737997"><ele>8.142857142857142</ele><time>2026-04-12T09:32:20.613Z</time></trkpt><trkpt lat="45.6606927" lon="12.2737246"><ele>7.714285714285714</ele><time>2026-04-12T09:32:25.533Z</time></trkpt><trkpt lat="45.6607518" lon="12.2736853"><ele>7.2857142857142865</ele><time>2026-04-12T09:32:30.568Z</time></trkpt><trkpt lat="45.660779" lon="12.2735856"><ele>6.857142857142858</ele><time>2026-04-12T09:32:34.525Z</time></trkpt><trkpt lat="45.6608125" lon="12.273478"><ele>6.428571428571428</ele><time>2026-04-12T09:32:38.599Z</time></trkpt><trkpt lat="45.6608413" lon="12.2733825"><ele>6.0</ele><time>2026-04-12T09:32:42.555Z</time></trkpt><trkpt lat="45.6608721" lon="12.2732769"><ele>5.999999999999999</ele><time>2026-04-12T09:32:46.613Z</time></trkpt><trkpt lat="45.6608897" lon="12.2731815"><ele>6.0</ele><time>2026-04-12T09:32:49.552Z</time></trkpt><trkpt lat="45.6609225" lon="12.2730893"><ele>6.0</ele><time>2026-04-12T09:32:53.497Z</time></trkpt><trkpt lat="45.6609462" lon="12.2729991"><ele>6.0</ele><time>2026-04-12T09:32:57.391Z</time></trkpt><trkpt lat="45.6609647" lon="12.2728912"><ele>6.0</ele><time>2026-04-12T09:33:01.487Z</time></trkpt><trkpt lat="45.6609565" lon="12.2727899"><ele>5.999999999999999</ele><time>2026-04-12T09:33:05.57Z</time></trkpt><trkpt lat="45.6610007" lon="12.2727101"><ele>6.0</ele><time>2026-04-12T09:33:08.566Z</time></trkpt><trkpt lat="45.6610191" lon="12.2725962"><ele>5.999999999999999</ele><time>2026-04-12T09:33:12.522Z</time></trkpt><trkpt lat="45.6610162" lon="12.272495"><ele>6.0</ele><time>2026-04-12T09:33:16.479Z</time></trkpt><trkpt lat="45.6610559" lon="12.2724078"><ele>6.0</ele><time>2026-04-12T09:33:20.553Z</time></trkpt><trkpt lat="45.6610711" lon="12.272313"><ele>6.0</ele><time>2026-04-12T09:33:24.491Z</time></trkpt><trkpt lat="45.6610898" lon="12.2722183"><ele>6.0</ele><time>2026-04-12T09:33:27.506Z</time></trkpt><trkpt lat="45.6611221" lon="12.2721091"><ele>5.999999999999999</ele><time>2026-04-12T09:33:30.623Z</time></trkpt><trkpt lat="45.6611337" lon="12.2719927"><ele>6.0</ele><time>2026-04-12T09:33:33.619Z</time></trkpt><trkpt lat="45.661132" lon="12.2718876"><ele>6.285714285714285</ele><time>2026-04-12T09:33:38.535Z</time></trkpt><trkpt lat="45.6611473" lon="12.2717829"><ele>6.571428571428571</ele><time>2026-04-12T09:33:44.433Z</time></trkpt><trkpt lat="45.661176" lon="12.2716921"><ele>6.857142857142857</ele><time>2026-04-12T09:33:48.318Z</time></trkpt><trkpt lat="45.6611906" lon="12.2715942"><ele>7.142857142857142</ele><time>2026-04-12T09:33:52.559Z</time></trkpt><trkpt lat="45.661206" lon="12.2714966"><ele>7.428571428571428</ele><time>2026-04-12T09:33:56.589Z</time></trkpt><trkpt lat="45.6612008" lon="12.2714003"><ele>7.7142857142857135</ele><time>2026-04-12T09:33:59.512Z</time></trkpt><trkpt lat="45.6611833" lon="12.2712897"><ele>8.0</ele><time>2026-04-12T09:34:03.587Z</time></trkpt><trkpt lat="45.6611919" lon="12.2711784"><ele>8.0</ele><time>2026-04-12T09:34:07.542Z</time></trkpt><trkpt lat="45.661207" lon="12.2710875"><ele>7.999999999999999</ele><time>2026-04-12T09:34:10.632Z</time></trkpt><trkpt lat="45.6612006" lon="12.2709891"><ele>8.0</ele><time>2026-04-12T09:34:13.588Z</time></trkpt><trkpt lat="45.6611827" lon="12.2708772"><ele>8.0</ele><time>2026-04-12T09:34:16.516Z</time></trkpt><trkpt lat="45.6611518" lon="12.2707754"><ele>7.999999999999999</ele><time>2026-04-12T09:34:19.529Z</time></trkpt><trkpt lat="45.6611392" lon="12.2706709"><ele>8.0</ele><time>2026-04-12T09:34:22.526Z</time></trkpt><trkpt lat="45.6611074" lon="12.2705783"><ele>8.0</ele><time>2026-04-12T09:34:26.601Z</time></trkpt><trkpt lat="45.6610732" lon="12.2704827"><ele>8.0</ele><time>2026-04-12T09:34:31.516Z</time></trkpt><trkpt lat="45.6610207" lon="12.2704302"><ele>7.999999999999999</ele><time>2026-04-12T09:34:35.592Z</time></trkpt><trkpt lat="45.6609566" lon="12.2703602"><ele>8.0</ele><time>2026-04-12T09:34:39.547Z</time></trkpt><trkpt lat="45.6609067" lon="12.2703049"><ele>8.0</ele><time>2026-04-12T09:34:42.544Z</time></trkpt><trkpt lat="45.6608465" lon="12.2702771"><ele>7.999999999999999</ele><time>2026-04-12T09:34:45.541Z</time></trkpt><trkpt lat="45.660776" lon="12.2702427"><ele>8.0</ele><time>2026-04-12T09:34:50.575Z</time></trkpt><trkpt lat="45.6607087" lon="12.2702165"><ele>8.0</ele><time>2026-04-12T09:34:54.572Z</time></trkpt><trkpt lat="45.6606434" lon="12.2701578"><ele>8.0</ele><time>2026-04-12T09:34:59.33Z</time></trkpt><trkpt lat="45.6605891" lon="12.2700687"><ele>7.999999999999999</ele><time>2026-04-12T09:35:03.114Z</time></trkpt><trkpt lat="45.6605463" lon="12.2699896"><ele>8.0</ele><time>2026-04-12T09:35:05.991Z</time></trkpt><trkpt lat="45.6604975" lon="12.2699156"><ele>8.0</ele><time>2026-04-12T09:35:09.856Z</time></trkpt><trkpt lat="45.6604401" lon="12.269855"><ele>7.999999999999999</ele><time>2026-04-12T09:35:14.672Z</time></trkpt><trkpt lat="45.6603834" lon="12.2697981"><ele>8.0</ele><time>2026-04-12T09:35:18.588Z</time></trkpt><trkpt lat="45.6603221" lon="12.2697392"><ele>8.0</ele><time>2026-04-12T09:35:22.412Z</time></trkpt><trkpt lat="45.6602689" lon="12.2696878"><ele>8.142857142857142</ele><time>2026-04-12T09:35:25.249Z</time></trkpt><trkpt lat="45.6602179" lon="12.2696037"><ele>8.285714285714285</ele><time>2026-04-12T09:35:29.076Z</time></trkpt><trkpt lat="45.6601788" lon="12.269511"><ele>8.428571428571429</ele><time>2026-04-12T09:35:32.931Z</time></trkpt><trkpt lat="45.6601173" lon="12.2694423"><ele>8.571428571428571</ele><time>2026-04-12T09:35:37.356Z</time></trkpt><trkpt lat="45.6600595" lon="12.2693751"><ele>8.714285714285715</ele><time>2026-04-12T09:35:41.213Z</time></trkpt><trkpt lat="45.6599997" lon="12.2693334"><ele>8.857142857142858</ele><time>2026-04-12T09:35:44.61Z</time></trkpt><trkpt lat="45.6599376" lon="12.2692839"><ele>9.0</ele><time>2026-04-12T09:35:48.475Z</time></trkpt><trkpt lat="45.6598817" lon="12.2692329"><ele>9.0</ele><time>2026-04-12T09:35:52.411Z</time></trkpt><trkpt lat="45.6598263" lon="12.2691797"><ele>9.0</ele><time>2026-04-12T09:35:56.296Z</time></trkpt><trkpt lat="45.6597588" lon="12.2691213"><ele>9.0</ele><time>2026-04-12T09:36:00.193Z</time></trkpt><trkpt lat="45.659692" lon="12.269058"><ele>9.0</ele><time>2026-04-12T09:36:04.031Z</time></trkpt><trkpt lat="45.6596278" lon="12.2690078"><ele>9.0</ele><time>2026-04-12T09:36:07.918Z</time></trkpt><trkpt lat="45.6595528" lon="12.2689798"><ele>9.0</ele><time>2026-04-12T09:36:11.77Z</time></trkpt><trkpt lat="45.6594779" lon="12.2689573"><ele>8.666666666666666</ele><time>2026-04-12T09:36:15.636Z</time></trkpt><trkpt lat="45.6594089" lon="12.2689294"><ele>8.333333333333334</ele><time>2026-04-12T09:36:19.53Z</time></trkpt><trkpt lat="45.6593363" lon="12.2689236"><ele>8.0</ele><time>2026-04-12T09:36:23.438Z</time></trkpt><trkpt lat="45.6592519" lon="12.2689381"><ele>7.666666666666667</ele><time>2026-04-12T09:36:27.292Z</time></trkpt><trkpt lat="45.659169" lon="12.2689435"><ele>7.333333333333334</ele><time>2026-04-12T09:36:31.17Z</time></trkpt><trkpt lat="45.6590937" lon="12.2689523"><ele>7.0</ele><time>2026-04-12T09:36:35.033Z</time></trkpt><trkpt lat="45.6590197" lon="12.2689599"><ele>7.0</ele><time>2026-04-12T09:36:38.95Z</time></trkpt><trkpt lat="45.6589494" lon="12.2689708"><ele>7.0</ele><time>2026-04-12T09:36:42.835Z</time></trkpt><trkpt lat="45.6588711" lon="12.2689474"><ele>7.0</ele><time>2026-04-12T09:36:46.771Z</time></trkpt><trkpt lat="45.6588021" lon="12.2688988"><ele>7.0</ele><time>2026-04-12T09:36:50.658Z</time></trkpt><trkpt lat="45.6587541" lon="12.2688338"><ele>7.0</ele><time>2026-04-12T09:36:54.513Z</time></trkpt><trkpt lat="45.6586983" lon="12.2687669"><ele>7.0</ele><time>2026-04-12T09:36:58.389Z</time></trkpt><trkpt lat="45.6586412" lon="12.2686924"><ele>7.0</ele><time>2026-04-12T09:37:02.235Z</time></trkpt><trkpt lat="45.6585897" lon="12.2686172"><ele>6.857142857142857</ele><time>2026-04-12T09:37:06.092Z</time></trkpt><trkpt lat="45.6585467" lon="12.2685326"><ele>6.714285714285714</ele><time>2026-04-12T09:37:09.996Z</time></trkpt><trkpt lat="45.6585184" lon="12.2684474"><ele>6.571428571428571</ele><time>2026-04-12T09:37:13.851Z</time></trkpt><trkpt lat="45.6584955" lon="12.2683484"><ele>6.428571428571429</ele><time>2026-04-12T09:37:18.613Z</time></trkpt><trkpt lat="45.6584578" lon="12.2682747"><ele>6.285714285714286</ele><time>2026-04-12T09:37:22.552Z</time></trkpt><trkpt lat="45.6584275" lon="12.2681901"><ele>6.142857142857142</ele><time>2026-04-12T09:37:26.449Z</time></trkpt><trkpt lat="45.6584068" lon="12.2681014"><ele>6.0</ele><time>2026-04-12T09:37:29.914Z</time></trkpt><trkpt lat="45.6583841" lon="12.268008"><ele>5.999999999999999</ele><time>2026-04-12T09:37:33.291Z</time></trkpt><trkpt lat="45.6583407" lon="12.2679191"><ele>6.0</ele><time>2026-04-12T09:37:37.197Z</time></trkpt><trkpt lat="45.6582997" lon="12.2678459"><ele>6.0</ele><time>2026-04-12T09:37:41.113Z</time></trkpt><trkpt lat="45.6582588" lon="12.2677663"><ele>6.0</ele><time>2026-04-12T09:37:45.069Z</time></trkpt><trkpt lat="45.658207" lon="12.2676753"><ele>6.0</ele><time>2026-04-12T09:37:48.984Z</time></trkpt><trkpt lat="45.6581744" lon="12.2675861"><ele>5.999999999999999</ele><time>2026-04-12T09:37:52.889Z</time></trkpt><trkpt lat="45.6581367" lon="12.2675099"><ele>6.0</ele><time>2026-04-12T09:37:56.764Z</time></trkpt><trkpt lat="45.6581009" lon="12.2674265"><ele>5.999999999999999</ele><time>2026-04-12T09:38:00.75Z</time></trkpt><trkpt lat="45.6580668" lon="12.2673493"><ele>6.0</ele><time>2026-04-12T09:38:04.666Z</time></trkpt><trkpt lat="45.658013" lon="12.2672774"><ele>6.0</ele><time>2026-04-12T09:38:08.603Z</time></trkpt><trkpt lat="45.6579682" lon="12.2671905"><ele>6.0</ele><time>2026-04-12T09:38:12.507Z</time></trkpt><trkpt lat="45.6579166" lon="12.2671075"><ele>6.0</ele><time>2026-04-12T09:38:16.363Z</time></trkpt><trkpt lat="45.6578653" lon="12.2670258"><ele>5.999999999999999</ele><time>2026-04-12T09:38:20.23Z</time></trkpt><trkpt lat="45.6578112" lon="12.2669381"><ele>6.0</ele><time>2026-04-12T09:38:24.146Z</time></trkpt><trkpt lat="45.6577674" lon="12.2668421"><ele>6.142857142857142</ele><time>2026-04-12T09:38:28.031Z</time></trkpt><trkpt lat="45.6577239" lon="12.2667462"><ele>6.285714285714286</ele><time>2026-04-12T09:38:31.926Z</time></trkpt><trkpt lat="45.6576756" lon="12.2666622"><ele>6.428571428571429</ele><time>2026-04-12T09:38:35.823Z</time></trkpt><trkpt lat="45.657644" lon="12.2665745"><ele>6.571428571428571</ele><time>2026-04-12T09:38:39.751Z</time></trkpt><trkpt lat="45.6576286" lon="12.2664709"><ele>6.714285714285714</ele><time>2026-04-12T09:38:44.561Z</time></trkpt><trkpt lat="45.6576329" lon="12.2663783"><ele>6.857142857142857</ele><time>2026-04-12T09:38:48.528Z</time></trkpt><trkpt lat="45.657661" lon="12.2662722"><ele>7.0</ele><time>2026-04-12T09:38:53.443Z</time></trkpt><trkpt lat="45.6577271" lon="12.2662048"><ele>7.0</ele><time>2026-04-12T09:38:57.353Z</time></trkpt><trkpt lat="45.6577857" lon="12.2661503"><ele>7.0</ele><time>2026-04-12T09:39:01.246Z</time></trkpt><trkpt lat="45.6578421" lon="12.2660717"><ele>7.0</ele><time>2026-04-12T09:39:05.191Z</time></trkpt><trkpt lat="45.6579032" lon="12.2660193"><ele>7.0</ele><time>2026-04-12T09:39:09.148Z</time></trkpt><trkpt lat="45.6579774" lon="12.2659878"><ele>7.0</ele><time>2026-04-12T09:39:14.112Z</time></trkpt><trkpt lat="45.6580412" lon="12.2659425"><ele>7.0</ele><time>2026-04-12T09:39:18.069Z</time></trkpt><trkpt lat="45.6581073" lon="12.2659037"><ele>7.0</ele><time>2026-04-12T09:39:21.963Z</time></trkpt><trkpt lat="45.6581741" lon="12.2658571"><ele>7.0</ele><time>2026-04-12T09:39:25.953Z</time></trkpt><trkpt lat="45.6582322" lon="12.2658058"><ele>7.0</ele><time>2026-04-12T09:39:29.883Z</time></trkpt><trkpt lat="45.6582934" lon="12.2657486"><ele>7.0</ele><time>2026-04-12T09:39:33.791Z</time></trkpt><trkpt lat="45.6583579" lon="12.2656752"><ele>7.0</ele><time>2026-04-12T09:39:37.791Z</time></trkpt><trkpt lat="45.6584229" lon="12.2656292"><ele>7.0</ele><time>2026-04-12T09:39:41.753Z</time></trkpt><trkpt lat="45.6584928" lon="12.2655859"><ele>7.0</ele><time>2026-04-12T09:39:45.672Z</time></trkpt><trkpt lat="45.658558" lon="12.2655447"><ele>7.0</ele><time>2026-04-12T09:39:49.623Z</time></trkpt><trkpt lat="45.6586158" lon="12.2654992"><ele>7.142857142857142</ele><time>2026-04-12T09:39:53.629Z</time></trkpt><trkpt lat="45.6586841" lon="12.2654495"><ele>7.285714285714286</ele><time>2026-04-12T09:39:58.624Z</time></trkpt><trkpt lat="45.6587294" lon="12.2653825"><ele>7.428571428571429</ele><time>2026-04-12T09:40:02.109Z</time></trkpt><trkpt lat="45.6587866" lon="12.2653322"><ele>7.571428571428571</ele><time>2026-04-12T09:40:05.548Z</time></trkpt><trkpt lat="45.6588575" lon="12.2652882"><ele>7.7142857142857135</ele><time>2026-04-12T09:40:09.573Z</time></trkpt><trkpt lat="45.6589158" lon="12.2652416"><ele>7.857142857142857</ele><time>2026-04-12T09:40:13.552Z</time></trkpt><trkpt lat="45.6589744" lon="12.2651761"><ele>8.0</ele><time>2026-04-12T09:40:17.503Z</time></trkpt><trkpt lat="45.6590341" lon="12.2651424"><ele>8.0</ele><time>2026-04-12T09:40:20.47Z</time></trkpt><trkpt lat="45.659106" lon="12.2651086"><ele>7.999999999999999</ele><time>2026-04-12T09:40:24.405Z</time></trkpt><trkpt lat="45.6591693" lon="12.2650769"><ele>8.0</ele><time>2026-04-12T09:40:28.332Z</time></trkpt><trkpt lat="45.6592401" lon="12.2650404"><ele>8.0</ele><time>2026-04-12T09:40:32.27Z</time></trkpt><trkpt lat="45.6593094" lon="12.2650113"><ele>7.999999999999999</ele><time>2026-04-12T09:40:36.243Z</time></trkpt><trkpt lat="45.6593856" lon="12.2649783"><ele>8.0</ele><time>2026-04-12T09:40:40.168Z</time></trkpt><trkpt lat="45.6594535" lon="12.2649656"><ele>8.0</ele><time>2026-04-12T09:40:44.143Z</time></trkpt><trkpt lat="45.6595267" lon="12.2649352"><ele>8.714285714285714</ele><time>2026-04-12T09:40:49.048Z</time></trkpt><trkpt lat="45.6595968" lon="12.2649211"><ele>9.428571428571427</ele><time>2026-04-12T09:40:53.004Z</time></trkpt><trkpt lat="45.6596675" lon="12.2649082"><ele>10.142857142857142</ele><time>2026-04-12T09:40:56.949Z</time></trkpt><trkpt lat="45.6597357" lon="12.2648817"><ele>10.857142857142858</ele><time>2026-04-12T09:41:00.885Z</time></trkpt><trkpt lat="45.6598089" lon="12.2648477"><ele>11.571428571428573</ele><time>2026-04-12T09:41:04.851Z</time></trkpt><trkpt lat="45.6598826" lon="12.2648233"><ele>12.285714285714285</ele><time>2026-04-12T09:41:08.888Z</time></trkpt><trkpt lat="45.6599496" lon="12.2648219"><ele>13.0</ele><time>2026-04-12T09:41:12.964Z</time></trkpt><trkpt lat="45.6600256" lon="12.2648028"><ele>12.499999999999998</ele><time>2026-04-12T09:41:17.968Z</time></trkpt><trkpt lat="45.6600975" lon="12.2647724"><ele>12.0</ele><time>2026-04-12T09:41:21.983Z</time></trkpt><trkpt lat="45.6601657" lon="12.2647479"><ele>11.5</ele><time>2026-04-12T09:41:25.933Z</time></trkpt><trkpt lat="45.6602464" lon="12.2647194"><ele>11.0</ele><time>2026-04-12T09:41:29.824Z</time></trkpt><trkpt lat="45.6603261" lon="12.2646913"><ele>10.5</ele><time>2026-04-12T09:41:33.811Z</time></trkpt><trkpt lat="45.6604045" lon="12.2646697"><ele>10.0</ele><time>2026-04-12T09:41:37.831Z</time></trkpt><trkpt lat="45.6604787" lon="12.2646577"><ele>10.0</ele><time>2026-04-12T09:41:41.952Z</time></trkpt><trkpt lat="45.6605427" lon="12.2646378"><ele>10.0</ele><time>2026-04-12T09:41:45.928Z</time></trkpt><trkpt lat="45.6606199" lon="12.2646242"><ele>10.0</ele><time>2026-04-12T09:41:49.884Z</time></trkpt><trkpt lat="45.6606874" lon="12.2646201"><ele>10.0</ele><time>2026-04-12T09:41:53.349Z</time></trkpt><trkpt lat="45.6607503" lon="12.2646151"><ele>10.0</ele><time>2026-04-12T09:41:56.325Z</time></trkpt><trkpt lat="45.6608265" lon="12.2646106"><ele>10.0</ele><time>2026-04-12T09:42:00.334Z</time></trkpt><trkpt lat="45.6608957" lon="12.2645926"><ele>10.0</ele><time>2026-04-12T09:42:04.366Z</time></trkpt><trkpt lat="45.6609627" lon="12.264571"><ele>10.0</ele><time>2026-04-12T09:42:08.364Z</time></trkpt><trkpt lat="45.6610249" lon="12.2645375"><ele>10.0</ele><time>2026-04-12T09:42:12.409Z</time></trkpt><trkpt lat="45.6610998" lon="12.264503"><ele>10.0</ele><time>2026-04-12T09:42:16.424Z</time></trkpt><trkpt lat="45.6611763" lon="12.2644789"><ele>10.0</ele><time>2026-04-12T09:42:20.429Z</time></trkpt><trkpt lat="45.6612549" lon="12.2644731"><ele>10.0</ele><time>2026-04-12T09:42:24.486Z</time></trkpt><trkpt lat="45.6613218" lon="12.264449"><ele>10.0</ele><time>2026-04-12T09:42:28.49Z</time></trkpt><trkpt lat="45.6613965" lon="12.2644279"><ele>10.0</ele><time>2026-04-12T09:42:32.487Z</time></trkpt><trkpt lat="45.6614647" lon="12.2643993"><ele>10.166666666666668</ele><time>2026-04-12T09:42:36.421Z</time></trkpt><trkpt lat="45.6615385" lon="12.2643564"><ele>10.333333333333334</ele><time>2026-04-12T09:42:40.309Z</time></trkpt><trkpt lat="45.6616151" lon="12.2643205"><ele>10.5</ele><time>2026-04-12T09:42:44.245Z</time></trkpt><trkpt lat="45.6616851" lon="12.2642981"><ele>10.666666666666666</ele><time>2026-04-12T09:42:48.496Z</time></trkpt><trkpt lat="45.6617537" lon="12.2642435"><ele>10.833333333333332</ele><time>2026-04-12T09:42:52.572Z</time></trkpt><trkpt lat="45.661828" lon="12.2642124"><ele>11.0</ele><time>2026-04-12T09:42:56.555Z</time></trkpt><trkpt lat="45.6618983" lon="12.2641771"><ele>11.166666666666666</ele><time>2026-04-12T09:43:00.466Z</time></trkpt><trkpt lat="45.6619709" lon="12.2641402"><ele>11.333333333333332</ele><time>2026-04-12T09:43:04.442Z</time></trkpt><trkpt lat="45.6620458" lon="12.2640949"><ele>11.5</ele><time>2026-04-12T09:43:08.407Z</time></trkpt><trkpt lat="45.6621167" lon="12.2640536"><ele>11.666666666666666</ele><time>2026-04-12T09:43:12.304Z</time></trkpt><trkpt lat="45.6621845" lon="12.2640125"><ele>11.833333333333334</ele><time>2026-04-12T09:43:16.27Z</time></trkpt><trkpt lat="45.6622507" lon="12.2639709"><ele>12.0</ele><time>2026-04-12T09:43:20.245Z</time></trkpt><trkpt lat="45.6623209" lon="12.2639318"><ele>12.0</ele><time>2026-04-12T09:43:25.209Z</time></trkpt><trkpt lat="45.6623961" lon="12.2638901"><ele>12.0</ele><time>2026-04-12T09:43:29.148Z</time></trkpt><trkpt lat="45.6624705" lon="12.2638688"><ele>12.0</ele><time>2026-04-12T09:43:33.091Z</time></trkpt><trkpt lat="45.6625458" lon="12.2638497"><ele>12.0</ele><time>2026-04-12T09:43:37.966Z</time></trkpt><trkpt lat="45.6626096" lon="12.2638239"><ele>12.0</ele><time>2026-04-12T09:43:41.851Z</time></trkpt><trkpt lat="45.6626765" lon="12.2637772"><ele>12.0</ele><time>2026-04-12T09:43:45.748Z</time></trkpt><trkpt lat="45.6627455" lon="12.2637263"><ele>11.999999999999998</ele><time>2026-04-12T09:43:49.621Z</time></trkpt><trkpt lat="45.6628107" lon="12.2636731"><ele>12.0</ele><time>2026-04-12T09:43:53.569Z</time></trkpt><trkpt lat="45.6628779" lon="12.2636057"><ele>12.0</ele><time>2026-04-12T09:43:57.605Z</time></trkpt><trkpt lat="45.6629308" lon="12.2635371"><ele>12.0</ele><time>2026-04-12T09:44:01.57Z</time></trkpt><trkpt lat="45.6629938" lon="12.2634697"><ele>12.0</ele><time>2026-04-12T09:44:05.565Z</time></trkpt><trkpt lat="45.6630346" lon="12.2634007"><ele>11.999999999999998</ele><time>2026-04-12T09:44:08.561Z</time></trkpt><trkpt lat="45.6630883" lon="12.2633279"><ele>12.0</ele><time>2026-04-12T09:44:12.552Z</time></trkpt><trkpt lat="45.6631434" lon="12.2632656"><ele>11.999999999999998</ele><time>2026-04-12T09:44:16.603Z</time></trkpt><trkpt lat="45.6631928" lon="12.2631829"><ele>12.0</ele><time>2026-04-12T09:44:21.628Z</time></trkpt><trkpt lat="45.6632408" lon="12.2631007"><ele>12.0</ele><time>2026-04-12T09:44:26.543Z</time></trkpt><trkpt lat="45.6632852" lon="12.2630219"><ele>12.0</ele><time>2026-04-12T09:44:31.551Z</time></trkpt><trkpt lat="45.6633373" lon="12.2629424"><ele>12.0</ele><time>2026-04-12T09:44:36.523Z</time></trkpt><trkpt lat="45.6633804" lon="12.262864"><ele>11.999999999999998</ele><time>2026-04-12T09:44:41.486Z</time></trkpt><trkpt lat="45.6634265" lon="12.2627746"><ele>12.0</ele><time>2026-04-12T09:44:46.45Z</time></trkpt><trkpt lat="45.6634537" lon="12.2626769"><ele>11.833333333333334</ele><time>2026-04-12T09:44:51.445Z</time></trkpt><trkpt lat="45.663481" lon="12.2625898"><ele>11.666666666666666</ele><time>2026-04-12T09:44:55.41Z</time></trkpt><trkpt lat="45.663523" lon="12.2624806"><ele>11.5</ele><time>2026-04-12T09:44:59.348Z</time></trkpt><trkpt lat="45.6635426" lon="12.2623636"><ele>11.333333333333332</ele><time>2026-04-12T09:45:03.302Z</time></trkpt><trkpt lat="45.6635655" lon="12.2622505"><ele>11.166666666666666</ele><time>2026-04-12T09:45:07.288Z</time></trkpt><trkpt lat="45.6635767" lon="12.2621384"><ele>11.0</ele><time>2026-04-12T09:45:11.265Z</time></trkpt><trkpt lat="45.6635559" lon="12.2620506"><ele>11.0</ele><time>2026-04-12T09:45:14.25Z</time></trkpt><trkpt lat="45.6635152" lon="12.2619575"><ele>11.0</ele><time>2026-04-12T09:45:17.248Z</time></trkpt><trkpt lat="45.663481" lon="12.2618562"><ele>11.0</ele><time>2026-04-12T09:45:20.183Z</time></trkpt><trkpt lat="45.6634572" lon="12.261695"><ele>11.0</ele><time>2026-04-12T09:45:23.151Z</time></trkpt><trkpt lat="45.6634414" lon="12.2615661"><ele>11.0</ele><time>2026-04-12T09:45:25.13Z</time></trkpt><trkpt lat="45.6634275" lon="12.261462"><ele>11.0</ele><time>2026-04-12T09:45:27.108Z</time></trkpt><trkpt lat="45.6633997" lon="12.2613466"><ele>10.833333333333332</ele><time>2026-04-12T09:45:30.065Z</time></trkpt><trkpt lat="45.6633551" lon="12.2612371"><ele>10.666666666666666</ele><time>2026-04-12T09:45:33.051Z</time></trkpt><trkpt lat="45.6633001" lon="12.2611511"><ele>10.5</ele><time>2026-04-12T09:45:36.027Z</time></trkpt><trkpt lat="45.6632391" lon="12.261082"><ele>10.333333333333334</ele><time>2026-04-12T09:45:39.003Z</time></trkpt><trkpt lat="45.6631805" lon="12.2610168"><ele>10.166666666666668</ele><time>2026-04-12T09:45:42.011Z</time></trkpt><trkpt lat="45.6631209" lon="12.26095"><ele>10.0</ele><time>2026-04-12T09:45:45.986Z</time></trkpt><trkpt lat="45.6630612" lon="12.2608837"><ele>10.0</ele><time>2026-04-12T09:45:49.982Z</time></trkpt><trkpt lat="45.6629997" lon="12.2608188"><ele>10.0</ele><time>2026-04-12T09:45:53.967Z</time></trkpt><trkpt lat="45.6629447" lon="12.2607659"><ele>10.0</ele><time>2026-04-12T09:45:57.463Z</time></trkpt><trkpt lat="45.6628817" lon="12.2607121"><ele>10.0</ele><time>2026-04-12T09:46:00.913Z</time></trkpt><trkpt lat="45.6628159" lon="12.2606499"><ele>10.0</ele><time>2026-04-12T09:46:04.926Z</time></trkpt><trkpt lat="45.6627601" lon="12.2605752"><ele>10.0</ele><time>2026-04-12T09:46:08.911Z</time></trkpt><trkpt lat="45.6627069" lon="12.2605207"><ele>10.0</ele><time>2026-04-12T09:46:12.926Z</time></trkpt><trkpt lat="45.6626614" lon="12.260445"><ele>9.833333333333334</ele><time>2026-04-12T09:46:17.829Z</time></trkpt><trkpt lat="45.6626968" lon="12.2603693"><ele>9.666666666666668</ele><time>2026-04-12T09:46:22.826Z</time></trkpt><trkpt lat="45.6627551" lon="12.2603142"><ele>9.5</ele><time>2026-04-12T09:46:28.171Z</time></trkpt><trkpt lat="45.662821" lon="12.2602599"><ele>9.333333333333334</ele><time>2026-04-12T09:46:36.141Z</time></trkpt><trkpt lat="45.6628901" lon="12.2602254"><ele>9.166666666666666</ele><time>2026-04-12T09:46:41.126Z</time></trkpt><trkpt lat="45.6629629" lon="12.2601753"><ele>9.0</ele><time>2026-04-12T09:46:45.591Z</time></trkpt><trkpt lat="45.6630394" lon="12.2600872"><ele>9.000000000000002</ele><time>2026-04-12T09:46:50.514Z</time></trkpt><trkpt lat="45.6630883" lon="12.2600257"><ele>9.0</ele><time>2026-04-12T09:46:53.51Z</time></trkpt><trkpt lat="45.663154" lon="12.2599758"><ele>9.0</ele><time>2026-04-12T09:46:57.585Z</time></trkpt><trkpt lat="45.6632089" lon="12.2598876"><ele>9.0</ele><time>2026-04-12T09:47:01.876Z</time></trkpt><trkpt lat="45.6632318" lon="12.2597839"><ele>9.0</ele><time>2026-04-12T09:47:05.779Z</time></trkpt><trkpt lat="45.663294" lon="12.259763"><ele>9.000000000000002</ele><time>2026-04-12T09:47:09.404Z</time></trkpt><trkpt lat="45.6633595" lon="12.2597408"><ele>9.0</ele><time>2026-04-12T09:47:12.582Z</time></trkpt><trkpt lat="45.6634154" lon="12.25969"><ele>8.857142857142858</ele><time>2026-04-12T09:47:15.48Z</time></trkpt><trkpt lat="45.6634602" lon="12.259598"><ele>8.714285714285715</ele><time>2026-04-12T09:47:19.522Z</time></trkpt><trkpt lat="45.6635002" lon="12.2595183"><ele>8.571428571428571</ele><time>2026-04-12T09:47:23.542Z</time></trkpt><trkpt lat="45.6635536" lon="12.2594361"><ele>8.428571428571429</ele><time>2026-04-12T09:47:27.466Z</time></trkpt><trkpt lat="45.6636147" lon="12.2593798"><ele>8.285714285714285</ele><time>2026-04-12T09:47:30.55Z</time></trkpt><trkpt lat="45.663672" lon="12.2593187"><ele>8.142857142857142</ele><time>2026-04-12T09:47:34.506Z</time></trkpt><trkpt lat="45.6637156" lon="12.2592397"><ele>8.0</ele><time>2026-04-12T09:47:38.581Z</time></trkpt><trkpt lat="45.6637578" lon="12.2591492"><ele>8.285714285714285</ele><time>2026-04-12T09:47:42.537Z</time></trkpt><trkpt lat="45.6638069" lon="12.2590546"><ele>8.571428571428571</ele><time>2026-04-12T09:47:46.613Z</time></trkpt><trkpt lat="45.6638494" lon="12.2589837"><ele>8.857142857142858</ele><time>2026-04-12T09:47:50.209Z</time></trkpt><trkpt lat="45.6638963" lon="12.258914"><ele>9.142857142857142</ele><time>2026-04-12T09:47:52.486Z</time></trkpt><trkpt lat="45.6639467" lon="12.2588477"><ele>9.428571428571429</ele><time>2026-04-12T09:47:56.563Z</time></trkpt><trkpt lat="45.6639755" lon="12.2587391"><ele>9.714285714285714</ele><time>2026-04-12T09:48:00.519Z</time></trkpt><trkpt lat="45.6640138" lon="12.2586476"><ele>10.0</ele><time>2026-04-12T09:48:04.593Z</time></trkpt><trkpt lat="45.6640706" lon="12.258573"><ele>10.0</ele><time>2026-04-12T09:48:08.549Z</time></trkpt><trkpt lat="45.6641266" lon="12.2584904"><ele>10.0</ele><time>2026-04-12T09:48:12.624Z</time></trkpt><trkpt lat="45.6641765" lon="12.2584094"><ele>10.0</ele><time>2026-04-12T09:48:16.581Z</time></trkpt><trkpt lat="45.6642274" lon="12.2583322"><ele>10.0</ele><time>2026-04-12T09:48:20.536Z</time></trkpt><trkpt lat="45.6642699" lon="12.2582619"><ele>10.0</ele><time>2026-04-12T09:48:23.532Z</time></trkpt><trkpt lat="45.6643133" lon="12.2581895"><ele>10.0</ele><time>2026-04-12T09:48:27.609Z</time></trkpt><trkpt lat="45.6643627" lon="12.2581068"><ele>10.0</ele><time>2026-04-12T09:48:31.564Z</time></trkpt><trkpt lat="45.6644145" lon="12.2580174"><ele>10.142857142857142</ele><time>2026-04-12T09:48:35.64Z</time></trkpt><trkpt lat="45.6644653" lon="12.2579463"><ele>10.285714285714286</ele><time>2026-04-12T09:48:39.595Z</time></trkpt><trkpt lat="45.6645108" lon="12.2578553"><ele>10.428571428571429</ele><time>2026-04-12T09:48:44.509Z</time></trkpt><trkpt lat="45.6645432" lon="12.2577716"><ele>10.571428571428571</ele><time>2026-04-12T09:48:48.585Z</time></trkpt><trkpt lat="45.6645758" lon="12.2576896"><ele>10.714285714285714</ele><time>2026-04-12T09:48:52.54Z</time></trkpt><trkpt lat="45.6646054" lon="12.2575948"><ele>10.857142857142858</ele><time>2026-04-12T09:48:58.587Z</time></trkpt><trkpt lat="45.6646247" lon="12.2574952"><ele>11.0</ele><time>2026-04-12T09:49:02.61Z</time></trkpt><trkpt lat="45.6646307" lon="12.257384"><ele>11.0</ele><time>2026-04-12T09:49:05.486Z</time></trkpt><trkpt lat="45.6646013" lon="12.2573021"><ele>11.0</ele><time>2026-04-12T09:49:07.523Z</time></trkpt><trkpt lat="45.6645606" lon="12.2572093"><ele>11.0</ele><time>2026-04-12T09:49:10.521Z</time></trkpt><trkpt lat="45.6645527" lon="12.2571189"><ele>11.0</ele><time>2026-04-12T09:49:13.517Z</time></trkpt><trkpt lat="45.6645205" lon="12.2570289"><ele>11.0</ele><time>2026-04-12T09:49:16.513Z</time></trkpt><trkpt lat="45.6644977" lon="12.2569195"><ele>11.0</ele><time>2026-04-12T09:49:20.47Z</time></trkpt><trkpt lat="45.6644772" lon="12.2568295"><ele>11.0</ele><time>2026-04-12T09:49:24.545Z</time></trkpt><trkpt lat="45.664451" lon="12.2567401"><ele>10.857142857142858</ele><time>2026-04-12T09:49:29.578Z</time></trkpt><trkpt lat="45.6644117" lon="12.256624"><ele>10.714285714285714</ele><time>2026-04-12T09:49:34.568Z</time></trkpt><trkpt lat="45.6643686" lon="12.256555"><ele>10.571428571428571</ele><time>2026-04-12T09:49:37.481Z</time></trkpt><trkpt lat="45.6643426" lon="12.2564693"><ele>10.428571428571429</ele><time>2026-04-12T09:49:40.459Z</time></trkpt><trkpt lat="45.6643049" lon="12.2563718"><ele>10.285714285714286</ele><time>2026-04-12T09:49:45.52Z</time></trkpt><trkpt lat="45.6643028" lon="12.2562626"><ele>10.142857142857142</ele><time>2026-04-12T09:49:50.555Z</time></trkpt><trkpt lat="45.6642611" lon="12.2561864"><ele>10.0</ele><time>2026-04-12T09:49:54.503Z</time></trkpt><trkpt lat="45.6642179" lon="12.2561141"><ele>9.857142857142858</ele><time>2026-04-12T09:49:58.439Z</time></trkpt><trkpt lat="45.6641679" lon="12.2560523"><ele>9.714285714285715</ele><time>2026-04-12T09:50:02.366Z</time></trkpt><trkpt lat="45.6641165" lon="12.2559834"><ele>9.571428571428573</ele><time>2026-04-12T09:50:06.282Z</time></trkpt><trkpt lat="45.6640653" lon="12.255917"><ele>9.428571428571429</ele><time>2026-04-12T09:50:10.227Z</time></trkpt><trkpt lat="45.6640265" lon="12.2558348"><ele>9.285714285714286</ele><time>2026-04-12T09:50:14.101Z</time></trkpt><trkpt lat="45.6639905" lon="12.2557421"><ele>9.142857142857144</ele><time>2026-04-12T09:50:18.038Z</time></trkpt><trkpt lat="45.6639431" lon="12.2556435"><ele>9.0</ele><time>2026-04-12T09:50:22.024Z</time></trkpt><trkpt lat="45.6639215" lon="12.2555522"><ele>9.285714285714286</ele><time>2026-04-12T09:50:25.041Z</time></trkpt><trkpt lat="45.6639256" lon="12.2554397"><ele>9.571428571428571</ele><time>2026-04-12T09:50:29.005Z</time></trkpt><trkpt lat="45.6639322" lon="12.2553368"><ele>9.857142857142858</ele><time>2026-04-12T09:50:32.961Z</time></trkpt><trkpt lat="45.6639517" lon="12.2552362"><ele>10.142857142857142</ele><time>2026-04-12T09:50:37.966Z</time></trkpt><trkpt lat="45.6639639" lon="12.2551396"><ele>10.428571428571429</ele><time>2026-04-12T09:50:42.021Z</time></trkpt><trkpt lat="45.6639498" lon="12.2550312"><ele>10.714285714285715</ele><time>2026-04-12T09:50:46.066Z</time></trkpt><trkpt lat="45.6639268" lon="12.2549358"><ele>11.0</ele><time>2026-04-12T09:50:50.021Z</time></trkpt><trkpt lat="45.663903" lon="12.2548385"><ele>11.428571428571429</ele><time>2026-04-12T09:50:54.018Z</time></trkpt><trkpt lat="45.6638911" lon="12.2547427"><ele>11.857142857142858</ele><time>2026-04-12T09:50:57.025Z</time></trkpt><trkpt lat="45.6638668" lon="12.2546446"><ele>12.285714285714285</ele><time>2026-04-12T09:51:00.98Z</time></trkpt><trkpt lat="45.6638464" lon="12.2545571"><ele>12.714285714285715</ele><time>2026-04-12T09:51:04.925Z</time></trkpt><trkpt lat="45.6638338" lon="12.2544583"><ele>13.142857142857142</ele><time>2026-04-12T09:51:08.901Z</time></trkpt><trkpt lat="45.663829" lon="12.254368"><ele>13.571428571428571</ele><time>2026-04-12T09:51:11.838Z</time></trkpt><trkpt lat="45.6638156" lon="12.2542637"><ele>14.0</ele><time>2026-04-12T09:51:15.824Z</time></trkpt><trkpt lat="45.6638039" lon="12.2541704"><ele>14.000000000000002</ele><time>2026-04-12T09:51:19.779Z</time></trkpt><trkpt lat="45.6637891" lon="12.254074"><ele>14.0</ele><time>2026-04-12T09:51:23.724Z</time></trkpt><trkpt lat="45.6637672" lon="12.2539539"><ele>14.0</ele><time>2026-04-12T09:51:28.606Z</time></trkpt><trkpt lat="45.6637543" lon="12.2538433"><ele>14.0</ele><time>2026-04-12T09:51:33.624Z</time></trkpt><trkpt lat="45.6637414" lon="12.2537489"><ele>14.000000000000002</ele><time>2026-04-12T09:51:37.559Z</time></trkpt><trkpt lat="45.663733" lon="12.2536414"><ele>14.0</ele><time>2026-04-12T09:51:41.566Z</time></trkpt><trkpt lat="45.6637185" lon="12.2535307"><ele>14.000000000000002</ele><time>2026-04-12T09:51:45.56Z</time></trkpt><trkpt lat="45.6637072" lon="12.2534211"><ele>14.0</ele><time>2026-04-12T09:51:49.545Z</time></trkpt><trkpt lat="45.6636913" lon="12.2533147"><ele>14.0</ele><time>2026-04-12T09:51:53.542Z</time></trkpt><trkpt lat="45.6636816" lon="12.2532"><ele>14.0</ele><time>2026-04-12T09:51:57.577Z</time></trkpt><trkpt lat="45.6636746" lon="12.2530928"><ele>14.000000000000002</ele><time>2026-04-12T09:52:01.562Z</time></trkpt><trkpt lat="45.6636621" lon="12.2529925"><ele>14.0</ele><time>2026-04-12T09:52:05.578Z</time></trkpt><trkpt lat="45.6636685" lon="12.2528788"><ele>14.000000000000002</ele><time>2026-04-12T09:52:09.567Z</time></trkpt><trkpt lat="45.6636518" lon="12.2527678"><ele>14.0</ele><time>2026-04-12T09:52:13.558Z</time></trkpt><trkpt lat="45.6636375" lon="12.2526652"><ele>14.0</ele><time>2026-04-12T09:52:17.564Z</time></trkpt><trkpt lat="45.6635919" lon="12.252567"><ele>14.0</ele><time>2026-04-12T09:52:21.601Z</time></trkpt><trkpt lat="45.6635602" lon="12.2524615"><ele>14.000000000000002</ele><time>2026-04-12T09:52:25.544Z</time></trkpt><trkpt lat="45.6635381" lon="12.2523563"><ele>14.0</ele><time>2026-04-12T09:52:29.581Z</time></trkpt><trkpt lat="45.6634964" lon="12.2522837"><ele>13.571428571428571</ele><time>2026-04-12T09:52:34.533Z</time></trkpt><trkpt lat="45.6634353" lon="12.2522581"><ele>13.142857142857142</ele><time>2026-04-12T09:52:37.483Z</time></trkpt><trkpt lat="45.6633817" lon="12.2521749"><ele>12.714285714285715</ele><time>2026-04-12T09:52:41.605Z</time></trkpt><trkpt lat="45.6634094" lon="12.2520887"><ele>12.285714285714285</ele><time>2026-04-12T09:52:45.624Z</time></trkpt><trkpt lat="45.6634492" lon="12.2520066"><ele>11.857142857142858</ele><time>2026-04-12T09:52:49.561Z</time></trkpt><trkpt lat="45.6634964" lon="12.2519056"><ele>11.428571428571429</ele><time>2026-04-12T09:52:53.507Z</time></trkpt><trkpt lat="45.6635423" lon="12.251833"><ele>11.0</ele><time>2026-04-12T09:52:56.462Z</time></trkpt><trkpt lat="45.6635948" lon="12.2517526"><ele>11.0</ele><time>2026-04-12T09:53:00.397Z</time></trkpt><trkpt lat="45.6636489" lon="12.2516919"><ele>11.0</ele><time>2026-04-12T09:53:04.324Z</time></trkpt><trkpt lat="45.6637" lon="12.2516325"><ele>11.0</ele><time>2026-04-12T09:53:08.299Z</time></trkpt><trkpt lat="45.6637571" lon="12.2515613"><ele>11.0</ele><time>2026-04-12T09:53:12.324Z</time></trkpt><trkpt lat="45.6638078" lon="12.251488"><ele>11.0</ele><time>2026-04-12T09:53:16.382Z</time></trkpt><trkpt lat="45.6638637" lon="12.2514345"><ele>11.0</ele><time>2026-04-12T09:53:20.389Z</time></trkpt><trkpt lat="45.6639193" lon="12.2513886"><ele>11.0</ele><time>2026-04-12T09:53:24.321Z</time></trkpt><trkpt lat="45.6639839" lon="12.2513392"><ele>11.142857142857142</ele><time>2026-04-12T09:53:28.298Z</time></trkpt><trkpt lat="45.6640494" lon="12.2512987"><ele>11.285714285714285</ele><time>2026-04-12T09:53:32.362Z</time></trkpt><trkpt lat="45.6640983" lon="12.2512181"><ele>11.428571428571427</ele><time>2026-04-12T09:53:36.399Z</time></trkpt><trkpt lat="45.664168" lon="12.2511772"><ele>11.571428571428571</ele><time>2026-04-12T09:53:40.405Z</time></trkpt><trkpt lat="45.6642348" lon="12.2511175"><ele>11.714285714285714</ele><time>2026-04-12T09:53:44.5Z</time></trkpt><trkpt lat="45.6642961" lon="12.2510777"><ele>11.857142857142856</ele><time>2026-04-12T09:53:48.492Z</time></trkpt><trkpt lat="45.6643261" lon="12.250995"><ele>12.0</ele><time>2026-04-12T09:53:52.568Z</time></trkpt><trkpt lat="45.6643143" lon="12.2509019"><ele>12.0</ele><time>2026-04-12T09:53:56.548Z</time></trkpt><trkpt lat="45.6642945" lon="12.250793"><ele>12.0</ele><time>2026-04-12T09:54:00.6Z</time></trkpt><trkpt lat="45.6642885" lon="12.2506789"><ele>12.0</ele><time>2026-04-12T09:54:04.554Z</time></trkpt><trkpt lat="45.6642858" lon="12.2505639"><ele>12.0</ele><time>2026-04-12T09:54:08.51Z</time></trkpt><trkpt lat="45.6642777" lon="12.2504597"><ele>12.0</ele><time>2026-04-12T09:54:12.585Z</time></trkpt><trkpt lat="45.6642502" lon="12.2503565"><ele>12.0</ele><time>2026-04-12T09:54:16.542Z</time></trkpt><trkpt lat="45.664227" lon="12.2502615"><ele>11.857142857142856</ele><time>2026-04-12T09:54:20.617Z</time></trkpt><trkpt lat="45.664198" lon="12.2501751"><ele>11.714285714285714</ele><time>2026-04-12T09:54:24.572Z</time></trkpt><trkpt lat="45.6641722" lon="12.2500721"><ele>11.571428571428571</ele><time>2026-04-12T09:54:28.528Z</time></trkpt><trkpt lat="45.6641466" lon="12.2499771"><ele>11.428571428571427</ele><time>2026-04-12T09:54:32.528Z</time></trkpt><trkpt lat="45.664126" lon="12.2498758"><ele>11.285714285714285</ele><time>2026-04-12T09:54:36.583Z</time></trkpt><trkpt lat="45.6641021" lon="12.2497808"><ele>11.142857142857142</ele><time>2026-04-12T09:54:40.64Z</time></trkpt><trkpt lat="45.6640805" lon="12.2496846"><ele>11.0</ele><time>2026-04-12T09:54:44.59Z</time></trkpt><trkpt lat="45.6640532" lon="12.2495831"><ele>11.0</ele><time>2026-04-12T09:54:48.547Z</time></trkpt><trkpt lat="45.6640312" lon="12.24949"><ele>11.0</ele><time>2026-04-12T09:54:53.581Z</time></trkpt><trkpt lat="45.6640147" lon="12.2493994"><ele>11.0</ele><time>2026-04-12T09:54:58.615Z</time></trkpt><trkpt lat="45.6639908" lon="12.2493132"><ele>11.0</ele><time>2026-04-12T09:55:02.571Z</time></trkpt><trkpt lat="45.6639453" lon="12.2492271"><ele>11.0</ele><time>2026-04-12T09:55:06.519Z</time></trkpt><trkpt lat="45.6639176" lon="12.2491262"><ele>11.0</ele><time>2026-04-12T09:55:10.784Z</time></trkpt><trkpt lat="45.6638965" lon="12.2490412"><ele>11.0</ele><time>2026-04-12T09:55:13.961Z</time></trkpt><trkpt lat="45.663863" lon="12.2489478"><ele>11.142857142857142</ele><time>2026-04-12T09:55:18.166Z</time></trkpt><trkpt lat="45.6638342" lon="12.248849"><ele>11.285714285714285</ele><time>2026-04-12T09:55:22.362Z</time></trkpt><trkpt lat="45.6638167" lon="12.24875"><ele>11.428571428571427</ele><time>2026-04-12T09:55:26.545Z</time></trkpt><trkpt lat="45.6637735" lon="12.2486823"><ele>11.571428571428571</ele><time>2026-04-12T09:55:31.522Z</time></trkpt><trkpt lat="45.6636991" lon="12.2486843"><ele>11.714285714285714</ele><time>2026-04-12T09:55:35.535Z</time></trkpt><trkpt lat="45.663631" lon="12.2487075"><ele>11.857142857142856</ele><time>2026-04-12T09:55:38.584Z</time></trkpt><trkpt lat="45.6635714" lon="12.2486668"><ele>12.0</ele><time>2026-04-12T09:55:42.607Z</time></trkpt><trkpt lat="45.6635494" lon="12.2485799"><ele>11.999999999999998</ele><time>2026-04-12T09:55:47.522Z</time></trkpt><trkpt lat="45.6635376" lon="12.2484726"><ele>12.0</ele><time>2026-04-12T09:55:52.556Z</time></trkpt><trkpt lat="45.6635329" lon="12.2483823"><ele>12.0</ele><time>2026-04-12T09:55:56.513Z</time></trkpt><trkpt lat="45.6635166" lon="12.2482767"><ele>12.0</ele><time>2026-04-12T09:56:00.587Z</time></trkpt><trkpt lat="45.6635026" lon="12.2481727"><ele>12.0</ele><time>2026-04-12T09:56:04.543Z</time></trkpt><trkpt lat="45.663494" lon="12.2480571"><ele>11.999999999999998</ele><time>2026-04-12T09:56:08.404Z</time></trkpt><trkpt lat="45.663485" lon="12.2479548"><ele>12.0</ele><time>2026-04-12T09:56:12.398Z</time></trkpt><trkpt lat="45.6634746" lon="12.2478603"><ele>12.428571428571427</ele><time>2026-04-12T09:56:16.423Z</time></trkpt><trkpt lat="45.6634706" lon="12.2477656"><ele>12.857142857142858</ele><time>2026-04-12T09:56:20.398Z</time></trkpt><trkpt lat="45.6634669" lon="12.2476708"><ele>13.285714285714285</ele><time>2026-04-12T09:56:24.385Z</time></trkpt><trkpt lat="45.6634564" lon="12.247572"><ele>13.714285714285714</ele><time>2026-04-12T09:56:28.341Z</time></trkpt><trkpt lat="45.6634482" lon="12.2474649"><ele>14.142857142857142</ele><time>2026-04-12T09:56:32.325Z</time></trkpt><trkpt lat="45.6634443" lon="12.2473596"><ele>14.571428571428571</ele><time>2026-04-12T09:56:36.282Z</time></trkpt><trkpt lat="45.6634408" lon="12.2472476"><ele>15.0</ele><time>2026-04-12T09:56:40.338Z</time></trkpt><trkpt lat="45.6634334" lon="12.2471466"><ele>15.285714285714286</ele><time>2026-04-12T09:56:44.261Z</time></trkpt><trkpt lat="45.6634211" lon="12.2470468"><ele>15.57142857142857</ele><time>2026-04-12T09:56:48.22Z</time></trkpt><trkpt lat="45.6634011" lon="12.2469394"><ele>15.857142857142856</ele><time>2026-04-12T09:56:52.165Z</time></trkpt><trkpt lat="45.6633829" lon="12.2468376"><ele>16.142857142857142</ele><time>2026-04-12T09:56:55.98Z</time></trkpt><trkpt lat="45.6633435" lon="12.2467538"><ele>16.428571428571427</ele><time>2026-04-12T09:56:59.966Z</time></trkpt><trkpt lat="45.6632843" lon="12.2466859"><ele>16.71428571428571</ele><time>2026-04-12T09:57:03.862Z</time></trkpt><trkpt lat="45.6632329" lon="12.2466288"><ele>17.0</ele><time>2026-04-12T09:57:06.858Z</time></trkpt><trkpt lat="45.6631661" lon="12.246569"><ele>16.999999999999996</ele><time>2026-04-12T09:57:10.766Z</time></trkpt><trkpt lat="45.6631012" lon="12.2465038"><ele>17.0</ele><time>2026-04-12T09:57:14.661Z</time></trkpt><trkpt lat="45.6630474" lon="12.2464526"><ele>17.0</ele><time>2026-04-12T09:57:17.607Z</time></trkpt><trkpt lat="45.6629859" lon="12.2463977"><ele>17.0</ele><time>2026-04-12T09:57:21.023Z</time></trkpt><trkpt lat="45.6629348" lon="12.2463438"><ele>17.0</ele><time>2026-04-12T09:57:24.461Z</time></trkpt><trkpt lat="45.6628776" lon="12.2462833"><ele>16.999999999999996</ele><time>2026-04-12T09:57:28.385Z</time></trkpt><trkpt lat="45.6628201" lon="12.2462257"><ele>17.0</ele><time>2026-04-12T09:57:32.32Z</time></trkpt><trkpt lat="45.6627633" lon="12.2461613"><ele>16.71428571428571</ele><time>2026-04-12T09:57:36.267Z</time></trkpt><trkpt lat="45.6627049" lon="12.2460914"><ele>16.428571428571427</ele><time>2026-04-12T09:57:40.202Z</time></trkpt><trkpt lat="45.6626566" lon="12.246033"><ele>16.142857142857142</ele><time>2026-04-12T09:57:43.18Z</time></trkpt><trkpt lat="45.6625968" lon="12.2459597"><ele>15.857142857142856</ele><time>2026-04-12T09:57:47.124Z</time></trkpt><trkpt lat="45.6625406" lon="12.2458739"><ele>15.57142857142857</ele><time>2026-04-12T09:57:51.08Z</time></trkpt><trkpt lat="45.662489" lon="12.2457917"><ele>15.285714285714286</ele><time>2026-04-12T09:57:54.989Z</time></trkpt><trkpt lat="45.6624421" lon="12.2457231"><ele>15.0</ele><time>2026-04-12T09:57:58.962Z</time></trkpt><trkpt lat="45.6624009" lon="12.2456541"><ele>14.571428571428571</ele><time>2026-04-12T09:58:02.977Z</time></trkpt><trkpt lat="45.6623603" lon="12.2455825"><ele>14.142857142857142</ele><time>2026-04-12T09:58:06.983Z</time></trkpt><trkpt lat="45.6623234" lon="12.2455091"><ele>13.714285714285714</ele><time>2026-04-12T09:58:11.039Z</time></trkpt><trkpt lat="45.6622884" lon="12.2454286"><ele>13.285714285714285</ele><time>2026-04-12T09:58:15.106Z</time></trkpt><trkpt lat="45.6622825" lon="12.2453346"><ele>12.857142857142858</ele><time>2026-04-12T09:58:19.221Z</time></trkpt><trkpt lat="45.6622451" lon="12.2452358"><ele>12.428571428571427</ele><time>2026-04-12T09:58:24.224Z</time></trkpt><trkpt lat="45.6622011" lon="12.2451542"><ele>12.0</ele><time>2026-04-12T09:58:28.22Z</time></trkpt><trkpt lat="45.6621502" lon="12.2450747"><ele>11.999999999999998</ele><time>2026-04-12T09:58:32.184Z</time></trkpt><trkpt lat="45.6621134" lon="12.2449771"><ele>12.0</ele><time>2026-04-12T09:58:36.163Z</time></trkpt><trkpt lat="45.6620774" lon="12.2448692"><ele>12.0</ele><time>2026-04-12T09:58:40.607Z</time></trkpt><trkpt lat="45.6620447" lon="12.2447681"><ele>12.0</ele><time>2026-04-12T09:58:44.523Z</time></trkpt><trkpt lat="45.6620275" lon="12.2446664"><ele>12.0</ele><time>2026-04-12T09:58:48.477Z</time></trkpt><trkpt lat="45.6620025" lon="12.2445762"><ele>11.999999999999998</ele><time>2026-04-12T09:58:52.403Z</time></trkpt><trkpt lat="45.6619747" lon="12.2444916"><ele>12.0</ele><time>2026-04-12T09:58:56.56Z</time></trkpt><trkpt lat="45.661958" lon="12.2443861"><ele>12.0</ele><time>2026-04-12T09:59:01.59Z</time></trkpt><trkpt lat="45.661946" lon="12.244286"><ele>12.0</ele><time>2026-04-12T09:59:05.546Z</time></trkpt><trkpt lat="45.6619296" lon="12.2441858"><ele>12.0</ele><time>2026-04-12T09:59:09.622Z</time></trkpt><trkpt lat="45.661905" lon="12.244076"><ele>12.0</ele><time>2026-04-12T09:59:13.577Z</time></trkpt><trkpt lat="45.6618712" lon="12.2439729"><ele>12.0</ele><time>2026-04-12T09:59:17.625Z</time></trkpt><trkpt lat="45.6618422" lon="12.243876"><ele>12.0</ele><time>2026-04-12T09:59:21.562Z</time></trkpt><trkpt lat="45.6618165" lon="12.24376"><ele>11.999999999999998</ele><time>2026-04-12T09:59:25.537Z</time></trkpt><trkpt lat="45.6617907" lon="12.2436503"><ele>12.0</ele><time>2026-04-12T09:59:29.524Z</time></trkpt><trkpt lat="45.6617619" lon="12.2435483"><ele>12.0</ele><time>2026-04-12T09:59:33.458Z</time></trkpt><trkpt lat="45.661738" lon="12.2434487"><ele>12.0</ele><time>2026-04-12T09:59:37.445Z</time></trkpt><trkpt lat="45.6617124" lon="12.2433573"><ele>12.0</ele><time>2026-04-12T09:59:41.399Z</time></trkpt><trkpt lat="45.6616928" lon="12.2432586"><ele>11.999999999999998</ele><time>2026-04-12T09:59:45.367Z</time></trkpt><trkpt lat="45.6616768" lon="12.2431585"><ele>12.0</ele><time>2026-04-12T09:59:49.324Z</time></trkpt><trkpt lat="45.6616597" lon="12.2430542"><ele>11.833333333333334</ele><time>2026-04-12T09:59:53.257Z</time></trkpt><trkpt lat="45.6616592" lon="12.2429431"><ele>11.666666666666666</ele><time>2026-04-12T09:59:57.182Z</time></trkpt><trkpt lat="45.6616484" lon="12.2428318"><ele>11.5</ele><time>2026-04-12T10:00:01.525Z</time></trkpt><trkpt lat="45.6616439" lon="12.2427215"><ele>11.333333333333332</ele><time>2026-04-12T10:00:05.564Z</time></trkpt><trkpt lat="45.6616258" lon="12.2426172"><ele>11.166666666666666</ele><time>2026-04-12T10:00:09.584Z</time></trkpt><trkpt lat="45.6616141" lon="12.2425101"><ele>11.0</ele><time>2026-04-12T10:00:13.549Z</time></trkpt><trkpt lat="45.6616005" lon="12.2423932"><ele>11.333333333333332</ele><time>2026-04-12T10:00:17.58Z</time></trkpt><trkpt lat="45.6615878" lon="12.2422904"><ele>11.666666666666666</ele><time>2026-04-12T10:00:21.567Z</time></trkpt><trkpt lat="45.6615676" lon="12.2421949"><ele>12.0</ele><time>2026-04-12T10:00:25.502Z</time></trkpt><trkpt lat="45.6615245" lon="12.2421122"><ele>12.333333333333332</ele><time>2026-04-12T10:00:29.575Z</time></trkpt><trkpt lat="45.6615003" lon="12.2420042"><ele>12.666666666666666</ele><time>2026-04-12T10:00:33.531Z</time></trkpt><trkpt lat="45.6614815" lon="12.2418927"><ele>13.0</ele><time>2026-04-12T10:00:37.486Z</time></trkpt><trkpt lat="45.6614754" lon="12.2417819"><ele>13.0</ele><time>2026-04-12T10:00:41.562Z</time></trkpt><trkpt lat="45.6614617" lon="12.241674"><ele>13.0</ele><time>2026-04-12T10:00:45.517Z</time></trkpt><trkpt lat="45.6614436" lon="12.2415814"><ele>13.0</ele><time>2026-04-12T10:00:48.645Z</time></trkpt><trkpt lat="45.6614221" lon="12.2414785"><ele>13.0</ele><time>2026-04-12T10:00:52.589Z</time></trkpt><trkpt lat="45.6613982" lon="12.2413682"><ele>13.0</ele><time>2026-04-12T10:00:56.578Z</time></trkpt><trkpt lat="45.6613751" lon="12.2412677"><ele>13.0</ele><time>2026-04-12T10:01:00.501Z</time></trkpt><trkpt lat="45.6613559" lon="12.241174"><ele>13.0</ele><time>2026-04-12T10:01:04.619Z</time></trkpt><trkpt lat="45.661327" lon="12.2410775"><ele>13.333333333333332</ele><time>2026-04-12T10:01:08.566Z</time></trkpt><trkpt lat="45.6613012" lon="12.2409659"><ele>13.666666666666666</ele><time>2026-04-12T10:01:12.58Z</time></trkpt><trkpt lat="45.6612697" lon="12.2408596"><ele>14.0</ele><time>2026-04-12T10:01:16.567Z</time></trkpt><trkpt lat="45.6612328" lon="12.2407548"><ele>14.333333333333332</ele><time>2026-04-12T10:01:20.562Z</time></trkpt><trkpt lat="45.6611777" lon="12.2406887"><ele>14.666666666666666</ele><time>2026-04-12T10:01:25.546Z</time></trkpt><trkpt lat="45.6611394" lon="12.2405945"><ele>15.0</ele><time>2026-04-12T10:01:30.562Z</time></trkpt><trkpt lat="45.6611123" lon="12.240502"><ele>15.166666666666666</ele><time>2026-04-12T10:01:34.556Z</time></trkpt><trkpt lat="45.6610991" lon="12.2403971"><ele>15.333333333333332</ele><time>2026-04-12T10:01:38.585Z</time></trkpt><trkpt lat="45.6610762" lon="12.2402962"><ele>15.5</ele><time>2026-04-12T10:01:42.576Z</time></trkpt><trkpt lat="45.6610773" lon="12.2401413"><ele>15.666666666666666</ele><time>2026-04-12T10:01:48.522Z</time></trkpt><trkpt lat="45.6610801" lon="12.2400346"><ele>15.833333333333332</ele><time>2026-04-12T10:01:52.525Z</time></trkpt><trkpt lat="45.6610809" lon="12.2399238"><ele>16.0</ele><time>2026-04-12T10:01:56.481Z</time></trkpt><trkpt lat="45.6610844" lon="12.2398306"><ele>15.857142857142856</ele><time>2026-04-12T10:01:58.518Z</time></trkpt><trkpt lat="45.6611005" lon="12.2397304"><ele>15.714285714285712</ele><time>2026-04-12T10:02:01.515Z</time></trkpt><trkpt lat="45.6611283" lon="12.239627"><ele>15.571428571428571</ele><time>2026-04-12T10:02:04.512Z</time></trkpt><trkpt lat="45.661171" lon="12.2395361"><ele>15.428571428571427</ele><time>2026-04-12T10:02:07.509Z</time></trkpt><trkpt lat="45.6612038" lon="12.2394474"><ele>15.285714285714285</ele><time>2026-04-12T10:02:11.585Z</time></trkpt><trkpt lat="45.6612267" lon="12.2393535"><ele>15.142857142857142</ele><time>2026-04-12T10:02:15.606Z</time></trkpt><trkpt lat="45.6612598" lon="12.2392682"><ele>15.0</ele><time>2026-04-12T10:02:19.341Z</time></trkpt><trkpt lat="45.6612595" lon="12.2391544"><ele>14.666666666666666</ele><time>2026-04-12T10:02:23.585Z</time></trkpt><trkpt lat="45.6612582" lon="12.2390419"><ele>14.333333333333332</ele><time>2026-04-12T10:02:27.501Z</time></trkpt><trkpt lat="45.6612904" lon="12.2389343"><ele>14.0</ele><time>2026-04-12T10:02:31.467Z</time></trkpt><trkpt lat="45.6613218" lon="12.2388426"><ele>13.666666666666666</ele><time>2026-04-12T10:02:36.442Z</time></trkpt><trkpt lat="45.6613442" lon="12.2387405"><ele>13.333333333333332</ele><time>2026-04-12T10:02:41.552Z</time></trkpt><trkpt lat="45.6613692" lon="12.2386252"><ele>13.0</ele><time>2026-04-12T10:02:45.501Z</time></trkpt><trkpt lat="45.6613899" lon="12.2385127"><ele>12.857142857142856</ele><time>2026-04-12T10:02:49.467Z</time></trkpt><trkpt lat="45.6614282" lon="12.2384124"><ele>12.714285714285715</ele><time>2026-04-12T10:02:53.539Z</time></trkpt><trkpt lat="45.6614669" lon="12.2383251"><ele>12.571428571428571</ele><time>2026-04-12T10:02:57.495Z</time></trkpt><trkpt lat="45.6615032" lon="12.2382268"><ele>12.428571428571427</ele><time>2026-04-12T10:03:01.57Z</time></trkpt><trkpt lat="45.6615289" lon="12.238134"><ele>12.285714285714285</ele><time>2026-04-12T10:03:05.525Z</time></trkpt><trkpt lat="45.6615297" lon="12.2380343"><ele>12.142857142857142</ele><time>2026-04-12T10:03:10.122Z</time></trkpt><trkpt lat="45.6615717" lon="12.2379572"><ele>12.0</ele><time>2026-04-12T10:03:14.515Z</time></trkpt><trkpt lat="45.6616213" lon="12.2378693"><ele>11.999999999999998</ele><time>2026-04-12T10:03:19.496Z</time></trkpt><trkpt lat="45.661674" lon="12.2378153"><ele>12.0</ele><time>2026-04-12T10:03:23.505Z</time></trkpt><trkpt lat="45.6617352" lon="12.2377878"><ele>12.0</ele><time>2026-04-12T10:03:27.439Z</time></trkpt><trkpt lat="45.6617932" lon="12.2377444"><ele>12.0</ele><time>2026-04-12T10:03:31.537Z</time></trkpt><trkpt lat="45.6618539" lon="12.2376759"><ele>12.0</ele><time>2026-04-12T10:03:35.612Z</time></trkpt><trkpt lat="45.6619167" lon="12.2376158"><ele>11.999999999999998</ele><time>2026-04-12T10:03:39.568Z</time></trkpt><trkpt lat="45.6619829" lon="12.2376074"><ele>12.0</ele><time>2026-04-12T10:03:43.523Z</time></trkpt><trkpt lat="45.6620467" lon="12.2375707"><ele>12.428571428571427</ele><time>2026-04-12T10:03:48.558Z</time></trkpt><trkpt lat="45.6621114" lon="12.2374903"><ele>12.857142857142858</ele><time>2026-04-12T10:03:53.592Z</time></trkpt><trkpt lat="45.6621743" lon="12.2374576"><ele>13.285714285714285</ele><time>2026-04-12T10:03:58.508Z</time></trkpt><trkpt lat="45.6622344" lon="12.2374119"><ele>13.714285714285714</ele><time>2026-04-12T10:04:02.584Z</time></trkpt><trkpt lat="45.662295" lon="12.2373637"><ele>14.142857142857142</ele><time>2026-04-12T10:04:07.497Z</time></trkpt><trkpt lat="45.6623505" lon="12.2373043"><ele>14.571428571428571</ele><time>2026-04-12T10:04:11.574Z</time></trkpt><trkpt lat="45.6624004" lon="12.2372451"><ele>15.0</ele><time>2026-04-12T10:04:14.57Z</time></trkpt><trkpt lat="45.662471" lon="12.2371889"><ele>15.333333333333334</ele><time>2026-04-12T10:04:18.537Z</time></trkpt><trkpt lat="45.6625424" lon="12.2371409"><ele>15.666666666666668</ele><time>2026-04-12T10:04:22.482Z</time></trkpt><trkpt lat="45.6626129" lon="12.2370906"><ele>16.0</ele><time>2026-04-12T10:04:26.558Z</time></trkpt><trkpt lat="45.6626843" lon="12.2370257"><ele>16.333333333333336</ele><time>2026-04-12T10:04:30.512Z</time></trkpt><trkpt lat="45.6627344" lon="12.2369696"><ele>16.666666666666668</ele><time>2026-04-12T10:04:33.509Z</time></trkpt><trkpt lat="45.6628007" lon="12.2369184"><ele>17.0</ele><time>2026-04-12T10:04:38.528Z</time></trkpt><trkpt lat="45.6628692" lon="12.236872"><ele>17.0</ele><time>2026-04-12T10:04:43.579Z</time></trkpt><trkpt lat="45.6629505" lon="12.2367958"><ele>17.0</ele><time>2026-04-12T10:04:50.48Z</time></trkpt><trkpt lat="45.663007" lon="12.2367436"><ele>17.0</ele><time>2026-04-12T10:04:54.488Z</time></trkpt><trkpt lat="45.6630763" lon="12.2366887"><ele>17.0</ele><time>2026-04-12T10:04:58.562Z</time></trkpt><trkpt lat="45.6631408" lon="12.2366498"><ele>17.0</ele><time>2026-04-12T10:05:01.559Z</time></trkpt><trkpt lat="45.663204" lon="12.2365929"><ele>17.0</ele><time>2026-04-12T10:05:05.634Z</time></trkpt><trkpt lat="45.6632577" lon="12.2365267"><ele>16.833333333333336</ele><time>2026-04-12T10:05:08.626Z</time></trkpt><trkpt lat="45.6632832" lon="12.2364296"><ele>16.666666666666668</ele><time>2026-04-12T10:05:12.479Z</time></trkpt><trkpt lat="45.6633757" lon="12.2364018"><ele>16.5</ele><time>2026-04-12T10:05:17.325Z</time></trkpt><trkpt lat="45.6634472" lon="12.2363476"><ele>16.333333333333332</ele><time>2026-04-12T10:05:20.619Z</time></trkpt><trkpt lat="45.6635088" lon="12.2362716"><ele>16.166666666666664</ele><time>2026-04-12T10:05:25.626Z</time></trkpt><trkpt lat="45.6635501" lon="12.2361974"><ele>16.0</ele><time>2026-04-12T10:05:29.488Z</time></trkpt><trkpt lat="45.6636181" lon="12.2361585"><ele>16.0</ele><time>2026-04-12T10:05:37.52Z</time></trkpt><trkpt lat="45.663689" lon="12.236146"><ele>15.999999999999998</ele><time>2026-04-12T10:05:41.639Z</time></trkpt><trkpt lat="45.6637575" lon="12.2361154"><ele>16.0</ele><time>2026-04-12T10:05:45.604Z</time></trkpt><trkpt lat="45.6638142" lon="12.2360548"><ele>16.0</ele><time>2026-04-12T10:05:49.559Z</time></trkpt><trkpt lat="45.6638486" lon="12.2359782"><ele>15.999999999999998</ele><time>2026-04-12T10:05:53.505Z</time></trkpt><trkpt lat="45.6639087" lon="12.2359351"><ele>16.0</ele><time>2026-04-12T10:05:57.442Z</time></trkpt><trkpt lat="45.6639623" lon="12.2358699"><ele>16.0</ele><time>2026-04-12T10:06:02.485Z</time></trkpt><trkpt lat="45.6640103" lon="12.2358044"><ele>16.0</ele><time>2026-04-12T10:06:07.607Z</time></trkpt><trkpt lat="45.6640589" lon="12.235729"><ele>15.999999999999998</ele><time>2026-04-12T10:06:11.667Z</time></trkpt><trkpt lat="45.6641088" lon="12.2356659"><ele>16.0</ele><time>2026-04-12T10:06:15.603Z</time></trkpt><trkpt lat="45.6641685" lon="12.2356132"><ele>16.0</ele><time>2026-04-12T10:06:19.537Z</time></trkpt><trkpt lat="45.6642123" lon="12.2355433"><ele>15.999999999999998</ele><time>2026-04-12T10:06:23.442Z</time></trkpt><trkpt lat="45.6642802" lon="12.2354904"><ele>16.0</ele><time>2026-04-12T10:06:28.339Z</time></trkpt><trkpt lat="45.6643589" lon="12.2354508"><ele>16.0</ele><time>2026-04-12T10:06:32.224Z</time></trkpt><trkpt lat="45.6644221" lon="12.2354021"><ele>16.5</ele><time>2026-04-12T10:06:36.139Z</time></trkpt><trkpt lat="45.6644898" lon="12.2353431"><ele>17.0</ele><time>2026-04-12T10:06:41.982Z</time></trkpt><trkpt lat="45.66457" lon="12.2352918"><ele>17.5</ele><time>2026-04-12T10:06:45.878Z</time></trkpt><trkpt lat="45.6646289" lon="12.2352544"><ele>18.0</ele><time>2026-04-12T10:06:48.816Z</time></trkpt><trkpt lat="45.6646985" lon="12.2352089"><ele>18.5</ele><time>2026-04-12T10:06:51.722Z</time></trkpt><trkpt lat="45.6647798" lon="12.2351723"><ele>19.0</ele><time>2026-04-12T10:06:54.638Z</time></trkpt><trkpt lat="45.6648572" lon="12.2351271"><ele>19.0</ele><time>2026-04-12T10:06:57.548Z</time></trkpt><trkpt lat="45.6649319" lon="12.2350986"><ele>19.0</ele><time>2026-04-12T10:07:00.461Z</time></trkpt><trkpt lat="45.6649964" lon="12.2350735"><ele>19.0</ele><time>2026-04-12T10:07:03.358Z</time></trkpt><trkpt lat="45.6650621" lon="12.2350347"><ele>19.0</ele><time>2026-04-12T10:07:07.227Z</time></trkpt><trkpt lat="45.6651212" lon="12.2349783"><ele>19.0</ele><time>2026-04-12T10:07:11.081Z</time></trkpt><trkpt lat="45.6651946" lon="12.2349405"><ele>19.0</ele><time>2026-04-12T10:07:15.884Z</time></trkpt><trkpt lat="45.6652711" lon="12.234912"><ele>19.0</ele><time>2026-04-12T10:07:19.74Z</time></trkpt><trkpt lat="45.6653329" lon="12.234891"><ele>19.0</ele><time>2026-04-12T10:07:22.677Z</time></trkpt><trkpt lat="45.6654075" lon="12.2348594"><ele>19.0</ele><time>2026-04-12T10:07:26.585Z</time></trkpt><trkpt lat="45.6654755" lon="12.2348375"><ele>19.0</ele><time>2026-04-12T10:07:30Z</time></trkpt><trkpt lat="45.6655454" lon="12.2348087"><ele>19.0</ele><time>2026-04-12T10:07:33.833Z</time></trkpt><trkpt lat="45.6656187" lon="12.2347874"><ele>19.0</ele><time>2026-04-12T10:07:37.74Z</time></trkpt><trkpt lat="45.6656821" lon="12.2347879"><ele>19.0</ele><time>2026-04-12T10:07:41.647Z</time></trkpt><trkpt lat="45.6657451" lon="12.2347879"><ele>19.0</ele><time>2026-04-12T10:07:45.522Z</time></trkpt><trkpt lat="45.6658134" lon="12.2347694"><ele>19.0</ele><time>2026-04-12T10:07:49.459Z</time></trkpt><trkpt lat="45.6658868" lon="12.2347543"><ele>19.0</ele><time>2026-04-12T10:07:53.403Z</time></trkpt><trkpt lat="45.6659663" lon="12.234723"><ele>19.0</ele><time>2026-04-12T10:07:57.358Z</time></trkpt><trkpt lat="45.6660421" lon="12.2346916"><ele>19.0</ele><time>2026-04-12T10:08:01.326Z</time></trkpt><trkpt lat="45.6661088" lon="12.2346689"><ele>19.0</ele><time>2026-04-12T10:08:05.36Z</time></trkpt><trkpt lat="45.6661729" lon="12.2346455"><ele>19.0</ele><time>2026-04-12T10:08:09.325Z</time></trkpt><trkpt lat="45.6662466" lon="12.234614"><ele>19.0</ele><time>2026-04-12T10:08:13.262Z</time></trkpt><trkpt lat="45.6663222" lon="12.2346017"><ele>18.428571428571427</ele><time>2026-04-12T10:08:17.217Z</time></trkpt><trkpt lat="45.6663929" lon="12.2345864"><ele>17.857142857142858</ele><time>2026-04-12T10:08:21.143Z</time></trkpt><trkpt lat="45.666466" lon="12.2345761"><ele>17.285714285714285</ele><time>2026-04-12T10:08:26.078Z</time></trkpt><trkpt lat="45.6665451" lon="12.2345767"><ele>16.714285714285715</ele><time>2026-04-12T10:08:30.002Z</time></trkpt><trkpt lat="45.6666125" lon="12.234552"><ele>16.142857142857142</ele><time>2026-04-12T10:08:33.1Z</time></trkpt><trkpt lat="45.6666762" lon="12.2344861"><ele>15.571428571428573</ele><time>2026-04-12T10:08:37.086Z</time></trkpt><trkpt lat="45.6667407" lon="12.2344377"><ele>15.0</ele><time>2026-04-12T10:08:41.637Z</time></trkpt><trkpt lat="45.6667821" lon="12.2343648"><ele>15.0</ele><time>2026-04-12T10:08:47.511Z</time></trkpt><trkpt lat="45.6668069" lon="12.2342722"><ele>15.0</ele><time>2026-04-12T10:08:51.599Z</time></trkpt><trkpt lat="45.6668304" lon="12.2341726"><ele>15.0</ele><time>2026-04-12T10:08:55.605Z</time></trkpt><trkpt lat="45.6668349" lon="12.2340779"><ele>15.0</ele><time>2026-04-12T10:08:59.46Z</time></trkpt><trkpt lat="45.6668433" lon="12.2339872"><ele>15.0</ele><time>2026-04-12T10:09:03.605Z</time></trkpt><trkpt lat="45.6668273" lon="12.2338798"><ele>15.0</ele><time>2026-04-12T10:09:08.608Z</time></trkpt><trkpt lat="45.6667743" lon="12.2338237"><ele>15.0</ele><time>2026-04-12T10:09:15.56Z</time></trkpt><trkpt lat="45.6668467" lon="12.23379"><ele>15.285714285714286</ele><time>2026-04-12T10:10:16.306Z</time></trkpt><trkpt lat="45.6668167" lon="12.2336967"><ele>15.57142857142857</ele><time>2026-04-12T10:10:18.306Z</time></trkpt><trkpt lat="45.6667967" lon="12.23361"><ele>15.857142857142856</ele><time>2026-04-12T10:10:22.306Z</time></trkpt><trkpt lat="45.66678" lon="12.233505"><ele>16.142857142857142</ele><time>2026-04-12T10:10:27.306Z</time></trkpt><trkpt lat="45.6667783" lon="12.2334083"><ele>16.428571428571427</ele><time>2026-04-12T10:10:32.306Z</time></trkpt><trkpt lat="45.66677" lon="12.2333"><ele>16.71428571428571</ele><time>2026-04-12T10:10:37.306Z</time></trkpt><trkpt lat="45.666765" lon="12.2332033"><ele>17.0</ele><time>2026-04-12T10:10:41.306Z</time></trkpt><trkpt lat="45.666745" lon="12.233115"><ele>16.999999999999996</ele><time>2026-04-12T10:10:44.307Z</time></trkpt><trkpt lat="45.66673" lon="12.23301"><ele>17.0</ele><time>2026-04-12T10:10:48.307Z</time></trkpt><trkpt lat="45.6667133" lon="12.2329017"><ele>17.0</ele><time>2026-04-12T10:10:53.307Z</time></trkpt><trkpt lat="45.6666883" lon="12.23279"><ele>17.0</ele><time>2026-04-12T10:10:58.307Z</time></trkpt><trkpt lat="45.666675" lon="12.23269"><ele>17.0</ele><time>2026-04-12T10:11:02.306Z</time></trkpt><trkpt lat="45.6666683" lon="12.2325883"><ele>16.999999999999996</ele><time>2026-04-12T10:11:06.306Z</time></trkpt><trkpt lat="45.666665" lon="12.2324983"><ele>17.0</ele><time>2026-04-12T10:11:09.306Z</time></trkpt><trkpt lat="45.6666417" lon="12.2323883"><ele>17.142857142857142</ele><time>2026-04-12T10:11:13.307Z</time></trkpt><trkpt lat="45.66663" lon="12.2322717"><ele>17.285714285714285</ele><time>2026-04-12T10:11:17.307Z</time></trkpt><trkpt lat="45.6666167" lon="12.2321817"><ele>17.42857142857143</ele><time>2026-04-12T10:11:20.306Z</time></trkpt><trkpt lat="45.6666083" lon="12.2320917"><ele>17.57142857142857</ele><time>2026-04-12T10:11:23.306Z</time></trkpt><trkpt lat="45.666605" lon="12.232"><ele>17.714285714285715</ele><time>2026-04-12T10:11:26.306Z</time></trkpt><trkpt lat="45.6665933" lon="12.231895"><ele>17.857142857142858</ele><time>2026-04-12T10:11:30.307Z</time></trkpt><trkpt lat="45.6665883" lon="12.2317867"><ele>18.0</ele><time>2026-04-12T10:11:34.307Z</time></trkpt><trkpt lat="45.666585" lon="12.2316833"><ele>18.0</ele><time>2026-04-12T10:11:38.306Z</time></trkpt><trkpt lat="45.66658" lon="12.23159"><ele>18.0</ele><time>2026-04-12T10:11:41.306Z</time></trkpt><trkpt lat="45.6665717" lon="12.2314683"><ele>18.0</ele><time>2026-04-12T10:11:45.307Z</time></trkpt><trkpt lat="45.666555" lon="12.2313617"><ele>18.0</ele><time>2026-04-12T10:11:48.307Z</time></trkpt><trkpt lat="45.6665467" lon="12.2312633"><ele>18.0</ele><time>2026-04-12T10:11:51.306Z</time></trkpt><trkpt lat="45.6665433" lon="12.23115"><ele>18.0</ele><time>2026-04-12T10:11:55.306Z</time></trkpt><trkpt lat="45.6665333" lon="12.2310417"><ele>18.142857142857146</ele><time>2026-04-12T10:11:59.306Z</time></trkpt><trkpt lat="45.6665217" lon="12.2309367"><ele>18.285714285714285</ele><time>2026-04-12T10:12:03.306Z</time></trkpt><trkpt lat="45.666515" lon="12.230845"><ele>18.42857142857143</ele><time>2026-04-12T10:12:07.306Z</time></trkpt><trkpt lat="45.6665067" lon="12.2307467"><ele>18.571428571428573</ele><time>2026-04-12T10:12:12.306Z</time></trkpt><trkpt lat="45.6664917" lon="12.2306333"><ele>18.714285714285715</ele><time>2026-04-12T10:12:17.306Z</time></trkpt><trkpt lat="45.6664833" lon="12.2305217"><ele>18.857142857142858</ele><time>2026-04-12T10:12:21.306Z</time></trkpt><trkpt lat="45.66648" lon="12.2304183"><ele>19.0</ele><time>2026-04-12T10:12:24.306Z</time></trkpt><trkpt lat="45.66648" lon="12.2303133"><ele>18.857142857142858</ele><time>2026-04-12T10:12:29.306Z</time></trkpt><trkpt lat="45.6664667" lon="12.2302133"><ele>18.714285714285715</ele><time>2026-04-12T10:12:33.306Z</time></trkpt><trkpt lat="45.6664583" lon="12.2301183"><ele>18.571428571428573</ele><time>2026-04-12T10:12:37.307Z</time></trkpt><trkpt lat="45.666455" lon="12.23002"><ele>18.42857142857143</ele><time>2026-04-12T10:12:41.306Z</time></trkpt><trkpt lat="45.6664433" lon="12.2299183"><ele>18.285714285714285</ele><time>2026-04-12T10:12:45.306Z</time></trkpt><trkpt lat="45.6664267" lon="12.22982"><ele>18.142857142857146</ele><time>2026-04-12T10:12:50.306Z</time></trkpt><trkpt lat="45.6664183" lon="12.2297033"><ele>18.0</ele><time>2026-04-12T10:12:55.306Z</time></trkpt><trkpt lat="45.6664067" lon="12.2296117"><ele>18.0</ele><time>2026-04-12T10:12:58.306Z</time></trkpt><trkpt lat="45.6663974" lon="12.2294934"><ele>18.0</ele><time>2026-04-12T10:13:02.593Z</time></trkpt><trkpt lat="45.6663786" lon="12.2293755"><ele>18.0</ele><time>2026-04-12T10:13:05.589Z</time></trkpt><trkpt lat="45.6663688" lon="12.2292716"><ele>18.0</ele><time>2026-04-12T10:13:08.586Z</time></trkpt><trkpt lat="45.6663748" lon="12.2291661"><ele>18.0</ele><time>2026-04-12T10:13:12.542Z</time></trkpt><trkpt lat="45.6663584" lon="12.2290639"><ele>18.0</ele><time>2026-04-12T10:13:15.538Z</time></trkpt><trkpt lat="45.6663342" lon="12.2289551"><ele>18.166666666666668</ele><time>2026-04-12T10:13:18.535Z</time></trkpt><trkpt lat="45.6662896" lon="12.2288569"><ele>18.333333333333332</ele><time>2026-04-12T10:13:21.524Z</time></trkpt><trkpt lat="45.6662724" lon="12.2287568"><ele>18.5</ele><time>2026-04-12T10:13:24.53Z</time></trkpt><trkpt lat="45.6662477" lon="12.2286597"><ele>18.666666666666664</ele><time>2026-04-12T10:13:29.526Z</time></trkpt><trkpt lat="45.6661905" lon="12.2285884"><ele>18.833333333333332</ele><time>2026-04-12T10:13:34.26Z</time></trkpt><trkpt lat="45.6662628" lon="12.2285032"><ele>19.0</ele><time>2026-04-12T10:13:36.638Z</time></trkpt><trkpt lat="45.6662491" lon="12.2283955"><ele>19.0</ele><time>2026-04-12T10:13:40.504Z</time></trkpt><trkpt lat="45.6662214" lon="12.2283038"><ele>19.0</ele><time>2026-04-12T10:13:44.421Z</time></trkpt><trkpt lat="45.6662068" lon="12.2281965"><ele>19.0</ele><time>2026-04-12T10:13:48.587Z</time></trkpt><trkpt lat="45.6662084" lon="12.2280986"><ele>19.0</ele><time>2026-04-12T10:13:52.402Z</time></trkpt><trkpt lat="45.6662092" lon="12.228006"><ele>19.0</ele><time>2026-04-12T10:13:56.098Z</time></trkpt><trkpt lat="45.6662098" lon="12.227909"><ele>19.0</ele><time>2026-04-12T10:13:59.803Z</time></trkpt><trkpt lat="45.6662093" lon="12.2278111"><ele>19.0</ele><time>2026-04-12T10:14:03.56Z</time></trkpt><trkpt lat="45.6662017" lon="12.2277134"><ele>18.71428571428571</ele><time>2026-04-12T10:14:07.365Z</time></trkpt><trkpt lat="45.6661978" lon="12.2276097"><ele>18.42857142857143</ele><time>2026-04-12T10:14:11.182Z</time></trkpt><trkpt lat="45.6661878" lon="12.2275071"><ele>18.142857142857142</ele><time>2026-04-12T10:14:15.021Z</time></trkpt><trkpt lat="45.6661791" lon="12.227402"><ele>17.857142857142854</ele><time>2026-04-12T10:14:18.842Z</time></trkpt><trkpt lat="45.6661519" lon="12.227297"><ele>17.57142857142857</ele><time>2026-04-12T10:14:22.579Z</time></trkpt><trkpt lat="45.6661101" lon="12.2272247"><ele>17.285714285714285</ele><time>2026-04-12T10:14:25.406Z</time></trkpt><trkpt lat="45.6660517" lon="12.2271499"><ele>17.0</ele><time>2026-04-12T10:14:28.243Z</time></trkpt><trkpt lat="45.6659892" lon="12.2270889"><ele>16.857142857142854</ele><time>2026-04-12T10:14:31.1Z</time></trkpt><trkpt lat="45.6659307" lon="12.2270342"><ele>16.714285714285715</ele><time>2026-04-12T10:14:34.046Z</time></trkpt><trkpt lat="45.6659076" lon="12.2269473"><ele>16.57142857142857</ele><time>2026-04-12T10:14:38.103Z</time></trkpt><trkpt lat="45.6659328" lon="12.2268541"><ele>16.428571428571427</ele><time>2026-04-12T10:14:42.118Z</time></trkpt><trkpt lat="45.6659635" lon="12.2267522"><ele>16.285714285714285</ele><time>2026-04-12T10:14:46.52Z</time></trkpt><trkpt lat="45.6660005" lon="12.2266534"><ele>16.142857142857142</ele><time>2026-04-12T10:14:50.499Z</time></trkpt><trkpt lat="45.6660334" lon="12.2265684"><ele>16.0</ele><time>2026-04-12T10:14:54.524Z</time></trkpt><trkpt lat="45.6660354" lon="12.2264743"><ele>16.0</ele><time>2026-04-12T10:14:58.5Z</time></trkpt><trkpt lat="45.666042" lon="12.2263727"><ele>16.0</ele><time>2026-04-12T10:15:02.486Z</time></trkpt><trkpt lat="45.6660436" lon="12.2262581"><ele>16.0</ele><time>2026-04-12T10:15:06.482Z</time></trkpt><trkpt lat="45.6660478" lon="12.2261489"><ele>16.0</ele><time>2026-04-12T10:15:10.485Z</time></trkpt><trkpt lat="45.6660519" lon="12.2260477"><ele>16.0</ele><time>2026-04-12T10:15:14.521Z</time></trkpt><trkpt lat="45.6660368" lon="12.2259471"><ele>16.0</ele><time>2026-04-12T10:15:19.604Z</time></trkpt><trkpt lat="45.66599" lon="12.2258739"><ele>16.0</ele><time>2026-04-12T10:15:26.437Z</time></trkpt></trkseg></trk></gpx>